FR1816 / EI-EKB 7700 Squawk Report (18th of May, 2018)

Aircraft B738 Reg No. EI-EKB Age 8 years old
Model 737 Jet engines 2 First flight 17-12-09
Registered 11-01-10 Rollout 10-12-09 Delivered 14-01-10
Construction No. 38494 Line No. 3141 Series 8AS
ADSHEX 4CA7FF Airline name Ryanair Owner N/A
Airfield based Dublin~Co Dublin~EI First tracked 2011-04-01 17:34:02

Flight history for EI-EKB

Route Flight No Date Playback
Shannon (SNN) - Tenerife Sur (TFS) FR1348 2018-12-15 09:37:00
Alicante (ALC) - Shannon (SNN) FR4159 2018-12-14 21:50:00
Shannon (SNN) - Alicante (ALC) FR4158 2018-12-14 18:58:00
Gatwick (LGW) - Shannon (SNN) FR1183 2018-12-14 14:54:00
Shannon (SNN) - Gatwick (LGW) FR1182 2018-12-14 13:28:00
Stansted (STN) - Shannon (SNN) FR103 2018-12-14 11:21:00
Shannon (SNN) - Stansted (STN) FR102 2018-12-14 09:20:00
Kaunas Intl (KUN) - Shannon (SNN) FR8821 2018-12-13 22:59:00
Shannon (SNN) - Kaunas Intl (KUN) FR8822 2018-12-13 18:56:00
Gatwick (LGW) - Shannon (SNN) FR1183 2018-12-13 14:32:00
Shannon (SNN) - Gatwick (LGW) FR1182 2018-12-13 13:22:00
Stansted (STN) - Shannon (SNN) FR103 2018-12-13 10:26:00
Shannon (SNN) - Stansted (STN) FR102 2018-12-13 09:16:00
Warsaw Modlin (WMI) - Shannon (SNN) FR8879 2018-12-12 20:21:00
Shannon (SNN) - Warsaw Modlin (WMI) FR8878 2018-12-12 16:41:00
Manchester (MAN) - Shannon (SNN) FR4776 2018-12-12 13:09:00
Shannon (SNN) - Manchester (MAN) FR4777 2018-12-12 11:30:00
Malaga (AGP) - Shannon (SNN) FR2849 2018-12-11 21:16:00
Shannon (SNN) - Malaga (AGP) FR2848 2018-12-11 18:48:00
Gatwick (LGW) - Shannon (SNN) FR1183 2018-12-11 15:15:00
Time Lat Lon Altitude Heading Speed Vertical Rate
2018-05-18 17:39:30 GMT 36.681698 -4.503109 0 132 0 0
2018-05-18 17:39:10 GMT 36.681702 -4.503121 0 132 0 0
2018-05-18 17:38:49 GMT 36.681698 -4.503109 0 132 0 0
2018-05-18 17:38:39 GMT 36.681713 -4.503136 0 132 4 0
2018-05-18 17:38:27 GMT 36.681908 -4.503401 0 132 10 0
2018-05-18 17:38:16 GMT 36.682182 -4.503837 0 98 9 0
2018-05-18 17:38:09 GMT 36.682068 -4.504166 0 61 11 0
2018-05-18 17:37:54 GMT 36.682343 -4.505095 0 132 19 0
2018-05-18 17:37:48 GMT 36.682732 -4.505636 0 132 19 0
2018-05-18 17:37:15 GMT 36.682732 -4.507113 0 312 15 0
2018-05-18 17:37:05 GMT 36.682220 -4.506396 0 312 20 0
2018-05-18 17:36:51 GMT 36.681404 -4.505253 0 312 20 0
2018-05-18 17:36:44 GMT 36.680977 -4.504658 0 312 19 0
2018-05-18 17:36:26 GMT 36.680031 -4.503336 0 312 20 0
2018-05-18 17:36:23 GMT 36.679836 -4.503050 0 312 20 0
2018-05-18 17:36:11 GMT 36.679115 -4.502048 0 312 20 0
2018-05-18 17:36:04 GMT 36.678696 -4.501473 0 312 20 0
2018-05-18 17:35:49 GMT 36.677822 -4.500231 0 312 19 0
2018-05-18 17:35:40 GMT 36.677273 -4.499474 0 312 19 0
2018-05-18 17:35:29 GMT 36.676682 -4.498638 0 312 18 0
2018-05-18 17:35:19 GMT 36.676163 -4.497914 0 312 18 0
2018-05-18 17:33:38 GMT 36.674847 -4.499002 0 132 51 0
2018-05-18 17:33:33 GMT 36.675655 -4.500143 0 132 63 0
2018-05-18 17:33:24 GMT 36.677925 -4.503336 0 132 105 0
2018-05-18 17:33:12 GMT 36.682480 -4.509659 -25 131 143 -448
2018-05-18 17:33:02 GMT 36.686981 -4.515907 100 131 143 -768
2018-05-18 17:32:27 GMT 36.702484 -4.537646 575 131 144 -768
2018-05-18 17:32:20 GMT 36.705597 -4.541988 675 130 140 -768
2018-05-18 17:32:09 GMT 36.710442 -4.548924 800 131 141 -704
2018-05-18 17:31:59 GMT 36.714725 -4.554826 925 131 143 -832
2018-05-18 17:31:45 GMT 36.721195 -4.563826 1,075 131 148 -832
2018-05-18 17:31:37 GMT 36.724689 -4.568852 1,250 131 155 -960
2018-05-18 17:31:28 GMT 36.728970 -4.574871 1,375 131 165 -896
2018-05-18 17:31:11 GMT 36.737732 -4.587193 1,650 131 169 -1024
2018-05-18 17:31:03 GMT 36.741817 -4.592928 1,750 131 170 -896
2018-05-18 17:30:50 GMT 36.749035 -4.603096 1,950 131 175 -960
2018-05-18 17:30:36 GMT 36.756912 -4.614143 2,200 131 182 -1024
2018-05-18 17:30:15 GMT 36.768494 -4.630445 2,550 131 182 -1024
2018-05-18 17:30:05 GMT 36.774216 -4.638519 2,725 131 182 -960
2018-05-18 17:29:51 GMT 36.781761 -4.649145 2,950 131 184 -1152
2018-05-18 17:29:45 GMT 36.785294 -4.654083 3,075 132 186 -1216
2018-05-18 17:29:32 GMT 36.792847 -4.664726 3,350 131 187 -1216
2018-05-18 17:29:24 GMT 36.797470 -4.671249 3,500 131 189 -896
2018-05-18 17:29:12 GMT 36.804386 -4.681052 3,650 131 196 -704
2018-05-18 17:29:04 GMT 36.809647 -4.688358 3,750 132 201 -832
2018-05-18 17:28:53 GMT 36.816303 -4.697590 3,925 131 206 -1344
2018-05-18 17:28:43 GMT 36.822784 -4.706783 4,175 131 209 -1728
2018-05-18 17:28:33 GMT 36.829014 -4.715648 4,425 130 209 -1472
2018-05-18 17:28:26 GMT 36.833679 -4.722347 4,600 131 207 -1024
2018-05-18 17:28:23 GMT 36.835575 -4.725056 4,650 131 207 -1024
2018-05-18 17:28:19 GMT 36.838028 -4.728470 4,725 131 207 -512
2018-05-18 17:28:13 GMT 36.841999 -4.733997 4,775 132 207 -320
2018-05-18 17:28:10 GMT 36.843658 -4.736252 4,775 131 206 -128
2018-05-18 17:28:00 GMT 36.850571 -4.745918 4,800 131 209 192
2018-05-18 17:27:50 GMT 36.857025 -4.755035 4,800 130 210 -192
2018-05-18 17:27:40 GMT 36.863388 -4.764210 4,825 130 211 -256
2018-05-18 17:27:29 GMT 36.870209 -4.773978 4,875 130 213 -320
2018-05-18 17:27:19 GMT 36.876682 -4.783292 4,950 131 213 -448
2018-05-18 17:27:09 GMT 36.883575 -4.793078 5,025 131 211 -512
2018-05-18 17:26:58 GMT 36.890274 -4.802279 5,125 132 211 -640
2018-05-18 17:26:48 GMT 36.897125 -4.811427 5,250 134 214 -832
2018-05-18 17:26:37 GMT 36.904221 -4.821420 5,600 88 223 -960
2018-05-18 17:26:27 GMT 36.908524 -4.832640 5,525 103 219 -896
2018-05-18 17:26:23 GMT 36.909393 -4.838075 5,600 88 223 -960
2018-05-18 17:26:17 GMT 36.909687 -4.845508 5,675 85 223 -960
2018-05-18 17:26:08 GMT 36.907425 -4.857944 5,850 64 229 -1408
2018-05-18 17:25:57 GMT 36.901474 -4.868930 6,050 44 235 -640
2018-05-18 17:25:47 GMT 36.892788 -4.878766 6,150 40 243 -512
2018-05-18 17:25:36 GMT 36.883347 -4.888974 6,225 41 249 -384
2018-05-18 17:25:28 GMT 36.876709 -4.896279 6,325 42 254 -1728
2018-05-18 17:25:25 GMT 36.874603 -4.898617 6,350 41 254 -1152
2018-05-18 17:25:16 GMT 36.865742 -4.908679 6,600 43 253 -1728
2018-05-18 17:25:05 GMT 36.855919 -4.920621 6,850 43 258 -960
2018-05-18 17:24:54 GMT 36.846954 -4.929428 7,000 29 267 -704
2018-05-18 17:24:43 GMT 36.833817 -4.935493 7,150 7 279 -704
2018-05-18 17:24:33 GMT 36.820492 -4.936192 7,275 0 287 -768
2018-05-18 17:24:24 GMT 36.808411 -4.936008 7,400 0 294 -896
2018-05-18 17:24:13 GMT 36.793819 -4.935725 7,550 0 303 -768
2018-05-18 17:24:03 GMT 36.777897 -4.935433 7,650 359 314 64
2018-05-18 17:23:54 GMT 36.763229 -4.935093 7,600 359 332 -128
2018-05-18 17:23:42 GMT 36.747528 -4.934750 7,700 0 347 -1536
2018-05-18 17:23:31 GMT 36.729668 -4.934439 8,025 0 374 -2880
2018-05-18 17:23:23 GMT 36.715988 -4.934177 8,500 0 364 -3008
2018-05-18 17:23:19 GMT 36.709305 -4.934063 8,500 0 364 -3008
2018-05-18 17:23:13 GMT 36.698807 -4.933913 8,825 0 367 -3072
2018-05-18 17:23:10 GMT 36.694012 -4.933796 8,950 0 372 -3136
2018-05-18 17:23:01 GMT 36.678276 -4.933504 9,450 0 372 -3136
2018-05-18 17:22:50 GMT 36.659515 -4.933154 9,975 0 378 -2880
2018-05-18 17:22:41 GMT 36.643661 -4.932919 10,450 0 382 -3648
2018-05-18 17:22:31 GMT 36.627022 -4.932686 11,075 0 385 -3392
2018-05-18 17:22:28 GMT 36.620224 -4.932575 11,225 0 386 -3648
2018-05-18 17:22:21 GMT 36.608093 -4.932404 11,675 0 385 -4480
2018-05-18 17:22:17 GMT 36.600578 -4.932277 11,975 0 384 -4544
2018-05-18 17:22:11 GMT 36.589268 -4.932102 12,475 0 381 -4608
2018-05-18 17:22:00 GMT 36.569530 -4.931693 13,225 359 381 -3840
2018-05-18 17:21:50 GMT 36.553284 -4.931400 13,800 0 382 -3264
2018-05-18 17:21:41 GMT 36.535500 -4.931108 14,350 0 386 -3648
2018-05-18 17:21:30 GMT 36.516830 -4.930874 14,950 0 389 -3392
2018-05-18 17:21:20 GMT 36.499100 -4.930687 15,475 0 393 -3392
2018-05-18 17:21:13 GMT 36.487427 -4.930458 15,850 0 395 -3584
2018-05-18 17:21:08 GMT 36.476795 -4.930290 16,175 0 397 -2816
2018-05-18 17:20:59 GMT 36.460972 -4.929998 16,725 0 400 -2496
2018-05-18 17:20:55 GMT 36.452778 -4.929823 16,725 0 400 -2496
2018-05-18 17:20:52 GMT 36.448700 -4.929714 16,800 0 403 -2112
2018-05-18 17:20:49 GMT 36.441238 -4.929600 16,925 0 405 -2048
2018-05-18 17:20:41 GMT 36.427311 -4.929355 17,200 0 408 -2432
2018-05-18 17:20:37 GMT 36.418579 -4.929256 17,375 0 410 -2368
2018-05-18 17:20:28 GMT 36.399895 -4.929004 17,800 0 415 -2432
2018-05-18 17:20:18 GMT 36.383739 -4.928771 18,850 0 422 -2432
2018-05-18 17:20:11 GMT 36.369324 -4.928627 18,400 0 423 -2432
2018-05-18 17:20:08 GMT 36.363098 -4.928513 18,550 0 423 -2432
2018-05-18 17:20:04 GMT 36.354088 -4.928420 18,725 0 426 -2432
2018-05-18 17:20:01 GMT 36.349339 -4.928362 18,825 0 428 -2240
2018-05-18 17:19:58 GMT 36.341812 -4.928226 18,975 0 428 -2240
2018-05-18 17:19:51 GMT 36.329506 -4.928069 19,200 0 431 -2432
2018-05-18 17:19:47 GMT 36.322723 -4.927940 19,525 0 433 -3904
2018-05-18 17:19:37 GMT 36.301849 -4.927597 19,925 0 432 -4224
2018-05-18 17:19:27 GMT 36.281605 -4.927193 20,700 0 423 -4160
2018-05-18 17:19:18 GMT 36.265503 -4.926853 21,275 0 422 -3968
2018-05-18 17:19:15 GMT 36.259678 -4.926725 21,475 0 421 -3392
2018-05-18 17:19:09 GMT 36.247154 -4.926492 21,800 0 422 -2560
2018-05-18 17:19:05 GMT 36.239334 -4.926316 21,950 0 423 -2432
2018-05-18 17:19:01 GMT 36.231903 -4.926167 22,125 359 424 -2560
2018-05-18 17:18:58 GMT 36.226410 -4.926052 22,250 359 424 -3200
2018-05-18 17:18:55 GMT 36.220093 -4.925880 22,375 359 424 -3136
2018-05-18 17:18:51 GMT 36.211079 -4.925732 22,625 0 424 -3200
2018-05-18 17:18:45 GMT 36.199677 -4.925480 22,875 0 425 -1984
2018-05-18 17:18:41 GMT 36.191387 -4.925264 23,000 0 429 -1152
2018-05-18 17:18:35 GMT 36.179810 -4.925079 23,125 0 433 -2432
2018-05-18 17:18:30 GMT 36.170624 -4.924914 23,325 0 433 -3264
2018-05-18 17:18:27 GMT 36.164566 -4.924793 23,500 0 434 -3520
2018-05-18 17:18:23 GMT 36.156555 -4.924622 23,725 0 434 -3392
2018-05-18 17:18:17 GMT 36.143646 -4.924393 24,075 0 437 -3392
2018-05-18 17:18:14 GMT 36.138363 -4.924271 24,225 0 438 -3456
2018-05-18 17:18:09 GMT 36.128220 -4.924107 24,500 0 439 -3520
2018-05-18 17:18:04 GMT 36.117229 -4.923920 24,825 0 440 -3520
2018-05-18 17:17:57 GMT 36.104195 -4.923687 25,175 0 442 -3520
2018-05-18 17:17:54 GMT 36.096451 -4.923534 25,425 0 442 -3584
2018-05-18 17:17:43 GMT 36.074680 -4.923161 26,000 0 445 -3200
2018-05-18 17:17:33 GMT 36.053963 -4.922810 26,575 0 448 -3968
2018-05-18 17:17:23 GMT 36.032410 -4.922459 27,275 0 448 -4096
2018-05-18 17:17:12 GMT 36.010857 -4.922109 28,525 0 446 -4032
2018-05-18 17:17:02 GMT 35.990234 -4.921817 28,750 0 446 -3648
2018-05-18 17:16:52 GMT 35.969147 -4.921360 29,475 0 444 -5312
2018-05-18 17:16:48 GMT 35.960579 -4.921174 29,850 0 433 -2560
2018-05-18 17:16:44 GMT 35.953224 -4.921057 30,250 0 438 -5184
2018-05-18 17:16:41 GMT 35.946350 -4.920902 30,450 0 433 -2560
2018-05-18 17:16:34 GMT 35.932278 -4.920648 31,100 0 432 -4160
2018-05-18 17:16:31 GMT 35.927078 -4.920559 31,975 0 433 -2560
2018-05-18 17:16:21 GMT 35.906250 -4.920158 31,975 0 433 -2560
2018-05-18 17:16:11 GMT 35.885769 -4.919713 32,475 359 437 -2432
2018-05-18 17:16:05 GMT 35.873619 -4.919421 32,475 359 437 -2432
2018-05-18 17:16:01 GMT 35.865097 -4.919128 32,925 358 441 -3072
2018-05-18 17:15:57 GMT 35.856537 -4.918836 32,925 358 441 -3072
2018-05-18 17:15:50 GMT 35.843548 -4.918369 33,425 358 441 -3072
2018-05-18 17:15:45 GMT 35.834564 -4.917960 33,425 358 441 -3072
2018-05-18 17:15:40 GMT 35.823112 -4.917258 33,750 10 441 -2240
2018-05-18 17:15:31 GMT 35.804211 -4.915856 34,125 10 441 -2240
2018-05-18 17:15:28 GMT 35.795971 -4.915096 34,125 10 441 -2240
2018-05-18 17:15:21 GMT 35.783634 -4.914044 34,550 358 442 -4480
2018-05-18 17:15:18 GMT 35.778305 -4.913750 34,725 10 441 -2240
2018-05-18 17:15:11 GMT 35.763611 -4.913921 35,275 3 439 -3776
2018-05-18 17:15:08 GMT 35.758759 -4.914265 35,400 5 438 -3392
2018-05-18 17:14:59 GMT 35.739349 -4.917297 36,125 11 443 -2048
2018-05-18 17:14:51 GMT 35.724243 -4.922218 36,125 11 443 -2048
2018-05-18 17:14:48 GMT 35.714951 -4.926910 36,325 24 452 -2112
2018-05-18 17:14:38 GMT 35.699799 -4.935894 36,550 26 456 -1664
2018-05-18 17:14:34 GMT 35.691467 -4.940929 36,925 26 462 -1600
2018-05-18 17:14:30 GMT 35.683090 -4.945965 36,850 26 458 -1792
2018-05-18 17:14:27 GMT 35.677780 -4.949169 36,925 26 462 -1600
2018-05-18 17:14:22 GMT 35.668976 -4.954542 37,025 27 463 -1792
2018-05-18 17:14:18 GMT 35.660599 -4.959743 37,150 27 463 -1728
2018-05-18 17:14:15 GMT 35.655624 -4.962845 37,225 27 464 -1920
2018-05-18 17:14:08 GMT 35.642395 -4.971664 37,450 31 467 -1920
2018-05-18 17:14:05 GMT 35.636124 -4.976463 37,550 36 471 -1792
2018-05-18 17:13:56 GMT 35.621017 -4.991112 37,850 54 478 64
2018-05-18 17:13:46 GMT 35.605900 -5.011460 38,000 54 478 64
2018-05-18 17:13:35 GMT 35.593235 -5.036296 38,000 63 480 64
2018-05-18 17:13:25 GMT 35.585312 -5.061150 38,000 75 480 0
2018-05-18 17:13:16 GMT 35.581146 -5.086727 38,000 97 475 -64
2018-05-18 17:13:11 GMT 35.580387 -5.099176 38,000 97 475 -64
2018-05-18 17:13:08 GMT 35.580482 -5.109987 38,000 94 476 -64
2018-05-18 17:13:05 GMT 35.580711 -5.115363 38,000 95 476 -64
2018-05-18 17:13:02 GMT 35.581364 -5.122901 38,000 95 476 -64
2018-05-18 17:12:54 GMT 35.584904 -5.143881 38,025 105 471 -128
2018-05-18 17:12:43 GMT 35.594238 -5.171871 38,100 119 468 -1344
2018-05-18 17:12:33 GMT 35.606461 -5.193672 38,400 130 466 -2624
2018-05-18 17:12:22 GMT 35.622986 -5.213528 38,800 140 460 -1472
2018-05-18 17:12:14 GMT 35.637589 -5.225887 38,950 151 455 -320
2018-05-18 17:12:09 GMT 35.645782 -5.231209 38,975 152 454 -256
2018-05-18 17:12:04 GMT 35.655807 -5.236416 39,000 181 438 0
2018-05-18 17:12:00 GMT 35.663345 -5.239368 39,000 164 448 0
2018-05-18 17:11:51 GMT 35.682755 -5.243809 39,000 175 441 64
2018-05-18 17:11:43 GMT 35.697327 -5.244043 39,000 185 435 0
2018-05-18 17:11:39 GMT 35.706123 -5.242991 39,000 188 434 -64
2018-05-18 17:11:33 GMT 35.717468 -5.240021 39,025 197 428 0
2018-05-18 17:11:30 GMT 35.724243 -5.237446 39,025 201 426 64
2018-05-18 17:11:20 GMT 35.742050 -5.227375 39,000 210 422 64
2018-05-18 17:11:11 GMT 35.755844 -5.217337 39,000 213 421 64
2018-05-18 17:11:08 GMT 35.760727 -5.213413 39,000 214 421 64
2018-05-18 17:11:02 GMT 35.770599 -5.204890 39,000 217 420 0
2018-05-18 17:10:59 GMT 35.776234 -5.199806 39,000 217 420 0
2018-05-18 17:10:52 GMT 35.786892 -5.190163 39,000 217 420 0
2018-05-18 17:10:48 GMT 35.793457 -5.184174 39,000 217 420 0
2018-05-18 17:10:42 GMT 35.802200 -5.176220 39,000 217 420 0
2018-05-18 17:10:37 GMT 35.810349 -5.168839 39,000 214 421 0
2018-05-18 17:10:32 GMT 35.818451 -5.161457 39,000 217 421 0
2018-05-18 17:10:27 GMT 35.825958 -5.154591 39,000 217 420 0
2018-05-18 17:10:19 GMT 35.837589 -5.144173 39,000 213 421 0
2018-05-18 17:10:15 GMT 35.844013 -5.138855 39,000 214 421 0
2018-05-18 17:10:11 GMT 35.850952 -5.133419 39,000 212 422 0
2018-05-18 17:10:03 GMT 35.864868 -5.123603 39,000 208 424 0
2018-05-18 17:10:00 GMT 35.870087 -5.120258 39,000 208 424 0
2018-05-18 17:09:54 GMT 35.881210 -5.113106 39,000 208 424 0
2018-05-18 17:09:50 GMT 35.886749 -5.109558 39,000 208 424 0
2018-05-18 17:09:43 GMT 35.899643 -5.101279 39,000 208 424 64
2018-05-18 17:09:38 GMT 35.909370 -5.095027 39,000 208 424 0
2018-05-18 17:09:32 GMT 35.918793 -5.089016 39,000 208 424 0
2018-05-18 17:09:28 GMT 35.926437 -5.084095 39,000 208 424 0
2018-05-18 17:09:23 GMT 35.934814 -5.078716 39,000 208 424 0
2018-05-18 17:09:20 GMT 35.940353 -5.075111 39,000 208 424 64
2018-05-18 17:09:17 GMT 35.945251 -5.072021 39,000 208 424 64
2018-05-18 17:09:13 GMT 35.952209 -5.067501 39,000 208 424 0
2018-05-18 17:09:09 GMT 35.959167 -5.063038 39,000 208 424 0
2018-05-18 17:09:06 GMT 35.964397 -5.059672 39,000 208 424 0
2018-05-18 17:09:02 GMT 35.970291 -5.055885 39,000 208 425 0
2018-05-18 17:08:59 GMT 35.976562 -5.051823 39,000 208 425 0
2018-05-18 17:08:56 GMT 35.981808 -5.048510 39,000 208 425 64
2018-05-18 17:08:52 GMT 35.988464 -5.044212 39,000 208 425 0
2018-05-18 17:08:49 GMT 35.994377 -5.040446 39,000 208 424 64
2018-05-18 17:08:44 GMT 36.002056 -5.035478 39,000 208 424 64
2018-05-18 17:08:41 GMT 36.006947 -5.032381 39,000 208 424 0
2018-05-18 17:08:38 GMT 36.014236 -5.027676 39,000 208 424 64
2018-05-18 17:08:34 GMT 36.019466 -5.024317 39,000 208 425 64
2018-05-18 17:08:31 GMT 36.024357 -5.021161 39,000 208 425 64
2018-05-18 17:08:28 GMT 36.029617 -5.017834 39,000 208 425 0
2018-05-18 17:08:22 GMT 36.042511 -5.009532 39,000 208 425 0
2018-05-18 17:08:18 GMT 36.047058 -5.006618 39,000 208 426 0
2018-05-18 17:08:15 GMT 36.053375 -5.002556 39,000 208 426 0
2018-05-18 17:08:11 GMT 36.060665 -4.997844 39,000 208 425 64
2018-05-18 17:08:08 GMT 36.065918 -4.994488 39,000 208 425 0
2018-05-18 17:08:03 GMT 36.074680 -4.988903 39,000 208 425 0
2018-05-18 17:07:57 GMT 36.083710 -4.983059 39,000 208 425 0
2018-05-18 17:07:54 GMT 36.090363 -4.978752 39,000 208 425 0
2018-05-18 17:07:45 GMT 36.105698 -4.968853 39,000 208 425 0
2018-05-18 17:07:35 GMT 36.123512 -4.957405 39,000 208 426 64
2018-05-18 17:07:30 GMT 36.130829 -4.952660 39,000 208 426 0
2018-05-18 17:07:24 GMT 36.142731 -4.945049 39,000 208 426 0
2018-05-18 17:07:18 GMT 36.152840 -4.938471 39,000 208 426 0
2018-05-18 17:07:13 GMT 36.160904 -4.933319 39,000 208 426 0
2018-05-18 17:07:08 GMT 36.169968 -4.927483 39,000 208 426 0
2018-05-18 17:07:04 GMT 36.177658 -4.922504 39,000 208 426 0
2018-05-18 17:07:01 GMT 36.181870 -4.919815 39,000 208 426 0
2018-05-18 17:06:55 GMT 36.192352 -4.913120 39,000 208 426 0
2018-05-18 17:06:51 GMT 36.199673 -4.908376 39,000 208 425 0
2018-05-18 17:06:44 GMT 36.213272 -4.899616 39,000 208 425 0
2018-05-18 17:06:40 GMT 36.218857 -4.896011 39,000 208 425 0
2018-05-18 17:06:35 GMT 36.228302 -4.889909 39,000 208 425 0
2018-05-18 17:06:30 GMT 36.237030 -4.884281 39,000 208 425 0
2018-05-18 17:06:22 GMT 36.250599 -4.875475 39,000 208 425 0
2018-05-18 17:06:19 GMT 36.255157 -4.872551 39,000 208 425 0
2018-05-18 17:06:13 GMT 36.267014 -4.864883 39,000 208 425 0
2018-05-18 17:06:09 GMT 36.273643 -4.860574 39,000 208 426 0
2018-05-18 17:06:02 GMT 36.286213 -4.852451 39,000 208 426 0
2018-05-18 17:05:57 GMT 36.293194 -4.847951 39,000 208 426 0
2018-05-18 17:05:51 GMT 36.304413 -4.840705 39,000 208 426 0
2018-05-18 17:05:48 GMT 36.310001 -4.837082 39,000 208 426 0
2018-05-18 17:05:42 GMT 36.321487 -4.829578 39,000 208 426 0
2018-05-18 17:05:38 GMT 36.327118 -4.825974 39,000 208 427 0
2018-05-18 17:05:35 GMT 36.333042 -4.822063 39,000 208 426 64
2018-05-18 17:05:31 GMT 36.340027 -4.817563 39,000 208 426 0
2018-05-18 17:05:28 GMT 36.344559 -4.814587 39,000 208 426 0
2018-05-18 17:05:25 GMT 36.350502 -4.810726 39,000 208 426 0
2018-05-18 17:05:21 GMT 36.357529 -4.806226 39,000 208 426 0
2018-05-18 17:05:18 GMT 36.361721 -4.803480 39,000 208 426 0
2018-05-18 17:05:14 GMT 36.368362 -4.799194 39,000 208 426 0
2018-05-18 17:05:09 GMT 36.378479 -4.792610 39,000 208 426 0
2018-05-18 17:05:06 GMT 36.383366 -4.789455 39,000 208 427 0
2018-05-18 17:05:03 GMT 36.389000 -4.785773 39,000 208 427 0
2018-05-18 17:04:59 GMT 36.397381 -4.780338 39,000 208 427 0
2018-05-18 17:04:56 GMT 36.400871 -4.778059 39,000 208 427 0
2018-05-18 17:04:53 GMT 36.405758 -4.774904 39,000 208 427 0
2018-05-18 17:04:50 GMT 36.414505 -4.769211 39,000 208 427 64
2018-05-18 17:04:47 GMT 36.416233 -4.768066 39,000 208 427 64
2018-05-18 17:04:43 GMT 36.422516 -4.763976 39,000 208 427 64
2018-05-18 17:04:40 GMT 36.429501 -4.759359 39,000 208 427 0
2018-05-18 17:04:37 GMT 36.433689 -4.756671 39,000 208 427 0
2018-05-18 17:04:33 GMT 36.441010 -4.751873 39,000 208 427 0
2018-05-18 17:04:30 GMT 36.447655 -4.747555 39,000 208 426 0
2018-05-18 17:04:27 GMT 36.451843 -4.744808 39,000 208 426 0
2018-05-18 17:04:22 GMT 36.459183 -4.739971 39,000 208 427 64
2018-05-18 17:04:19 GMT 36.465813 -4.735633 39,000 208 427 64
2018-05-18 17:04:16 GMT 36.471039 -4.732246 39,000 208 427 64
2018-05-18 17:04:12 GMT 36.477356 -4.728127 39,000 208 427 64
2018-05-18 17:04:08 GMT 36.484360 -4.723549 39,000 208 427 0
2018-05-18 17:04:05 GMT 36.489597 -4.720147 39,000 208 427 0
2018-05-18 17:03:59 GMT 36.501846 -4.712162 39,000 208 427 0
2018-05-18 17:03:55 GMT 36.507755 -4.708284 39,000 208 427 0
2018-05-18 17:03:51 GMT 36.514435 -4.703922 39,000 208 427 64
2018-05-18 17:03:48 GMT 36.519333 -4.700718 39,000 208 427 64
2018-05-18 17:03:45 GMT 36.525257 -4.696831 39,000 208 427 0
2018-05-18 17:03:41 GMT 36.532288 -4.692272 39,000 208 428 0
2018-05-18 17:03:37 GMT 36.538239 -4.688416 39,000 208 428 0
2018-05-18 17:03:34 GMT 36.543137 -4.685211 39,000 208 428 0
2018-05-18 17:03:28 GMT 36.556458 -4.676571 39,000 208 428 0
2018-05-18 17:03:24 GMT 36.560623 -4.673824 39,000 208 427 0
2018-05-18 17:03:20 GMT 36.568359 -4.668789 39,000 208 428 0
2018-05-18 17:03:16 GMT 36.577469 -4.662838 39,000 208 427 64
2018-05-18 17:03:12 GMT 36.583054 -4.659233 39,000 208 428 0
2018-05-18 17:03:09 GMT 36.587593 -4.656216 39,000 208 428 0
2018-05-18 17:03:06 GMT 36.593922 -4.652126 39,000 208 427 64
2018-05-18 17:03:03 GMT 36.598812 -4.648970 39,000 208 427 0
2018-05-18 17:02:56 GMT 36.611427 -4.640730 39,000 208 427 0
2018-05-18 17:02:53 GMT 36.615616 -4.638042 39,000 208 427 0
2018-05-18 17:02:46 GMT 36.629288 -4.629135 39,000 208 427 0
2018-05-18 17:02:43 GMT 36.633121 -4.626588 39,000 208 427 0
2018-05-18 17:02:38 GMT 36.641499 -4.621095 39,000 208 427 0
2018-05-18 17:02:35 GMT 36.648148 -4.616776 39,000 208 427 0
2018-05-18 17:02:30 GMT 36.655106 -4.612141 39,000 208 427 0
2018-05-18 17:02:25 GMT 36.665939 -4.605083 39,000 208 427 0
2018-05-18 17:02:22 GMT 36.670174 -4.602336 39,000 208 427 0
2018-05-18 17:02:15 GMT 36.683807 -4.593430 39,000 208 427 0
2018-05-18 17:02:12 GMT 36.687973 -4.590683 39,000 208 427 64
2018-05-18 17:02:05 GMT 36.698807 -4.583578 39,000 208 427 0
2018-05-18 17:02:02 GMT 36.704773 -4.579697 39,000 208 427 0
2018-05-18 17:01:54 GMT 36.719421 -4.570084 39,000 208 427 0
2018-05-18 17:01:51 GMT 36.725006 -4.566422 39,000 208 427 0
2018-05-18 17:01:43 GMT 36.740387 -4.556351 39,000 208 427 0
2018-05-18 17:01:40 GMT 36.743866 -4.554005 39,000 208 427 0
2018-05-18 17:01:34 GMT 36.756111 -4.546002 39,000 208 427 0
2018-05-18 17:01:31 GMT 36.758904 -4.544191 39,000 208 427 0
2018-05-18 17:01:24 GMT 36.771835 -4.535694 39,000 208 427 0
2018-05-18 17:01:21 GMT 36.776733 -4.532490 39,000 208 427 0
2018-05-18 17:01:13 GMT 36.791428 -4.522820 39,000 208 427 0
2018-05-18 17:01:10 GMT 36.795639 -4.520073 39,000 208 427 0
2018-05-18 17:01:04 GMT 36.809273 -4.511115 39,000 208 427 0
2018-05-18 17:01:00 GMT 36.812439 -4.509029 39,000 208 427 0
2018-05-18 17:00:52 GMT 36.827820 -4.498901 39,000 208 427 0
2018-05-18 17:00:49 GMT 36.831665 -4.496389 39,000 208 427 0
2018-05-18 17:00:40 GMT 36.848469 -4.485285 39,000 208 427 0
2018-05-18 17:00:29 GMT 36.866673 -4.473287 39,000 208 429 0
2018-05-18 17:00:22 GMT 36.881012 -4.463839 39,000 208 429 0
2018-05-18 17:00:19 GMT 36.884872 -4.461285 39,000 208 429 0
2018-05-18 17:00:11 GMT 36.900982 -4.450657 39,000 208 429 0
2018-05-18 17:00:08 GMT 36.905914 -4.447433 39,000 208 429 0
2018-05-18 16:59:58 GMT 36.921021 -4.437483 39,000 208 429 64
2018-05-18 16:59:51 GMT 36.935074 -4.428191 39,000 208 429 64
2018-05-18 16:59:48 GMT 36.938923 -4.425639 39,000 208 429 64
2018-05-18 16:59:41 GMT 36.953339 -4.416153 39,000 208 431 0
2018-05-18 16:59:37 GMT 36.958282 -4.412881 39,000 208 431 0
2018-05-18 16:59:30 GMT 36.971321 -4.404264 39,000 208 431 0
2018-05-18 16:59:27 GMT 36.976955 -4.400562 39,000 208 431 0
2018-05-18 16:59:19 GMT 36.990360 -4.391725 39,000 208 432 64
2018-05-18 16:59:16 GMT 36.996368 -4.387752 39,000 208 432 0
2018-05-18 16:59:10 GMT 37.007675 -4.380272 39,000 208 432 -64
2018-05-18 16:59:06 GMT 37.014427 -4.375843 39,000 208 432 -64
2018-05-18 16:58:58 GMT 37.028183 -4.366715 39,000 208 432 0
2018-05-18 16:58:55 GMT 37.032440 -4.363910 39,000 208 432 0
2018-05-18 16:58:49 GMT 37.044479 -4.355904 39,000 208 433 0
2018-05-18 16:58:45 GMT 37.050842 -4.351696 39,000 208 433 0
2018-05-18 16:58:42 GMT 37.057583 -4.347242 39,000 208 433 0
2018-05-18 16:58:39 GMT 37.062195 -4.344216 39,000 208 433 0
2018-05-18 16:58:35 GMT 37.069244 -4.339483 39,000 208 433 -64
2018-05-18 16:58:29 GMT 37.080597 -4.332003 39,000 208 433 0
2018-05-18 16:58:26 GMT 37.084122 -4.329665 39,000 209 433 0
2018-05-18 16:58:21 GMT 37.093708 -4.323299 39,000 209 433 64
2018-05-18 16:58:16 GMT 37.102180 -4.317627 39,000 209 433 0
2018-05-18 16:58:13 GMT 37.107513 -4.314121 39,000 208 433 0
2018-05-18 16:58:08 GMT 37.117447 -4.307517 39,000 209 433 0
2018-05-18 16:58:04 GMT 37.123810 -4.303310 39,000 209 433 0
2018-05-18 16:57:59 GMT 37.131592 -4.298109 39,000 209 433 0
2018-05-18 16:57:56 GMT 37.139050 -4.293206 39,000 209 433 0
2018-05-18 16:57:53 GMT 37.142586 -4.290818 39,000 209 433 0
2018-05-18 16:57:49 GMT 37.149662 -4.286101 39,000 209 433 0
2018-05-18 16:57:45 GMT 37.157135 -4.281162 39,000 209 433 0
2018-05-18 16:57:42 GMT 37.161720 -4.278100 39,000 209 433 0
2018-05-18 16:57:37 GMT 37.171635 -4.271532 39,000 209 433 0
2018-05-18 16:57:33 GMT 37.178375 -4.267078 39,000 209 433 0
2018-05-18 16:57:28 GMT 37.186535 -4.261621 39,000 209 433 0
2018-05-18 16:57:25 GMT 37.192909 -4.257381 39,000 209 433 64
2018-05-18 16:57:22 GMT 37.197147 -4.254575 39,000 209 433 64
2018-05-18 16:57:15 GMT 37.209549 -4.246333 39,000 209 433 64
2018-05-18 16:57:12 GMT 37.215580 -4.242275 39,000 209 433 64
2018-05-18 16:57:08 GMT 37.223694 -4.236866 39,000 209 433 0
2018-05-18 16:57:04 GMT 37.230057 -4.232600 39,000 209 433 0
2018-05-18 16:57:01 GMT 37.235367 -4.229080 39,000 209 433 64
2018-05-18 16:56:57 GMT 37.241745 -4.224840 39,000 208 433 0
2018-05-18 16:56:54 GMT 37.246723 -4.221556 39,000 208 433 64
2018-05-18 16:56:51 GMT 37.252762 -4.217523 39,000 208 433 0
2018-05-18 16:56:44 GMT 37.265160 -4.209316 39,000 209 433 0
2018-05-18 16:56:41 GMT 37.271164 -4.205309 39,000 208 433 64
2018-05-18 16:56:34 GMT 37.282516 -4.197771 39,000 208 433 0
2018-05-18 16:56:30 GMT 37.288879 -4.193505 39,000 209 433 0
2018-05-18 16:56:24 GMT 37.300186 -4.185966 39,000 209 433 0
2018-05-18 16:56:20 GMT 37.307613 -4.181014 39,000 208 433 0
2018-05-18 16:56:14 GMT 37.318974 -4.173491 39,000 209 433 0
2018-05-18 16:56:09 GMT 37.326416 -4.168493 39,000 209 433 0
2018-05-18 16:56:03 GMT 37.338806 -4.160236 39,000 209 433 0
2018-05-18 16:55:59 GMT 37.344086 -4.156747 39,000 209 433 0
2018-05-18 16:55:53 GMT 37.356125 -4.148683 39,000 209 433 0
2018-05-18 16:55:49 GMT 37.362488 -4.144417 39,000 209 433 64
2018-05-18 16:55:44 GMT 37.371689 -4.138223 39,000 209 433 64
2018-05-18 16:55:38 GMT 37.380890 -4.132028 39,000 209 433 0
2018-05-18 16:55:33 GMT 37.392525 -4.124172 39,000 209 434 0
2018-05-18 16:55:30 GMT 37.396763 -4.121306 39,000 209 433 0
2018-05-18 16:55:27 GMT 37.401047 -4.118440 39,000 209 433 0
2018-05-18 16:55:23 GMT 37.408821 -4.113245 39,000 209 433 0
2018-05-18 16:55:20 GMT 37.414810 -4.109179 39,000 209 433 0
2018-05-18 16:55:13 GMT 37.426163 -4.101640 39,000 209 433 0
2018-05-18 16:55:10 GMT 37.433212 -4.096907 39,000 209 433 0
2018-05-18 16:55:07 GMT 37.436424 -4.094736 39,000 209 433 0
2018-05-18 16:55:02 GMT 37.446293 -4.088108 39,000 209 433 0
2018-05-18 16:54:59 GMT 37.451614 -4.084577 39,000 209 433 0
2018-05-18 16:54:51 GMT 37.465027 -4.075577 39,000 208 432 64
2018-05-18 16:54:46 GMT 37.474228 -4.069441 39,000 208 432 0
2018-05-18 16:54:43 GMT 37.479858 -4.065643 39,000 208 432 0
2018-05-18 16:54:39 GMT 37.487259 -4.060702 39,000 208 432 0
2018-05-18 16:54:35 GMT 37.492584 -4.057169 39,000 208 432 0
2018-05-18 16:54:32 GMT 37.498215 -4.053371 39,000 209 431 0
2018-05-18 16:54:28 GMT 37.506348 -4.047984 39,000 209 431 0
2018-05-18 16:54:21 GMT 37.519409 -4.039229 39,000 209 431 64
2018-05-18 16:54:18 GMT 37.524307 -4.035956 39,000 209 431 64
2018-05-18 16:54:11 GMT 37.534882 -4.028885 39,000 209 431 64
2018-05-18 16:54:08 GMT 37.542664 -4.023684 39,000 209 431 64
2018-05-18 16:54:00 GMT 37.554611 -4.015678 39,000 209 431 -64
2018-05-18 16:53:57 GMT 37.560627 -4.011622 39,000 209 431 -64
2018-05-18 16:53:50 GMT 37.572235 -4.003815 39,000 209 431 0
2018-05-18 16:53:47 GMT 37.578876 -3.999322 39,000 209 431 64
2018-05-18 16:53:39 GMT 37.590839 -3.991261 39,000 209 430 0
2018-05-18 16:53:36 GMT 37.597504 -3.986751 39,000 209 430 0
2018-05-18 16:53:29 GMT 37.608719 -3.979155 39,000 209 429 0
2018-05-18 16:53:25 GMT 37.616070 -3.974185 39,000 209 430 0
2018-05-18 16:53:16 GMT 37.634228 -3.961765 39,000 209 430 64
2018-05-18 16:53:08 GMT 37.645397 -3.954183 39,000 209 430 64
2018-05-18 16:53:05 GMT 37.651730 -3.949884 39,000 209 429 64
2018-05-18 16:52:58 GMT 37.662903 -3.942241 39,000 209 429 0
2018-05-18 16:52:53 GMT 37.674072 -3.934658 39,000 209 429 -64
2018-05-18 16:52:48 GMT 37.680359 -3.930359 39,000 209 429 -64
2018-05-18 16:52:43 GMT 37.690475 -3.923522 39,000 209 429 0
2018-05-18 16:52:38 GMT 37.698212 -3.918321 39,000 209 428 0
2018-05-18 16:52:35 GMT 37.705544 -3.913402 39,000 209 428 64
2018-05-18 16:52:28 GMT 37.716385 -3.906107 39,000 209 428 64
2018-05-18 16:52:23 GMT 37.724075 -3.900965 39,000 208 428 0
2018-05-18 16:52:17 GMT 37.735474 -3.893894 39,000 205 429 -64
2018-05-18 16:52:13 GMT 37.743439 -3.889452 39,000 203 429 -64
2018-05-18 16:52:07 GMT 37.753738 -3.884076 39,000 203 429 0
2018-05-18 16:52:03 GMT 37.761795 -3.879869 39,000 203 429 0
2018-05-18 16:51:56 GMT 37.772827 -3.874083 39,000 203 429 64
2018-05-18 16:51:52 GMT 37.781284 -3.869695 39,000 203 429 64
2018-05-18 16:51:46 GMT 37.791916 -3.864149 39,000 203 429 64
2018-05-18 16:51:43 GMT 37.798882 -3.860500 39,000 203 429 0
2018-05-18 16:51:40 GMT 37.803680 -3.858013 39,000 203 429 0
2018-05-18 16:51:32 GMT 37.820572 -3.849247 39,000 203 429 0
2018-05-18 16:51:25 GMT 37.830826 -3.843871 39,000 203 428 0
2018-05-18 16:51:21 GMT 37.838543 -3.839841 39,000 203 429 64
2018-05-18 16:51:14 GMT 37.850273 -3.833691 39,000 203 429 64
2018-05-18 16:51:11 GMT 37.858330 -3.829452 39,000 203 429 0
2018-05-18 16:51:04 GMT 37.868568 -3.824018 39,000 203 429 0
2018-05-18 16:51:00 GMT 37.876968 -3.819561 39,000 203 429 0
2018-05-18 16:50:53 GMT 37.888687 -3.813366 39,000 203 429 0
2018-05-18 16:50:48 GMT 37.899296 -3.807778 39,000 203 429 0
2018-05-18 16:50:43 GMT 37.906998 -3.803724 39,000 203 429 0
2018-05-18 16:50:38 GMT 37.916889 -3.798463 39,000 203 429 0
2018-05-18 16:50:32 GMT 37.927876 -3.792672 39,000 203 429 0
2018-05-18 16:50:26 GMT 37.939224 -3.786718 39,000 203 429 0
2018-05-18 16:50:18 GMT 37.955338 -3.778187 39,000 203 429 0
2018-05-18 16:50:11 GMT 37.965591 -3.772752 39,000 203 429 0
2018-05-18 16:50:07 GMT 37.974010 -3.768311 39,000 203 429 0
2018-05-18 16:50:00 GMT 37.986099 -3.761941 39,000 203 429 0
2018-05-18 16:49:56 GMT 37.994888 -3.757324 39,000 203 429 -64
2018-05-18 16:49:49 GMT 38.006969 -3.750935 39,000 203 429 64
2018-05-18 16:49:45 GMT 38.014324 -3.747054 39,000 203 429 0
2018-05-18 16:49:38 GMT 38.027161 -3.740319 39,000 203 429 -64
2018-05-18 16:49:33 GMT 38.035950 -3.735702 39,000 203 429 -64
2018-05-18 16:49:24 GMT 38.052452 -3.727052 39,000 203 429 0
2018-05-18 16:49:21 GMT 38.057617 -3.724306 39,000 203 429 0
2018-05-18 16:49:13 GMT 38.072281 -3.716603 39,000 203 430 0
2018-05-18 16:49:10 GMT 38.077789 -3.713730 39,000 203 429 0
2018-05-18 16:48:59 GMT 38.097656 -3.703269 39,000 203 430 0
2018-05-18 16:48:51 GMT 38.113815 -3.694796 39,000 203 430 0
2018-05-18 16:48:47 GMT 38.120453 -3.691289 39,000 203 431 0
2018-05-18 16:48:42 GMT 38.132950 -3.684686 39,000 203 431 0
2018-05-18 16:48:37 GMT 38.138855 -3.681589 39,000 203 430 0
2018-05-18 16:48:31 GMT 38.153934 -3.673553 39,000 203 431 0
2018-05-18 16:48:27 GMT 38.157612 -3.671583 39,000 203 431 0
2018-05-18 16:48:24 GMT 38.161987 -3.669254 39,000 203 431 0
2018-05-18 16:48:16 GMT 38.179680 -3.659821 39,000 203 432 0
2018-05-18 16:48:09 GMT 38.189575 -3.654532 39,000 203 432 0
2018-05-18 16:48:05 GMT 38.198067 -3.649969 39,000 203 432 0
2018-05-18 16:47:56 GMT 38.214218 -3.641311 39,000 203 432 0
2018-05-18 16:47:53 GMT 38.218643 -3.638923 39,000 203 432 0
2018-05-18 16:47:42 GMT 38.239655 -3.627709 39,000 203 432 0
2018-05-18 16:47:33 GMT 38.257324 -3.618242 39,000 203 432 64
2018-05-18 16:47:30 GMT 38.261765 -3.615904 39,000 203 432 0
2018-05-18 16:47:23 GMT 38.276134 -3.608233 39,000 203 432 0
2018-05-18 16:47:18 GMT 38.283142 -3.604451 39,000 203 432 64
2018-05-18 16:47:12 GMT 38.295731 -3.597730 39,000 203 433 0
2018-05-18 16:47:05 GMT 38.309784 -3.590250 39,000 203 434 0
2018-05-18 16:47:01 GMT 38.316776 -3.586499 39,000 203 433 0
2018-05-18 16:46:50 GMT 38.335693 -3.576517 39,000 203 434 0
2018-05-18 16:46:46 GMT 38.342751 -3.572766 39,000 203 434 0
2018-05-18 16:46:41 GMT 38.351643 -3.568049 39,000 203 434 0
2018-05-18 16:46:31 GMT 38.371307 -3.557642 39,000 203 434 0
2018-05-18 16:46:20 GMT 38.391357 -3.547006 39,000 203 435 0
2018-05-18 16:46:09 GMT 38.411407 -3.536370 39,000 203 435 0
2018-05-18 16:45:59 GMT 38.429619 -3.526733 39,000 203 435 0
2018-05-18 16:45:55 GMT 38.437408 -3.522611 39,000 203 435 0
2018-05-18 16:45:47 GMT 38.453796 -3.513953 39,000 203 435 0
2018-05-18 16:45:42 GMT 38.462677 -3.509236 39,000 203 435 0
2018-05-18 16:45:39 GMT 38.468258 -3.506287 39,000 203 435 64
2018-05-18 16:45:34 GMT 38.477894 -3.501099 39,000 203 435 0
2018-05-18 16:45:29 GMT 38.488678 -3.495324 39,000 203 435 0
2018-05-18 16:45:23 GMT 38.506104 -3.485901 39,000 203 435 0
2018-05-18 16:45:15 GMT 38.513550 -3.481934 39,000 203 434 0
2018-05-18 16:45:04 GMT 38.533569 -3.471252 39,000 203 435 0
2018-05-18 16:44:57 GMT 38.546185 -3.464478 39,000 204 434 -64
2018-05-18 16:44:54 GMT 38.550606 -3.462097 39,025 204 434 -64
2018-05-18 16:44:50 GMT 38.558395 -3.457887 39,025 204 434 -64
2018-05-18 16:44:46 GMT 38.566154 -3.453674 39,025 203 434 0
2018-05-18 16:44:43 GMT 38.572067 -3.450500 39,025 203 434 64
2018-05-18 16:44:36 GMT 38.585426 -3.443359 39,000 203 434 64
2018-05-18 16:44:32 GMT 38.592453 -3.439616 39,000 203 434 -64
2018-05-18 16:44:25 GMT 38.604698 -3.433044 39,000 203 434 0
2018-05-18 16:44:20 GMT 38.613922 -3.428152 39,000 203 434 0
2018-05-18 16:44:15 GMT 38.623924 -3.422852 39,000 203 434 -64
2018-05-18 16:44:10 GMT 38.632816 -3.418091 39,000 203 433 0
2018-05-18 16:44:03 GMT 38.645050 -3.411613 39,000 203 433 64
2018-05-18 16:43:54 GMT 38.662811 -3.402120 39,000 203 433 0
2018-05-18 16:43:51 GMT 38.668762 -3.398955 39,000 203 433 0
2018-05-18 16:43:43 GMT 38.683186 -3.391174 39,000 203 434 0
2018-05-18 16:43:34 GMT 38.699799 -3.382177 39,000 204 433 0
2018-05-18 16:43:30 GMT 38.707169 -3.378176 39,000 204 433 0
2018-05-18 16:43:21 GMT 38.723827 -3.369141 39,000 204 434 0
2018-05-18 16:43:12 GMT 38.740402 -3.360085 39,000 203 435 64
2018-05-18 16:43:09 GMT 38.744843 -3.357637 39,000 204 434 0
2018-05-18 16:43:02 GMT 38.758896 -3.349994 39,000 203 435 64
2018-05-18 16:42:58 GMT 38.765579 -3.346412 39,000 203 435 0
2018-05-18 16:42:50 GMT 38.781143 -3.337993 39,000 204 434 0
2018-05-18 16:42:47 GMT 38.786316 -3.335187 39,000 204 435 0
2018-05-18 16:42:42 GMT 38.796310 -3.329773 39,000 204 434 0
2018-05-18 16:42:34 GMT 38.809250 -3.322648 39,000 204 435 0
2018-05-18 16:42:29 GMT 38.819958 -3.316772 39,000 204 435 0
2018-05-18 16:42:23 GMT 38.831036 -3.310669 39,000 204 434 0
2018-05-18 16:42:20 GMT 38.837692 -3.307007 39,000 204 434 0
2018-05-18 16:42:15 GMT 38.845459 -3.302705 39,000 204 434 0
2018-05-18 16:42:10 GMT 38.854294 -3.297809 39,000 204 435 0
2018-05-18 16:42:01 GMT 38.872742 -3.287480 39,000 204 435 0
2018-05-18 16:41:52 GMT 38.887878 -3.279053 39,000 204 435 0
2018-05-18 16:41:48 GMT 38.895233 -3.274963 39,000 204 434 0
2018-05-18 16:41:39 GMT 38.912567 -3.265328 39,000 204 435 0
2018-05-18 16:41:36 GMT 38.917740 -3.262521 39,000 204 435 0
2018-05-18 16:41:28 GMT 38.931404 -3.255066 39,000 203 434 0
2018-05-18 16:41:24 GMT 38.938477 -3.251356 39,000 203 434 0
2018-05-18 16:41:19 GMT 38.950024 -3.245422 39,000 202 434 0
2018-05-18 16:41:08 GMT 38.969578 -3.235901 39,000 201 434 0
2018-05-18 16:40:56 GMT 38.992538 -3.224905 39,000 201 434 64
2018-05-18 16:40:47 GMT 39.009109 -3.216964 39,000 201 434 0
2018-05-18 16:40:43 GMT 39.017014 -3.213135 39,000 201 434 0
2018-05-18 16:40:37 GMT 39.027534 -3.208069 39,000 201 434 0
2018-05-18 16:40:26 GMT 39.049026 -3.197798 39,000 201 435 0
2018-05-18 16:40:22 GMT 39.056580 -3.194215 39,000 201 434 -64
2018-05-18 16:40:16 GMT 39.068966 -3.188232 39,000 201 435 0
2018-05-18 16:40:05 GMT 39.088516 -3.178711 39,000 201 435 0
2018-05-18 16:39:56 GMT 39.105835 -3.170288 39,000 201 434 64
2018-05-18 16:39:51 GMT 39.119381 -3.163757 39,000 201 435 0
2018-05-18 16:39:46 GMT 39.124283 -3.161376 39,000 201 435 0
2018-05-18 16:39:42 GMT 39.131836 -3.157733 39,000 201 435 0
2018-05-18 16:39:36 GMT 39.145386 -3.151166 39,000 201 434 0
2018-05-18 16:39:33 GMT 39.147266 -3.150269 39,000 201 434 0
2018-05-18 16:39:23 GMT 39.167221 -3.140657 39,000 201 433 0
2018-05-18 16:39:20 GMT 39.174358 -3.137207 39,000 201 433 0
2018-05-18 16:39:13 GMT 39.185989 -3.131581 39,000 201 433 0
2018-05-18 16:39:03 GMT 39.206223 -3.121789 39,000 201 432 0
2018-05-18 16:38:51 GMT 39.226456 -3.112057 39,000 201 431 0
2018-05-18 16:38:42 GMT 39.245865 -3.102623 39,000 201 431 0
2018-05-18 16:38:39 GMT 39.248470 -3.101318 39,000 201 431 0
2018-05-18 16:38:33 GMT 39.260010 -3.095696 39,000 201 430 0
2018-05-18 16:38:29 GMT 39.267471 -3.092114 39,000 201 430 0
2018-05-18 16:38:21 GMT 39.283813 -3.084113 39,000 201 430 0
2018-05-18 16:38:18 GMT 39.288300 -3.081904 39,000 201 429 0
2018-05-18 16:38:13 GMT 39.298328 -3.077026 39,000 201 429 64
2018-05-18 16:38:10 GMT 39.303543 -3.074463 39,000 201 428 64
2018-05-18 16:38:06 GMT 39.310200 -3.071228 39,000 201 428 64
2018-05-18 16:38:03 GMT 39.316498 -3.068171 39,000 201 429 64
2018-05-18 16:38:00 GMT 39.322449 -3.065245 39,000 201 429 64
2018-05-18 16:37:56 GMT 39.329472 -3.061768 39,000 201 429 0
2018-05-18 16:37:53 GMT 39.336174 -3.058472 39,000 201 428 0
2018-05-18 16:37:49 GMT 39.343185 -3.055035 39,000 201 428 0
2018-05-18 16:37:45 GMT 39.349869 -3.051811 39,000 201 428 0
2018-05-18 16:37:41 GMT 39.356148 -3.048706 39,000 201 428 0
2018-05-18 16:37:38 GMT 39.362106 -3.045837 39,000 201 428 0
2018-05-18 16:37:32 GMT 39.373978 -3.040039 39,000 201 428 0
2018-05-18 16:37:29 GMT 39.381378 -3.036438 39,000 201 428 0
2018-05-18 16:37:22 GMT 39.393631 -3.030435 39,000 201 428 0
2018-05-18 16:37:18 GMT 39.400650 -3.026978 39,000 201 428 0
2018-05-18 16:37:15 GMT 39.405121 -3.024841 39,000 201 428 0
2018-05-18 16:37:12 GMT 39.412170 -3.021360 39,000 201 428 -64
2018-05-18 16:37:07 GMT 39.419968 -3.017578 39,000 201 429 -64
2018-05-18 16:37:00 GMT 39.432541 -3.011414 39,000 201 431 0
2018-05-18 16:36:57 GMT 39.439198 -3.008118 39,000 201 428 64
2018-05-18 16:36:50 GMT 39.451065 -3.002319 39,000 201 429 64
2018-05-18 16:36:47 GMT 39.457771 -2.999023 39,000 201 429 0
2018-05-18 16:36:39 GMT 39.471130 -2.992493 39,000 201 429 0
2018-05-18 16:36:35 GMT 39.478531 -2.988831 39,000 201 429 64
2018-05-18 16:36:29 GMT 39.491501 -2.982430 39,000 201 430 0
2018-05-18 16:36:25 GMT 39.498596 -2.979004 39,000 201 430 0
2018-05-18 16:36:20 GMT 39.506378 -2.975145 39,000 201 430 0
2018-05-18 16:36:17 GMT 39.512329 -2.972220 39,000 201 430 0
2018-05-18 16:36:14 GMT 39.517914 -2.969482 39,000 201 430 64
2018-05-18 16:36:08 GMT 39.529835 -2.963623 39,000 201 431 0
2018-05-18 16:36:04 GMT 39.536537 -2.960388 39,000 201 431 0
2018-05-18 16:35:58 GMT 39.548454 -2.954529 39,000 201 431 0
2018-05-18 16:35:54 GMT 39.556274 -2.950665 39,000 201 431 0
2018-05-18 16:35:50 GMT 39.565586 -2.946045 39,000 201 431 0
2018-05-18 16:35:47 GMT 39.574570 -2.941650 39,000 201 431 0
2018-05-18 16:35:44 GMT 39.576416 -2.940753 39,000 201 431 0
2018-05-18 16:35:39 GMT 39.583508 -2.937256 39,000 201 431 0
2018-05-18 16:35:36 GMT 39.589828 -2.934126 39,000 201 432 0
2018-05-18 16:35:33 GMT 39.595425 -2.931396 39,000 201 432 0
2018-05-18 16:35:27 GMT 39.606644 -2.925842 39,000 201 432 0
2018-05-18 16:35:22 GMT 39.614883 -2.921814 39,000 201 432 0
2018-05-18 16:35:18 GMT 39.624985 -2.916870 39,000 201 433 64
2018-05-18 16:35:15 GMT 39.630936 -2.913944 39,000 201 433 0
2018-05-18 16:35:12 GMT 39.634689 -2.912093 39,000 201 433 0
2018-05-18 16:35:07 GMT 39.644073 -2.907532 39,000 201 434 0
2018-05-18 16:35:01 GMT 39.654545 -2.902344 39,000 201 434 0
2018-05-18 16:34:57 GMT 39.663578 -2.897949 39,000 201 434 0
2018-05-18 16:34:51 GMT 39.674053 -2.892822 39,000 201 434 64
2018-05-18 16:34:46 GMT 39.683441 -2.888150 39,000 201 434 64
2018-05-18 16:34:40 GMT 39.694748 -2.882598 39,000 201 434 0
2018-05-18 16:34:36 GMT 39.704124 -2.877991 39,000 201 435 0
2018-05-18 16:34:30 GMT 39.718781 -2.870716 39,000 201 435 0
2018-05-18 16:34:25 GMT 39.723312 -2.868447 39,000 201 435 0
2018-05-18 16:34:19 GMT 39.739151 -2.860685 39,000 201 436 64
2018-05-18 16:34:14 GMT 39.744064 -2.858276 39,000 201 436 64
2018-05-18 16:34:09 GMT 39.751968 -2.854356 39,000 201 436 64
2018-05-18 16:34:04 GMT 39.762543 -2.849101 39,000 201 437 64
2018-05-18 16:33:58 GMT 39.773895 -2.843489 39,000 201 437 0
2018-05-18 16:33:54 GMT 39.781075 -2.839966 39,000 201 437 0
2018-05-18 16:33:51 GMT 39.787128 -2.836975 39,000 201 438 0
2018-05-18 16:33:48 GMT 39.791290 -2.834891 39,000 201 438 0
2018-05-18 16:33:44 GMT 39.801514 -2.829834 39,000 201 439 0
2018-05-18 16:33:39 GMT 39.811752 -2.824740 39,000 201 439 64
2018-05-18 16:33:34 GMT 39.819714 -2.820801 39,000 201 439 64
2018-05-18 16:33:28 GMT 39.830326 -2.815491 39,000 202 439 0
2018-05-18 16:33:23 GMT 39.840942 -2.810242 39,000 202 439 -64
2018-05-18 16:33:18 GMT 39.850067 -2.805664 39,000 202 439 -64
2018-05-18 16:33:15 GMT 39.855011 -2.803245 39,000 201 439 0
2018-05-18 16:33:12 GMT 39.860321 -2.800558 39,000 201 439 0
2018-05-18 16:33:07 GMT 39.869804 -2.795837 39,000 201 439 64
2018-05-18 16:33:04 GMT 39.876251 -2.792677 39,000 201 439 64
2018-05-18 16:32:59 GMT 39.890331 -2.785706 39,000 201 439 0
2018-05-18 16:32:54 GMT 39.895294 -2.783243 39,000 201 440 0
2018-05-18 16:32:51 GMT 39.902161 -2.779840 39,000 201 440 0
2018-05-18 16:32:44 GMT 39.913189 -2.774353 39,000 201 440 64
2018-05-18 16:32:41 GMT 39.920826 -2.770630 39,000 201 440 64
2018-05-18 16:32:35 GMT 39.931484 -2.765309 39,000 201 441 0
2018-05-18 16:32:31 GMT 39.938328 -2.761875 39,000 201 441 0
2018-05-18 16:32:28 GMT 39.943314 -2.759460 39,000 201 441 0
2018-05-18 16:32:25 GMT 39.952061 -2.755071 39,000 201 441 0
2018-05-18 16:32:21 GMT 39.957779 -2.752197 39,000 201 441 64
2018-05-18 16:32:12 GMT 39.976868 -2.742676 39,000 201 442 0
2018-05-18 16:32:04 GMT 39.995586 -2.733411 39,000 201 442 0
2018-05-18 16:32:01 GMT 39.997467 -2.732422 39,000 201 443 0
2018-05-18 16:31:51 GMT 40.015823 -2.723328 39,000 201 443 -64
2018-05-18 16:31:43 GMT 40.030380 -2.716064 39,000 202 443 0
2018-05-18 16:31:40 GMT 40.036880 -2.712812 39,000 202 443 0
2018-05-18 16:31:32 GMT 40.051403 -2.705571 39,000 202 443 0
2018-05-18 16:31:29 GMT 40.057159 -2.702698 39,000 202 443 64
2018-05-18 16:31:25 GMT 40.065182 -2.698642 39,000 202 443 64
2018-05-18 16:31:20 GMT 40.075516 -2.693481 39,000 202 443 64
2018-05-18 16:31:12 GMT 40.090073 -2.686157 39,000 202 443 0
2018-05-18 16:31:09 GMT 40.095814 -2.683286 39,000 202 443 0
2018-05-18 16:31:02 GMT 40.110340 -2.675982 39,000 202 444 0
2018-05-18 16:30:58 GMT 40.122986 -2.669617 39,000 202 444 0
2018-05-18 16:30:51 GMT 40.130310 -2.665995 39,000 202 444 -64
2018-05-18 16:30:41 GMT 40.149445 -2.656382 39,000 202 444 0
2018-05-18 16:30:38 GMT 40.155991 -2.653076 39,000 202 444 0
2018-05-18 16:30:35 GMT 40.164413 -2.648865 39,000 201 444 64
2018-05-18 16:30:28 GMT 40.173229 -2.644397 39,000 201 444 64
2018-05-18 16:30:18 GMT 40.193203 -2.634409 39,000 201 445 0
2018-05-18 16:30:09 GMT 40.210102 -2.625982 39,000 202 445 0
2018-05-18 16:30:03 GMT 40.227791 -2.617118 39,000 202 445 0
2018-05-18 16:29:57 GMT 40.233982 -2.614059 39,000 202 445 0
2018-05-18 16:29:52 GMT 40.243561 -2.609192 39,000 202 445 0
2018-05-18 16:29:47 GMT 40.252808 -2.604614 39,000 202 445 64
2018-05-18 16:29:41 GMT 40.269363 -2.596269 39,000 201 446 0
2018-05-18 16:29:36 GMT 40.275146 -2.593384 39,000 201 446 0
2018-05-18 16:29:30 GMT 40.290573 -2.585693 39,000 201 446 0
2018-05-18 16:29:27 GMT 40.293289 -2.584346 39,000 201 446 0
2018-05-18 16:29:24 GMT 40.297153 -2.582411 39,000 201 446 0
2018-05-18 16:29:19 GMT 40.311028 -2.575420 39,000 202 447 64
2018-05-18 16:29:16 GMT 40.313354 -2.574296 39,000 202 447 64
2018-05-18 16:29:07 GMT 40.331135 -2.565432 39,000 197 447 0
2018-05-18 16:29:03 GMT 40.338165 -2.562311 39,000 197 447 0
2018-05-18 16:28:55 GMT 40.352921 -2.556824 39,000 194 448 0
2018-05-18 16:28:49 GMT 40.366329 -2.553073 39,000 192 448 0
2018-05-18 16:28:44 GMT 40.374939 -2.551270 39,000 188 449 -64
2018-05-18 16:28:40 GMT 40.384003 -2.549866 39,000 183 449 0
2018-05-18 16:28:36 GMT 40.394760 -2.548767 39,000 183 449 0
2018-05-18 16:28:33 GMT 40.398102 -2.548584 39,000 182 449 0
2018-05-18 16:28:30 GMT 40.405563 -2.548401 39,000 179 450 64
2018-05-18 16:28:24 GMT 40.419708 -2.549011 39,000 176 450 0
2018-05-18 16:28:17 GMT 40.431381 -2.549988 39,000 176 451 0
2018-05-18 16:28:14 GMT 40.439278 -2.550701 39,000 176 450 0
2018-05-18 16:28:11 GMT 40.447174 -2.551392 39,000 176 450 0
2018-05-18 16:28:08 GMT 40.451752 -2.551824 39,000 176 450 0
2018-05-18 16:28:02 GMT 40.463837 -2.552856 39,000 176 451 0
2018-05-18 16:27:56 GMT 40.476334 -2.553955 39,000 176 451 -64
2018-05-18 16:27:53 GMT 40.482193 -2.554443 39,000 176 451 -64
2018-05-18 16:27:50 GMT 40.488876 -2.555054 39,000 176 451 -64
2018-05-18 16:27:46 GMT 40.500122 -2.556007 39,000 176 451 -64
2018-05-18 16:27:42 GMT 40.504311 -2.556381 39,000 176 451 64
2018-05-18 16:27:39 GMT 40.514320 -2.557255 39,000 176 451 64
2018-05-18 16:27:31 GMT 40.530579 -2.558655 39,000 176 452 0
2018-05-18 16:27:25 GMT 40.543552 -2.559814 39,000 176 452 -64
2018-05-18 16:27:22 GMT 40.547745 -2.560189 39,000 176 453 -64
2018-05-18 16:27:19 GMT 40.552727 -2.560626 39,000 176 453 0
2018-05-18 16:27:13 GMT 40.566086 -2.561812 39,000 176 453 64
2018-05-18 16:27:09 GMT 40.574467 -2.562561 39,000 176 453 64
2018-05-18 16:27:04 GMT 40.588257 -2.563782 39,000 176 453 0
2018-05-18 16:27:01 GMT 40.591599 -2.564087 39,000 176 454 0
2018-05-18 16:26:58 GMT 40.599152 -2.564758 39,000 176 454 0
2018-05-18 16:26:51 GMT 40.612518 -2.565979 39,000 176 454 -64
2018-05-18 16:26:48 GMT 40.619667 -2.566618 39,000 176 454 64
2018-05-18 16:26:40 GMT 40.634308 -2.567932 39,000 176 454 64
2018-05-18 16:26:37 GMT 40.643082 -2.568741 39,000 176 454 0
2018-05-18 16:26:30 GMT 40.656876 -2.569946 39,000 176 454 0
2018-05-18 16:26:26 GMT 40.664429 -2.570618 39,000 176 454 0
2018-05-18 16:26:18 GMT 40.679951 -2.571987 39,000 176 454 0
2018-05-18 16:26:14 GMT 40.688332 -2.572736 39,000 176 454 0
2018-05-18 16:26:07 GMT 40.704666 -2.574219 39,000 176 454 0
2018-05-18 16:25:58 GMT 40.722290 -2.575806 39,000 175 455 -64
2018-05-18 16:25:54 GMT 40.733582 -2.576856 39,000 175 455 0
2018-05-18 16:25:48 GMT 40.749115 -2.578369 39,000 175 455 0
2018-05-18 16:25:44 GMT 40.752457 -2.578674 39,000 175 455 0
2018-05-18 16:25:36 GMT 40.773010 -2.580539 39,000 175 455 64
2018-05-18 16:25:31 GMT 40.779327 -2.581177 39,000 175 455 0
2018-05-18 16:25:27 GMT 40.787704 -2.581909 39,000 176 455 64
2018-05-18 16:25:22 GMT 40.799870 -2.583036 39,000 176 455 64
2018-05-18 16:25:14 GMT 40.820389 -2.584839 39,000 176 455 0
2018-05-18 16:25:11 GMT 40.822906 -2.585083 39,000 176 455 0
2018-05-18 16:25:07 GMT 40.830082 -2.585720 39,000 176 456 0
2018-05-18 16:25:03 GMT 40.842224 -2.586853 39,000 176 456 0
2018-05-18 16:25:00 GMT 40.845165 -2.587093 39,000 176 456 0
2018-05-18 16:24:53 GMT 40.862858 -2.588716 39,000 175 457 -64
2018-05-18 16:24:50 GMT 40.867092 -2.589091 39,000 175 457 -64
2018-05-18 16:24:44 GMT 40.878479 -2.590149 38,950 175 457 640
2018-05-18 16:24:41 GMT 40.888180 -2.591026 39,000 175 457 512
2018-05-18 16:24:38 GMT 40.891533 -2.591338 39,000 175 457 704
2018-05-18 16:24:34 GMT 40.900005 -2.592149 38,950 175 457 768
2018-05-18 16:24:31 GMT 40.908432 -2.592898 38,900 175 457 960
2018-05-18 16:24:27 GMT 40.914295 -2.593460 38,850 176 457 832
2018-05-18 16:24:24 GMT 40.921047 -2.594022 38,800 176 457 640
2018-05-18 16:24:17 GMT 40.936268 -2.595395 38,750 176 456 768
2018-05-18 16:24:13 GMT 40.942970 -2.595957 38,700 176 456 1024
2018-05-18 16:24:07 GMT 40.958195 -2.597330 38,600 176 456 640
2018-05-18 16:24:03 GMT 40.964947 -2.597892 38,550 176 456 640
2018-05-18 16:24:00 GMT 40.970398 -2.598389 38,525 176 456 704
2018-05-18 16:23:56 GMT 40.982208 -2.599426 38,450 176 456 896
2018-05-18 16:23:52 GMT 40.987289 -2.599854 38,425 176 456 320
2018-05-18 16:23:45 GMT 41.003311 -2.601196 38,375 176 456 256
2018-05-18 16:23:42 GMT 41.009590 -2.601762 38,350 176 455 512
2018-05-18 16:23:38 GMT 41.016338 -2.602386 38,325 176 455 576
2018-05-18 16:23:34 GMT 41.025555 -2.603198 38,275 176 454 576
2018-05-18 16:23:31 GMT 41.031006 -2.603699 38,250 176 454 576
2018-05-18 16:23:27 GMT 41.038963 -2.604446 38,225 176 454 704
2018-05-18 16:23:24 GMT 41.048584 -2.605286 38,175 176 454 640
2018-05-18 16:23:20 GMT 41.054047 -2.605757 38,150 176 453 384
2018-05-18 16:23:12 GMT 41.070759 -2.607318 38,075 176 452 832
2018-05-18 16:23:09 GMT 41.078659 -2.608032 38,025 176 452 832
2018-05-18 16:23:05 GMT 41.085342 -2.608582 38,000 176 452 640
2018-05-18 16:23:01 GMT 41.094498 -2.609436 37,950 176 451 576
2018-05-18 16:22:58 GMT 41.100311 -2.609985 37,900 176 450 1024
2018-05-18 16:22:55 GMT 41.106125 -2.610474 37,900 176 450 1024
2018-05-18 16:22:50 GMT 41.119034 -2.611625 37,775 176 451 1280
2018-05-18 16:22:46 GMT 41.125259 -2.612183 37,700 176 450 448
2018-05-18 16:22:40 GMT 41.137756 -2.613342 37,675 176 450 64
2018-05-18 16:22:35 GMT 41.148129 -2.614247 37,650 176 448 192
2018-05-18 16:22:28 GMT 41.163025 -2.615558 37,650 176 447 64
2018-05-18 16:22:24 GMT 41.169983 -2.616150 37,650 176 444 128
2018-05-18 16:22:20 GMT 41.180649 -2.617126 37,625 176 443 64
2018-05-18 16:22:17 GMT 41.184345 -2.617430 37,625 176 440 512
2018-05-18 16:22:13 GMT 41.193329 -2.618242 37,625 176 440 384
2018-05-18 16:22:07 GMT 41.208786 -2.619553 37,525 176 439 1088
2018-05-18 16:22:02 GMT 41.216095 -2.620177 37,450 176 440 1088
2018-05-18 16:21:56 GMT 41.228668 -2.621277 37,325 176 440 1216
2018-05-18 16:21:51 GMT 41.238857 -2.622174 37,275 176 440 1216
2018-05-18 16:21:48 GMT 41.244141 -2.622620 37,150 176 441 960
2018-05-18 16:21:45 GMT 41.250263 -2.623111 37,150 176 441 1088
2018-05-18 16:21:37 GMT 41.266159 -2.624512 37,050 176 440 448
2018-05-18 16:21:34 GMT 41.273483 -2.625122 37,025 176 439 64
2018-05-18 16:21:29 GMT 41.283188 -2.625854 37,025 180 437 320
2018-05-18 16:21:25 GMT 41.291695 -2.625982 37,000 185 435 0
2018-05-18 16:21:17 GMT 41.307358 -2.624756 37,000 188 433 -64
2018-05-18 16:21:13 GMT 41.318089 -2.622799 37,000 196 431 0
2018-05-18 16:21:06 GMT 41.329823 -2.619677 37,000 194 431 0
2018-05-18 16:21:02 GMT 41.341003 -2.615601 37,000 198 431 0
2018-05-18 16:20:55 GMT 41.349289 -2.611877 37,000 202 430 -64
2018-05-18 16:20:51 GMT 41.357437 -2.607605 37,000 204 430 0
2018-05-18 16:20:44 GMT 41.370438 -2.599670 37,000 206 429 128
2018-05-18 16:20:40 GMT 41.381882 -2.592285 37,000 206 429 192
2018-05-18 16:20:35 GMT 41.386570 -2.589324 36,975 206 429 0
2018-05-18 16:20:32 GMT 41.394058 -2.584534 37,000 206 429 -64
2018-05-18 16:20:28 GMT 41.403351 -2.578541 37,000 206 429 -128
2018-05-18 16:20:24 GMT 41.406235 -2.576731 37,000 206 429 -64
2018-05-18 16:20:20 GMT 41.415154 -2.570992 37,000 206 429 64
2018-05-18 16:20:13 GMT 41.424820 -2.564808 37,000 206 429 64
2018-05-18 16:20:10 GMT 41.432648 -2.559752 37,000 206 429 64
2018-05-18 16:20:04 GMT 41.441593 -2.554002 37,000 206 431 64
2018-05-18 16:19:58 GMT 41.451649 -2.547551 37,000 206 429 0
2018-05-18 16:19:53 GMT 41.460915 -2.541610 37,000 206 429 -64
2018-05-18 16:19:48 GMT 41.470596 -2.535345 37,000 206 430 -64
2018-05-18 16:19:43 GMT 41.479889 -2.529352 37,000 206 430 64
2018-05-18 16:19:38 GMT 41.489590 -2.523087 37,000 207 430 0
2018-05-18 16:19:32 GMT 41.498154 -2.517530 37,000 207 430 -64
2018-05-18 16:19:26 GMT 41.509277 -2.510376 37,000 206 431 64
2018-05-18 16:19:22 GMT 41.516773 -2.505458 37,000 206 431 -64
2018-05-18 16:19:15 GMT 41.529327 -2.497330 37,000 206 431 -128
2018-05-18 16:19:11 GMT 41.535442 -2.493385 37,000 206 431 -192
2018-05-18 16:19:04 GMT 41.549084 -2.484571 37,000 206 431 0
2018-05-18 16:18:59 GMT 41.559139 -2.478056 37,000 206 431 64
2018-05-18 16:18:54 GMT 41.565948 -2.473672 37,000 206 431 64
2018-05-18 16:18:50 GMT 41.573524 -2.468794 37,000 206 432 0
2018-05-18 16:18:47 GMT 41.580692 -2.464131 37,000 206 432 0
2018-05-18 16:18:44 GMT 41.585720 -2.460874 37,000 206 432 -64
2018-05-18 16:18:40 GMT 41.591125 -2.457379 37,000 206 432 64
2018-05-18 16:18:37 GMT 41.600105 -2.451612 37,000 206 432 64
2018-05-18 16:18:34 GMT 41.604431 -2.448801 37,000 206 432 64
2018-05-18 16:18:30 GMT 41.610535 -2.444833 37,000 206 432 64
2018-05-18 16:18:25 GMT 41.619514 -2.439029 37,000 207 432 64
2018-05-18 16:18:20 GMT 41.628128 -2.433408 37,000 207 432 64
2018-05-18 16:18:17 GMT 41.636398 -2.428041 37,000 207 432 -64
2018-05-18 16:18:12 GMT 41.642853 -2.423859 37,000 207 432 -64
2018-05-18 16:18:06 GMT 41.657597 -2.414246 37,000 207 432 0
2018-05-18 16:18:02 GMT 41.661575 -2.411624 37,000 207 432 0
2018-05-18 16:17:57 GMT 41.668762 -2.406942 37,000 206 433 64
2018-05-18 16:17:51 GMT 41.681030 -2.398952 37,000 207 434 0
2018-05-18 16:17:43 GMT 41.699753 -2.386717 37,000 207 434 0
2018-05-18 16:17:38 GMT 41.704426 -2.383650 37,000 207 434 0
2018-05-18 16:17:31 GMT 41.715637 -2.376355 37,000 206 434 0
2018-05-18 16:17:27 GMT 41.722488 -2.371897 37,000 206 434 64
2018-05-18 16:17:23 GMT 41.732639 -2.365318 37,000 207 435 -64
2018-05-18 16:17:20 GMT 41.736271 -2.363019 37,000 207 435 -64
2018-05-18 16:17:17 GMT 41.741299 -2.359697 37,000 207 435 -64
2018-05-18 16:17:10 GMT 41.754330 -2.351202 37,000 207 436 128
2018-05-18 16:17:07 GMT 41.759407 -2.347881 37,000 207 436 128
2018-05-18 16:17:02 GMT 41.770252 -2.340791 36,975 207 436 64
2018-05-18 16:16:58 GMT 41.776772 -2.336511 36,975 207 436 0
2018-05-18 16:16:53 GMT 41.784779 -2.331273 37,000 207 436 -128
2018-05-18 16:16:50 GMT 41.790207 -2.327728 37,000 207 436 -128
2018-05-18 16:16:46 GMT 41.797112 -2.323225 37,000 207 436 -128
2018-05-18 16:16:43 GMT 41.802189 -2.319904 37,000 207 436 -128
2018-05-18 16:16:40 GMT 41.809799 -2.314932 37,025 206 436 64
2018-05-18 16:16:35 GMT 41.817032 -2.310250 37,025 206 436 128
2018-05-18 16:16:29 GMT 41.828659 -2.302634 37,000 206 436 64
2018-05-18 16:16:24 GMT 41.838451 -2.296270 37,000 206 436 -64
2018-05-18 16:16:18 GMT 41.848984 -2.289401 37,000 206 437 0
2018-05-18 16:16:14 GMT 41.855862 -2.284901 37,000 206 437 0
2018-05-18 16:16:07 GMT 41.868622 -2.276667 37,000 206 437 64
2018-05-18 16:16:04 GMT 41.874435 -2.272859 37,000 206 437 64
2018-05-18 16:15:59 GMT 41.885002 -2.265994 37,000 206 438 0
2018-05-18 16:15:56 GMT 41.889378 -2.263184 37,000 206 438 0
2018-05-18 16:15:52 GMT 41.896317 -2.258627 37,000 206 438 0
2018-05-18 16:15:48 GMT 41.903595 -2.253883 37,000 206 438 0
2018-05-18 16:15:42 GMT 41.915955 -2.245830 37,000 206 438 64
2018-05-18 16:15:37 GMT 41.925083 -2.239870 37,000 206 438 0
2018-05-18 16:15:34 GMT 41.929462 -2.236995 37,000 206 438 64
2018-05-18 16:15:31 GMT 41.933838 -2.234121 37,000 206 438 64
2018-05-18 16:15:25 GMT 41.944382 -2.227228 37,000 206 438 64
2018-05-18 16:15:21 GMT 41.952785 -2.221793 37,000 207 438 0
2018-05-18 16:15:16 GMT 41.961182 -2.216304 37,000 207 438 0
2018-05-18 16:15:11 GMT 41.970985 -2.209849 37,000 207 438 64
2018-05-18 16:15:08 GMT 41.976852 -2.206016 37,000 207 438 64
2018-05-18 16:15:05 GMT 41.981552 -2.202884 37,000 207 438 0
2018-05-18 16:14:59 GMT 41.991760 -2.196204 37,000 207 439 0
2018-05-18 16:14:55 GMT 42.000175 -2.190687 37,000 206 439 0
2018-05-18 16:14:50 GMT 42.008560 -2.185218 37,000 207 439 64
2018-05-18 16:14:44 GMT 42.020966 -2.177103 37,000 207 439 0
2018-05-18 16:14:39 GMT 42.029755 -2.171360 37,000 207 440 -64
2018-05-18 16:14:34 GMT 42.038860 -2.165329 37,000 207 439 -64
2018-05-18 16:14:28 GMT 42.049053 -2.158558 37,000 207 440 64
2018-05-18 16:14:22 GMT 42.059601 -2.151510 37,000 207 439 64
2018-05-18 16:14:18 GMT 42.068390 -2.145705 37,000 207 440 64
2018-05-18 16:14:12 GMT 42.078243 -2.139204 37,000 207 440 0
2018-05-18 16:14:05 GMT 42.090271 -2.131223 37,000 207 440 64
2018-05-18 16:14:01 GMT 42.099060 -2.125480 37,000 207 440 -64
2018-05-18 16:13:56 GMT 42.108582 -2.119175 37,000 207 440 0
2018-05-18 16:13:52 GMT 42.115860 -2.114369 37,000 207 440 0
2018-05-18 16:13:43 GMT 42.131592 -2.104010 37,000 207 441 -64
2018-05-18 16:13:40 GMT 42.136711 -2.100624 37,000 207 441 0
2018-05-18 16:13:34 GMT 42.148087 -2.093083 37,000 207 441 0
2018-05-18 16:13:30 GMT 42.155411 -2.088214 37,000 207 441 -64
2018-05-18 16:13:23 GMT 42.168228 -2.079674 37,000 207 443 0
2018-05-18 16:13:19 GMT 42.174091 -2.075777 37,000 207 443 0
2018-05-18 16:13:13 GMT 42.188061 -2.066452 37,000 207 443 -64
2018-05-18 16:13:09 GMT 42.193588 -2.062808 37,000 207 443 -64
2018-05-18 16:13:02 GMT 42.207550 -2.053569 37,000 207 443 64
2018-05-18 16:12:58 GMT 42.212723 -2.050136 37,000 207 443 64
2018-05-18 16:12:51 GMT 42.227070 -2.040583 37,000 207 444 0
2018-05-18 16:12:48 GMT 42.232590 -2.036903 37,000 207 444 0
2018-05-18 16:12:41 GMT 42.246597 -2.027664 37,000 207 444 64
2018-05-18 16:12:36 GMT 42.254303 -2.022506 37,000 207 444 64
2018-05-18 16:12:29 GMT 42.266464 -2.014431 37,000 207 444 64
2018-05-18 16:12:24 GMT 42.276764 -2.007564 37,000 207 443 64
2018-05-18 16:12:19 GMT 42.285957 -2.001428 37,000 207 444 0
2018-05-18 16:12:16 GMT 42.292969 -1.996765 37,000 207 443 0
2018-05-18 16:12:12 GMT 42.301071 -1.991397 37,000 207 444 0
2018-05-18 16:12:09 GMT 42.306198 -1.987964 37,000 207 444 0
2018-05-18 16:12:05 GMT 42.312103 -1.984093 37,000 207 444 0
2018-05-18 16:12:00 GMT 42.320545 -1.978433 37,000 207 444 0
2018-05-18 16:11:57 GMT 42.326458 -1.974473 37,000 207 444 0
2018-05-18 16:11:54 GMT 42.331238 -1.971297 37,000 207 444 -64
2018-05-18 16:11:51 GMT 42.338608 -1.966428 37,000 207 444 0
2018-05-18 16:11:45 GMT 42.352947 -1.956844 37,000 207 443 0
2018-05-18 16:11:41 GMT 42.358429 -1.953194 37,000 207 443 64
2018-05-18 16:11:35 GMT 42.365799 -1.948325 37,000 207 443 64
2018-05-18 16:11:30 GMT 42.376831 -1.940960 37,000 207 443 0
2018-05-18 16:11:25 GMT 42.385300 -1.935318 37,000 207 443 64
2018-05-18 16:11:22 GMT 42.392303 -1.930722 37,000 207 443 64
2018-05-18 16:11:19 GMT 42.396011 -1.928288 37,000 207 444 0
2018-05-18 16:11:15 GMT 42.405922 -1.921713 37,000 207 444 0
2018-05-18 16:11:12 GMT 42.408508 -1.919986 37,000 207 444 0
2018-05-18 16:11:09 GMT 42.415512 -1.915390 37,000 207 444 0
2018-05-18 16:11:02 GMT 42.426224 -1.908313 37,000 207 444 0
2018-05-18 16:10:59 GMT 42.433205 -1.903637 37,000 207 444 0
2018-05-18 16:10:52 GMT 42.445724 -1.895333 37,000 207 444 0
2018-05-18 16:10:49 GMT 42.453129 -1.890415 37,000 207 444 0
2018-05-18 16:10:43 GMT 42.464539 -1.882782 37,000 207 444 0
2018-05-18 16:10:40 GMT 42.468201 -1.880348 37,000 207 444 0
2018-05-18 16:10:37 GMT 42.473003 -1.877129 37,000 207 444 0
2018-05-18 16:10:32 GMT 42.485138 -1.869049 37,000 207 444 0
2018-05-18 16:10:29 GMT 42.487019 -1.867804 37,000 207 444 0
2018-05-18 16:10:26 GMT 42.494019 -1.863119 37,000 207 444 0
2018-05-18 16:10:18 GMT 42.507980 -1.853756 37,000 207 444 0
2018-05-18 16:10:15 GMT 42.513504 -1.850047 37,000 207 444 -64
2018-05-18 16:10:09 GMT 42.527115 -1.840897 37,000 207 444 0
2018-05-18 16:10:04 GMT 42.533752 -1.836402 37,000 207 445 64
2018-05-18 16:09:57 GMT 42.546650 -1.827755 37,000 207 445 64
2018-05-18 16:09:53 GMT 42.554798 -1.822325 37,000 207 445 0
2018-05-18 16:09:49 GMT 42.562897 -1.816896 37,000 207 445 0
2018-05-18 16:09:43 GMT 42.574356 -1.809248 37,000 207 445 0
2018-05-18 16:09:40 GMT 42.577702 -1.807059 37,000 207 446 0
2018-05-18 16:09:37 GMT 42.583237 -1.803318 37,000 207 446 0
2018-05-18 16:09:33 GMT 42.590652 -1.798387 37,000 207 445 0
2018-05-18 16:09:29 GMT 42.599159 -1.792688 37,000 207 445 0
2018-05-18 16:09:25 GMT 42.607307 -1.787322 37,000 207 446 0
2018-05-18 16:09:22 GMT 42.615829 -1.781658 37,000 207 446 64
2018-05-18 16:09:14 GMT 42.629150 -1.772794 37,000 207 446 0
2018-05-18 16:09:10 GMT 42.638763 -1.766427 37,000 207 446 0
2018-05-18 16:09:05 GMT 42.643620 -1.763178 37,000 207 445 0
2018-05-18 16:09:00 GMT 42.658375 -1.753277 37,000 207 446 64
2018-05-18 16:08:55 GMT 42.662102 -1.750850 37,000 207 446 0
2018-05-18 16:08:48 GMT 42.680580 -1.738395 37,000 207 446 64
2018-05-18 16:08:42 GMT 42.687607 -1.733717 37,000 207 446 0
2018-05-18 16:08:33 GMT 42.701298 -1.724470 37,000 207 447 0
2018-05-18 16:08:30 GMT 42.707565 -1.720172 37,000 207 446 0
2018-05-18 16:08:23 GMT 42.721619 -1.710559 37,000 207 447 0
2018-05-18 16:08:20 GMT 42.727879 -1.706266 37,000 208 446 -64
2018-05-18 16:08:13 GMT 42.741100 -1.697068 37,000 208 446 0
2018-05-18 16:08:10 GMT 42.744034 -1.695088 37,000 208 446 0
2018-05-18 16:08:04 GMT 42.755447 -1.687150 37,000 208 447 0
2018-05-18 16:08:01 GMT 42.762421 -1.682313 37,000 208 446 0
2018-05-18 16:07:50 GMT 42.792206 -1.661682 37,000 208 446 64
2018-05-18 16:07:40 GMT 42.800686 -1.655806 37,000 208 446 0
2018-05-18 16:07:35 GMT 42.810276 -1.649192 37,000 207 447 -64
2018-05-18 16:07:29 GMT 42.820953 -1.641817 37,000 207 447 -64
2018-05-18 16:07:25 GMT 42.830154 -1.635459 37,000 207 447 -64
2018-05-18 16:07:20 GMT 42.838253 -1.629900 37,000 208 446 0
2018-05-18 16:07:17 GMT 42.842331 -1.627062 37,000 208 446 0
2018-05-18 16:07:14 GMT 42.848190 -1.623038 37,000 208 446 -64
2018-05-18 16:07:06 GMT 42.862930 -1.612819 37,000 208 447 0
2018-05-18 16:07:03 GMT 42.868420 -1.608974 37,000 208 447 0
2018-05-18 16:06:56 GMT 42.882385 -1.599230 37,000 208 447 0
2018-05-18 16:06:51 GMT 42.889389 -1.594359 37,000 208 447 0
2018-05-18 16:06:46 GMT 42.898586 -1.587917 37,000 208 447 0
2018-05-18 16:06:38 GMT 42.913296 -1.577650 37,000 208 447 0
2018-05-18 16:06:35 GMT 42.918777 -1.573792 37,000 208 447 0
2018-05-18 16:06:27 GMT 42.935364 -1.562217 37,000 208 447 0
2018-05-18 16:06:24 GMT 42.939037 -1.559666 37,000 208 447 0
2018-05-18 16:06:14 GMT 42.958870 -1.545803 37,000 208 447 -64
2018-05-18 16:06:10 GMT 42.968460 -1.539132 37,000 208 447 0
2018-05-18 16:06:05 GMT 42.976913 -1.533232 37,000 208 447 0
2018-05-18 16:06:02 GMT 42.979492 -1.531416 37,000 208 447 64
2018-05-18 16:05:59 GMT 42.985703 -1.527100 37,000 208 446 0
2018-05-18 16:05:52 GMT 42.998581 -1.518075 37,000 208 446 0
2018-05-18 16:05:48 GMT 43.005569 -1.513239 37,000 208 446 0
2018-05-18 16:05:42 GMT 43.018410 -1.504211 37,000 208 446 0
2018-05-18 16:05:35 GMT 43.031250 -1.495226 37,000 208 446 0
2018-05-18 16:05:31 GMT 43.036377 -1.491650 37,000 208 446 0
2018-05-18 16:05:28 GMT 43.044109 -1.486228 37,000 208 446 0
2018-05-18 16:05:21 GMT 43.055466 -1.478236 37,000 208 446 0
2018-05-18 16:05:17 GMT 43.062057 -1.473637 37,000 208 446 0
2018-05-18 16:05:10 GMT 43.074879 -1.464582 37,000 208 446 0
2018-05-18 16:05:07 GMT 43.082233 -1.459481 37,000 208 446 0
2018-05-18 16:05:02 GMT 43.092476 -1.452288 37,000 208 446 64
2018-05-18 16:04:58 GMT 43.097992 -1.448407 37,000 208 445 -64
2018-05-18 16:04:55 GMT 43.103119 -1.444830 37,000 208 445 -64
2018-05-18 16:04:48 GMT 43.117813 -1.434546 37,000 208 446 0
2018-05-18 16:04:44 GMT 43.124039 -1.430185 37,000 208 445 64
2018-05-18 16:04:41 GMT 43.129532 -1.426306 37,000 208 445 64
2018-05-18 16:04:36 GMT 43.137959 -1.420441 37,000 208 445 0
2018-05-18 16:04:31 GMT 43.146755 -1.414294 37,000 208 445 0
2018-05-18 16:04:26 GMT 43.157787 -1.406577 37,000 208 445 0
2018-05-18 16:04:19 GMT 43.169174 -1.398649 37,000 208 445 0
2018-05-18 16:04:15 GMT 43.177963 -1.392517 37,000 207 446 0
2018-05-18 16:04:10 GMT 43.184929 -1.387678 37,000 207 446 0
2018-05-18 16:04:04 GMT 43.198563 -1.378209 37,000 208 446 0
2018-05-18 16:03:58 GMT 43.208130 -1.371566 37,000 208 446 -64
2018-05-18 16:03:52 GMT 43.218430 -1.364349 37,000 208 446 0
2018-05-18 16:03:49 GMT 43.225430 -1.359493 37,000 208 446 0
2018-05-18 16:03:46 GMT 43.232784 -1.354392 37,000 208 447 0
2018-05-18 16:03:41 GMT 43.237904 -1.350795 37,000 208 447 0
2018-05-18 16:03:37 GMT 43.246399 -1.344867 37,000 208 447 0
2018-05-18 16:03:34 GMT 43.252258 -1.340715 37,000 208 447 0
2018-05-18 16:03:31 GMT 43.258163 -1.336563 37,000 208 447 0
2018-05-18 16:03:27 GMT 43.265488 -1.331390 37,000 208 447 0
2018-05-18 16:03:24 GMT 43.271004 -1.327515 37,000 208 448 0
2018-05-18 16:03:21 GMT 43.277985 -1.322575 37,000 208 448 0
2018-05-18 16:03:15 GMT 43.290134 -1.313978 37,000 208 448 0
2018-05-18 16:03:09 GMT 43.297493 -1.308746 37,000 208 448 0
2018-05-18 16:03:04 GMT 43.309269 -1.300376 37,000 208 449 -64
2018-05-18 16:03:01 GMT 43.313324 -1.297536 37,000 208 449 0
2018-05-18 16:02:58 GMT 43.317417 -1.294621 37,000 208 449 0
2018-05-18 16:02:51 GMT 43.331039 -1.284953 37,000 208 448 0
2018-05-18 16:02:48 GMT 43.336548 -1.281019 37,000 208 448 -64
2018-05-18 16:02:44 GMT 43.344650 -1.275264 37,000 208 448 -64
2018-05-18 16:02:41 GMT 43.349442 -1.271859 37,000 208 449 0
2018-05-18 16:02:37 GMT 43.356426 -1.266828 37,000 208 449 0
2018-05-18 16:02:34 GMT 43.364529 -1.261074 37,000 208 449 0
2018-05-18 16:02:25 GMT 43.378922 -1.250845 37,000 208 449 0
2018-05-18 16:02:22 GMT 43.386684 -1.245379 37,000 208 449 0
2018-05-18 16:02:18 GMT 43.391109 -1.242240 37,000 208 449 64
2018-05-18 16:02:12 GMT 43.406609 -1.231319 37,000 208 449 0
2018-05-18 16:02:06 GMT 43.416245 -1.224518 37,000 208 449 0
2018-05-18 16:02:01 GMT 43.424011 -1.219035 37,000 208 449 0
2018-05-18 16:01:55 GMT 43.435822 -1.210668 37,000 208 449 0
2018-05-18 16:01:51 GMT 43.442505 -1.205941 37,000 208 449 0
2018-05-18 16:01:44 GMT 43.455093 -1.197063 37,000 208 449 0
2018-05-18 16:01:40 GMT 43.462463 -1.191825 37,000 208 450 0
2018-05-18 16:01:33 GMT 43.475052 -1.182883 37,000 208 451 0
2018-05-18 16:01:30 GMT 43.482468 -1.177645 37,000 208 451 0
2018-05-18 16:01:27 GMT 43.488373 -1.173429 37,000 208 451 0
2018-05-18 16:01:23 GMT 43.495434 -1.168474 37,000 208 451 0
2018-05-18 16:01:20 GMT 43.501007 -1.164551 37,000 208 450 0
2018-05-18 16:01:16 GMT 43.508045 -1.159515 37,000 208 450 0
2018-05-18 16:01:11 GMT 43.516571 -1.153501 37,000 208 452 0
2018-05-18 16:01:08 GMT 43.523254 -1.148774 37,000 208 452 0
2018-05-18 16:01:00 GMT 43.539192 -1.137477 37,000 208 452 0
2018-05-18 16:00:55 GMT 43.546638 -1.132246 37,000 208 452 0
2018-05-18 16:00:51 GMT 43.553295 -1.127472 37,000 208 452 0
2018-05-18 16:00:48 GMT 43.557766 -1.124333 37,000 208 452 0
2018-05-18 16:00:44 GMT 43.567062 -1.117731 37,000 208 453 0
2018-05-18 16:00:40 GMT 43.575256 -1.111919 37,000 208 453 0
2018-05-18 16:00:34 GMT 43.586067 -1.104191 37,000 208 453 -64
2018-05-18 16:00:29 GMT 43.597240 -1.096279 37,000 208 453 -64
2018-05-18 16:00:21 GMT 43.609497 -1.087455 37,000 208 453 -64
2018-05-18 16:00:18 GMT 43.615864 -1.082938 37,000 208 454 -64
2018-05-18 16:00:11 GMT 43.628906 -1.073594 37,000 208 454 64
2018-05-18 16:00:06 GMT 43.636719 -1.067963 37,000 208 454 0
2018-05-18 16:00:00 GMT 43.649380 -1.058873 37,000 208 454 64
2018-05-18 15:59:55 GMT 43.656464 -1.053793 37,000 208 454 0
2018-05-18 15:59:47 GMT 43.672852 -1.042104 37,000 208 454 0
2018-05-18 15:59:44 GMT 43.676987 -1.039189 37,000 208 454 0
2018-05-18 15:59:39 GMT 43.689693 -1.030099 37,000 208 455 0
2018-05-18 15:59:35 GMT 43.694908 -1.026306 37,000 208 455 0
2018-05-18 15:59:27 GMT 43.711716 -1.014319 37,000 208 455 0
2018-05-18 15:59:24 GMT 43.717300 -1.010284 37,000 208 455 0
2018-05-18 15:59:17 GMT 43.727371 -1.003013 37,000 208 455 -64
2018-05-18 15:59:14 GMT 43.734478 -0.997925 37,000 208 455 -64
2018-05-18 15:59:02 GMT 43.755020 -0.983149 37,025 208 455 64
2018-05-18 15:58:53 GMT 43.774429 -0.969160 37,000 208 455 64
2018-05-18 15:58:49 GMT 43.781891 -0.963795 37,000 208 455 64
2018-05-18 15:58:44 GMT 43.790817 -0.957344 37,000 208 455 64
2018-05-18 15:58:41 GMT 43.794949 -0.954372 37,000 208 455 0
2018-05-18 15:58:34 GMT 43.808357 -0.944693 37,000 208 455 0
2018-05-18 15:58:31 GMT 43.813980 -0.940672 37,000 208 455 0
2018-05-18 15:58:21 GMT 43.834518 -0.925860 37,000 208 455 64
2018-05-18 15:58:14 GMT 43.845737 -0.917751 37,000 208 455 64
2018-05-18 15:58:11 GMT 43.850952 -0.914023 37,000 208 455 64
2018-05-18 15:58:08 GMT 43.856213 -0.910230 37,000 208 456 -64
2018-05-18 15:58:01 GMT 43.870789 -0.899729 37,000 208 455 0
2018-05-18 15:57:58 GMT 43.876740 -0.895450 37,000 208 455 0
2018-05-18 15:57:51 GMT 43.889465 -0.886252 37,000 208 455 0
2018-05-18 15:57:48 GMT 43.895828 -0.881653 37,000 208 455 0
2018-05-18 15:57:37 GMT 43.917473 -0.866023 37,000 208 456 0
2018-05-18 15:57:33 GMT 43.923481 -0.861707 37,000 208 456 0
2018-05-18 15:57:29 GMT 43.929062 -0.857636 37,000 208 456 0
2018-05-18 15:57:26 GMT 43.937302 -0.851696 37,000 208 456 0
2018-05-18 15:57:20 GMT 43.948517 -0.843648 37,000 208 456 0
2018-05-18 15:57:15 GMT 43.957138 -0.837446 37,000 208 456 0
2018-05-18 15:57:08 GMT 43.968357 -0.829402 37,000 208 456 -64
2018-05-18 15:57:04 GMT 43.978085 -0.822405 37,000 208 456 0
2018-05-18 15:57:00 GMT 43.984451 -0.817779 37,000 208 455 64
2018-05-18 15:56:57 GMT 43.991539 -0.812661 37,000 208 456 0
2018-05-18 15:56:51 GMT 44.000523 -0.806187 37,000 208 455 64
2018-05-18 15:56:47 GMT 44.008018 -0.800759 37,000 208 455 64
2018-05-18 15:56:41 GMT 44.019238 -0.792650 37,000 208 456 0
2018-05-18 15:56:38 GMT 44.026688 -0.787223 37,000 208 456 0
2018-05-18 15:56:30 GMT 44.039394 -0.778002 37,000 208 456 -64
2018-05-18 15:56:26 GMT 44.046478 -0.772875 37,000 208 456 -64
2018-05-18 15:56:19 GMT 44.061089 -0.762307 37,000 208 456 0
2018-05-18 15:56:16 GMT 44.068909 -0.756588 37,000 208 455 64
2018-05-18 15:56:09 GMT 44.079754 -0.748705 37,000 208 456 0
2018-05-18 15:55:59 GMT 44.099911 -0.734057 37,000 208 456 0
2018-05-18 15:55:55 GMT 44.106995 -0.728930 37,000 208 456 64
2018-05-18 15:55:48 GMT 44.120453 -0.719157 37,000 208 456 0
2018-05-18 15:55:44 GMT 44.126820 -0.714504 37,000 208 456 0
2018-05-18 15:55:35 GMT 44.142509 -0.703060 37,000 208 457 0
2018-05-18 15:55:32 GMT 44.148102 -0.699037 37,000 208 457 0
2018-05-18 15:55:25 GMT 44.161221 -0.689457 37,000 208 457 0
2018-05-18 15:55:21 GMT 44.169460 -0.683507 37,000 208 457 0
2018-05-18 15:55:14 GMT 44.183659 -0.673174 37,000 208 457 0
2018-05-18 15:55:05 GMT 44.198605 -0.662261 37,000 208 457 0
2018-05-18 15:55:01 GMT 44.207977 -0.655452 37,000 208 457 64
2018-05-18 15:54:57 GMT 44.215439 -0.649959 37,000 208 457 0
2018-05-18 15:54:51 GMT 44.225555 -0.642569 37,000 208 457 64
2018-05-18 15:54:46 GMT 44.234528 -0.635965 37,000 208 457 -64
2018-05-18 15:54:41 GMT 44.245789 -0.627790 37,000 208 457 -64
2018-05-18 15:54:34 GMT 44.258144 -0.618718 37,000 208 458 0
2018-05-18 15:54:30 GMT 44.267487 -0.611834 37,000 208 458 0
2018-05-18 15:54:25 GMT 44.273876 -0.607129 37,000 208 458 0
2018-05-18 15:54:19 GMT 44.286987 -0.597512 37,000 208 458 -64
2018-05-18 15:54:08 GMT 44.307674 -0.582409 37,000 208 459 0
2018-05-18 15:54:02 GMT 44.317062 -0.575540 37,000 208 459 0
2018-05-18 15:53:59 GMT 44.323837 -0.570570 37,000 208 459 0
2018-05-18 15:53:53 GMT 44.333977 -0.563183 37,000 208 460 -64
2018-05-18 15:53:48 GMT 44.343754 -0.556015 37,000 208 459 0
2018-05-18 15:53:45 GMT 44.351295 -0.550522 37,000 208 459 0
2018-05-18 15:53:37 GMT 44.364098 -0.541144 37,000 208 459 0
2018-05-18 15:53:32 GMT 44.373505 -0.534276 37,000 208 460 0
2018-05-18 15:53:26 GMT 44.384811 -0.526036 37,000 208 460 0
2018-05-18 15:53:21 GMT 44.394608 -0.518842 37,000 208 460 -64
2018-05-18 15:53:16 GMT 44.403992 -0.511936 37,000 208 460 0
2018-05-18 15:53:12 GMT 44.413422 -0.504979 37,000 208 460 0
2018-05-18 15:53:08 GMT 44.419075 -0.500883 37,000 208 460 0
2018-05-18 15:53:05 GMT 44.423950 -0.497262 37,000 208 460 0
2018-05-18 15:53:00 GMT 44.433365 -0.490365 37,000 208 460 0
2018-05-18 15:52:55 GMT 44.443542 -0.482875 37,000 208 460 64
2018-05-18 15:52:50 GMT 44.454803 -0.474505 37,000 208 460 64
2018-05-18 15:52:45 GMT 44.463089 -0.468423 37,000 208 460 64
2018-05-18 15:52:41 GMT 44.469864 -0.463388 37,000 209 459 64
2018-05-18 15:52:38 GMT 44.474751 -0.459751 37,000 209 459 0
2018-05-18 15:52:34 GMT 44.483368 -0.453382 37,000 208 459 0
2018-05-18 15:52:27 GMT 44.494953 -0.444745 37,000 208 458 0
2018-05-18 15:52:24 GMT 44.502823 -0.438930 37,000 208 458 0
2018-05-18 15:52:20 GMT 44.509552 -0.433960 37,000 209 457 -64
2018-05-18 15:52:13 GMT 44.522606 -0.424246 37,000 209 455 0
2018-05-18 15:52:08 GMT 44.530800 -0.418150 37,000 209 455 64
2018-05-18 15:52:05 GMT 44.537842 -0.412903 37,000 209 455 0
2018-05-18 15:52:02 GMT 44.541550 -0.410091 37,000 209 455 0
2018-05-18 15:51:52 GMT 44.561245 -0.395441 37,000 209 454 0
2018-05-18 15:51:48 GMT 44.567902 -0.390484 37,000 209 454 -64
2018-05-18 15:51:42 GMT 44.580517 -0.381105 37,000 208 454 -64
2018-05-18 15:51:34 GMT 44.596436 -0.369219 37,000 208 454 0
2018-05-18 15:51:31 GMT 44.600143 -0.366473 37,000 208 454 -64
2018-05-18 15:51:26 GMT 44.609756 -0.359344 37,000 208 454 -64
2018-05-18 15:51:20 GMT 44.619762 -0.351897 37,000 208 454 -64
2018-05-18 15:51:17 GMT 44.625320 -0.347770 37,000 208 454 0
2018-05-18 15:51:10 GMT 44.638988 -0.337562 37,000 208 454 0
2018-05-18 15:51:07 GMT 44.643814 -0.333971 37,000 208 453 0
2018-05-18 15:51:00 GMT 44.659004 -0.322757 37,000 208 453 0
2018-05-18 15:50:57 GMT 44.663818 -0.319192 37,000 208 453 0
2018-05-18 15:50:49 GMT 44.678230 -0.308421 37,000 208 453 0
2018-05-18 15:50:46 GMT 44.683044 -0.304871 37,000 208 453 0
2018-05-18 15:50:42 GMT 44.690102 -0.299645 37,000 208 453 0
2018-05-18 15:50:38 GMT 44.697876 -0.293884 37,000 208 453 0
2018-05-18 15:50:35 GMT 44.703415 -0.289731 37,000 208 453 -64
2018-05-18 15:50:28 GMT 44.717522 -0.279347 37,000 208 453 0
2018-05-18 15:50:25 GMT 44.721943 -0.276065 37,000 208 453 64
2018-05-18 15:50:20 GMT 44.730469 -0.269754 37,000 208 453 64
2018-05-18 15:50:17 GMT 44.736420 -0.265372 37,000 208 453 64
2018-05-18 15:50:14 GMT 44.741962 -0.261260 37,000 208 453 0
2018-05-18 15:50:10 GMT 44.750519 -0.254974 37,000 208 453 -64
2018-05-18 15:50:07 GMT 44.756065 -0.250877 37,000 208 452 0
2018-05-18 15:49:59 GMT 44.770916 -0.239957 37,000 208 452 0
2018-05-18 15:49:56 GMT 44.777939 -0.234767 37,000 208 452 0
2018-05-18 15:49:51 GMT 44.785023 -0.229641 37,000 208 452 0
2018-05-18 15:49:45 GMT 44.797989 -0.220054 37,000 208 452 0
2018-05-18 15:49:41 GMT 44.803162 -0.216261 37,000 208 453 0
2018-05-18 15:49:33 GMT 44.819458 -0.204163 37,000 208 452 0
2018-05-18 15:49:30 GMT 44.824265 -0.200634 37,000 208 452 0
2018-05-18 15:49:23 GMT 44.839417 -0.189318 37,000 209 452 0
2018-05-18 15:49:20 GMT 44.843124 -0.186506 37,000 209 452 0
2018-05-18 15:49:13 GMT 44.854889 -0.177612 37,000 209 453 0
2018-05-18 15:49:09 GMT 44.863323 -0.171092 37,000 210 453 64
2018-05-18 15:49:04 GMT 44.873566 -0.163053 37,000 210 453 -64
2018-05-18 15:49:01 GMT 44.880127 -0.157895 37,000 210 452 -64
2018-05-18 15:48:57 GMT 44.884872 -0.154136 37,000 210 452 -64
2018-05-18 15:48:52 GMT 44.894745 -0.146373 37,000 210 453 -64
2018-05-18 15:48:47 GMT 44.903545 -0.139473 37,000 210 453 0
2018-05-18 15:48:39 GMT 44.918858 -0.127348 37,000 210 453 0
2018-05-18 15:48:35 GMT 44.924332 -0.123008 37,000 210 453 0
2018-05-18 15:48:32 GMT 44.931290 -0.117500 37,000 210 452 0
2018-05-18 15:48:28 GMT 44.940041 -0.110600 37,000 210 452 -64
2018-05-18 15:48:24 GMT 44.944794 -0.106855 37,000 210 452 0
2018-05-18 15:48:21 GMT 44.949535 -0.103097 37,000 210 452 0
2018-05-18 15:48:17 GMT 44.959778 -0.095059 37,000 210 453 0
2018-05-18 15:48:14 GMT 44.963455 -0.092178 37,000 210 453 0
2018-05-18 15:48:11 GMT 44.969276 -0.087556 37,000 210 453 0
2018-05-18 15:48:06 GMT 44.979519 -0.079517 37,000 210 453 0
2018-05-18 15:48:03 GMT 44.983566 -0.076316 37,000 210 453 0
2018-05-18 15:48:00 GMT 44.987915 -0.072850 37,000 210 453 64
2018-05-18 15:47:55 GMT 45.000000 -0.063372 37,000 210 453 64
2018-05-18 15:47:50 GMT 45.009544 -0.055869 37,000 210 453 0
2018-05-18 15:47:44 GMT 45.018677 -0.048654 37,000 210 454 0
2018-05-18 15:47:40 GMT 45.026001 -0.042899 37,000 210 454 0
2018-05-18 15:47:33 GMT 45.040695 -0.031390 37,000 210 454 0
2018-05-18 15:47:30 GMT 45.045822 -0.027335 37,000 210 454 0
2018-05-18 15:47:21 GMT 45.060844 -0.015475 37,000 210 454 -64
2018-05-18 15:47:18 GMT 45.065220 -0.011991 37,000 210 454 -64
2018-05-18 15:47:12 GMT 45.078827 -0.001308 37,000 210 454 0
2018-05-18 15:47:09 GMT 45.083221 0.002223 37,000 210 455 0
2018-05-18 15:47:01 GMT 45.098648 0.014387 37,000 210 455 0
2018-05-18 15:46:57 GMT 45.103394 0.018154 37,000 210 455 0
2018-05-18 15:46:50 GMT 45.119545 0.031016 37,000 210 456 0
2018-05-18 15:46:47 GMT 45.123222 0.033897 37,000 210 456 0
2018-05-18 15:46:37 GMT 45.141220 0.048261 37,000 210 456 0
2018-05-18 15:46:34 GMT 45.146034 0.052051 37,000 210 456 0
2018-05-18 15:46:27 GMT 45.160000 0.063171 37,000 210 456 0
2018-05-18 15:46:21 GMT 45.169922 0.071084 37,000 210 458 0
2018-05-18 15:46:15 GMT 45.180622 0.079584 37,000 210 457 0
2018-05-18 15:46:11 GMT 45.188725 0.086015 37,000 210 457 0
2018-05-18 15:46:05 GMT 45.199802 0.094791 37,000 210 457 0
2018-05-18 15:46:00 GMT 45.209015 0.102147 37,000 210 457 0
2018-05-18 15:45:54 GMT 45.220470 0.111203 37,000 210 458 0
2018-05-18 15:45:48 GMT 45.230438 0.119149 37,000 210 458 0
2018-05-18 15:45:43 GMT 45.240784 0.127389 37,000 210 458 0
2018-05-18 15:45:38 GMT 45.249287 0.134114 37,000 210 458 0
2018-05-18 15:45:32 GMT 45.261112 0.143559 37,000 210 458 0
2018-05-18 15:45:27 GMT 45.270004 0.150593 37,000 210 459 0
2018-05-18 15:45:21 GMT 45.280384 0.158833 37,000 210 459 0
2018-05-18 15:45:16 GMT 45.290359 0.166822 37,000 210 459 0
2018-05-18 15:45:10 GMT 45.301147 0.175379 37,000 210 460 0
2018-05-18 15:45:05 GMT 45.310410 0.182778 37,000 210 461 0
2018-05-18 15:45:00 GMT 45.321163 0.191323 37,000 210 461 0
2018-05-18 15:44:52 GMT 45.335632 0.202855 37,000 210 461 -64
2018-05-18 15:44:48 GMT 45.343094 0.208806 37,000 210 461 -64
2018-05-18 15:44:41 GMT 45.357971 0.220707 37,000 210 461 0
2018-05-18 15:44:37 GMT 45.362038 0.223947 37,000 210 461 0
2018-05-18 15:44:33 GMT 45.370975 0.231115 37,000 210 462 0
2018-05-18 15:44:30 GMT 45.375824 0.234964 37,000 210 462 0
2018-05-18 15:44:26 GMT 45.384335 0.241833 37,000 210 462 0
2018-05-18 15:44:19 GMT 45.396252 0.251413 37,000 210 463 0
2018-05-18 15:44:15 GMT 45.403702 0.257375 37,000 210 463 0
2018-05-18 15:44:10 GMT 45.412640 0.264543 37,000 210 463 0
2018-05-18 15:44:06 GMT 45.421188 0.271454 37,000 210 463 0
2018-05-18 15:44:03 GMT 45.425674 0.275051 37,000 210 463 0
2018-05-18 15:43:59 GMT 45.433823 0.281655 37,000 210 463 0
2018-05-18 15:43:52 GMT 45.447235 0.292511 37,000 210 463 0
2018-05-18 15:43:49 GMT 45.452068 0.296430 37,000 210 463 64
2018-05-18 15:43:42 GMT 45.465134 0.306963 37,000 210 463 64
2018-05-18 15:43:38 GMT 45.472549 0.312980 37,000 210 463 64
2018-05-18 15:43:29 GMT 45.491959 0.328544 37,000 210 464 -64
2018-05-18 15:43:26 GMT 45.494572 0.330662 37,000 210 464 -64
2018-05-18 15:43:20 GMT 45.505745 0.339705 37,000 210 464 0
2018-05-18 15:43:15 GMT 45.515076 0.347246 37,000 210 464 64
2018-05-18 15:43:10 GMT 45.525154 0.355381 37,000 210 464 0
2018-05-18 15:43:05 GMT 45.534840 0.363152 37,000 210 464 64
2018-05-18 15:42:59 GMT 45.546387 0.372530 37,000 210 464 0
2018-05-18 15:42:53 GMT 45.555740 0.380058 37,000 210 464 0
2018-05-18 15:42:47 GMT 45.569195 0.390907 37,000 210 464 0
2018-05-18 15:42:43 GMT 45.576279 0.396580 37,000 210 464 0
2018-05-18 15:42:37 GMT 45.587116 0.405327 37,000 210 464 0
2018-05-18 15:42:33 GMT 45.594177 0.411049 37,000 210 464 0
2018-05-18 15:42:29 GMT 45.600571 0.416176 37,000 210 464 0
2018-05-18 15:42:26 GMT 45.606529 0.421051 37,000 210 464 0
2018-05-18 15:42:22 GMT 45.615143 0.427998 37,000 210 464 0
2018-05-18 15:42:18 GMT 45.621826 0.433424 37,000 210 465 0
2018-05-18 15:42:14 GMT 45.628555 0.438850 37,000 210 465 0
2018-05-18 15:42:09 GMT 45.639038 0.447358 37,000 210 464 0
2018-05-18 15:42:03 GMT 45.650986 0.457071 37,000 210 464 0
2018-05-18 15:42:00 GMT 45.657364 0.462181 37,000 210 465 0
2018-05-18 15:41:52 GMT 45.671173 0.473417 37,000 210 465 0
2018-05-18 15:41:48 GMT 45.677902 0.478910 37,000 210 465 0
2018-05-18 15:41:43 GMT 45.687252 0.486488 37,000 210 465 0
2018-05-18 15:41:40 GMT 45.692871 0.491035 37,000 210 465 0
2018-05-18 15:41:36 GMT 45.699959 0.496788 37,000 210 465 64
2018-05-18 15:41:33 GMT 45.707062 0.502558 37,000 210 465 0
2018-05-18 15:41:29 GMT 45.713413 0.507774 37,000 210 465 0
2018-05-18 15:41:26 GMT 45.719788 0.512941 37,000 210 465 0
2018-05-18 15:41:19 GMT 45.733246 0.523860 37,000 210 465 0
2018-05-18 15:41:15 GMT 45.738876 0.528442 37,000 210 465 0
2018-05-18 15:41:08 GMT 45.755310 0.541763 37,000 210 466 0
2018-05-18 15:41:04 GMT 45.760571 0.546089 37,000 210 466 0
2018-05-18 15:41:00 GMT 45.768021 0.552132 37,000 210 466 0
2018-05-18 15:40:56 GMT 45.777374 0.559767 37,000 210 466 0
2018-05-18 15:40:53 GMT 45.781128 0.562848 37,000 210 466 0
2018-05-18 15:40:50 GMT 45.786392 0.567136 37,000 210 466 64
2018-05-18 15:40:44 GMT 45.797997 0.576576 37,000 210 466 0
2018-05-18 15:40:40 GMT 45.805447 0.582687 37,000 210 466 0
2018-05-18 15:40:34 GMT 45.818203 0.593124 37,000 210 467 0
2018-05-18 15:40:30 GMT 45.825302 0.598889 37,000 210 466 -64
2018-05-18 15:40:23 GMT 45.840687 0.611458 37,000 210 467 0
2018-05-18 15:40:19 GMT 45.844803 0.614832 37,000 210 467 0
2018-05-18 15:40:10 GMT 45.862381 0.629242 37,000 210 467 0
2018-05-18 15:40:01 GMT 45.877762 0.641829 37,000 210 467 0
2018-05-18 15:39:58 GMT 45.884121 0.647026 37,000 210 467 0
2018-05-18 15:39:47 GMT 45.904037 0.663333 37,000 210 467 -64
2018-05-18 15:39:37 GMT 45.925411 0.680809 37,000 210 467 0
2018-05-18 15:39:33 GMT 45.929928 0.684517 37,000 210 467 0
2018-05-18 15:39:30 GMT 45.937424 0.690628 37,000 210 468 0
2018-05-18 15:39:26 GMT 45.943817 0.695823 37,000 210 468 0
2018-05-18 15:39:22 GMT 45.950970 0.701683 37,000 210 468 0
2018-05-18 15:39:19 GMT 45.957718 0.707176 37,000 210 468 0
2018-05-18 15:39:14 GMT 45.967117 0.714848 37,000 210 468 0
2018-05-18 15:39:11 GMT 45.971603 0.718533 37,000 210 467 64
2018-05-18 15:39:06 GMT 45.983276 0.728050 37,000 210 468 0
2018-05-18 15:39:01 GMT 45.990025 0.733612 37,000 210 468 0
2018-05-18 15:38:58 GMT 45.996777 0.739174 37,000 210 467 0
2018-05-18 15:38:55 GMT 46.003529 0.744736 37,000 210 467 0
2018-05-18 15:38:51 GMT 46.009918 0.749951 37,000 210 467 0
2018-05-18 15:38:47 GMT 46.017818 0.756409 37,000 210 468 64
2018-05-18 15:38:43 GMT 46.024200 0.761674 37,000 210 468 64
2018-05-18 15:38:40 GMT 46.030930 0.767234 37,000 210 468 0
2018-05-18 15:38:30 GMT 46.049698 0.782709 37,000 210 468 0
2018-05-18 15:38:25 GMT 46.059063 0.790398 37,000 210 468 0
2018-05-18 15:38:22 GMT 46.064667 0.795102 37,000 210 468 0
2018-05-18 15:38:19 GMT 46.070282 0.799736 37,000 210 468 64
2018-05-18 15:38:14 GMT 46.078522 0.806534 37,000 210 468 0
2018-05-18 15:38:10 GMT 46.086411 0.812988 37,000 210 468 -64
2018-05-18 15:38:03 GMT 46.099136 0.823506 37,000 210 468 -64
2018-05-18 15:38:00 GMT 46.106266 0.829399 37,000 210 468 0
2018-05-18 15:37:57 GMT 46.113762 0.835579 37,000 211 467 0
2018-05-18 15:37:52 GMT 46.120510 0.841141 37,000 210 467 0
2018-05-18 15:37:49 GMT 46.126144 0.845813 37,000 210 467 0
2018-05-18 15:37:46 GMT 46.133266 0.851646 37,000 211 467 0
2018-05-18 15:37:42 GMT 46.139603 0.856934 37,000 210 467 0
2018-05-18 15:37:37 GMT 46.147842 0.863767 37,000 210 467 0
2018-05-18 15:37:34 GMT 46.153473 0.868401 37,000 211 467 0
2018-05-18 15:37:31 GMT 46.160614 0.874284 37,000 210 468 0
2018-05-18 15:37:27 GMT 46.168076 0.880447 37,000 210 468 0
2018-05-18 15:37:20 GMT 46.180069 0.890362 37,000 210 468 0
2018-05-18 15:37:16 GMT 46.190552 0.899003 37,000 210 467 0
2018-05-18 15:37:13 GMT 46.195038 0.902755 37,000 210 467 0
2018-05-18 15:37:05 GMT 46.208916 0.914200 37,000 210 467 0
2018-05-18 15:37:02 GMT 46.215664 0.919830 37,000 210 467 0
2018-05-18 15:36:58 GMT 46.222000 0.925062 37,000 210 467 0
2018-05-18 15:36:54 GMT 46.229862 0.931572 37,000 211 467 0
2018-05-18 15:36:47 GMT 46.241455 0.941274 37,000 211 467 0
2018-05-18 15:36:42 GMT 46.250427 0.948710 37,000 211 467 0
2018-05-18 15:36:38 GMT 46.259750 0.956497 37,000 211 467 0
2018-05-18 15:36:32 GMT 46.270615 0.965524 37,000 211 467 0
2018-05-18 15:36:29 GMT 46.278076 0.971754 37,000 211 467 0
2018-05-18 15:36:25 GMT 46.282932 0.975792 37,000 211 467 0
2018-05-18 15:36:21 GMT 46.291534 0.983008 37,000 211 467 0
2018-05-18 15:36:16 GMT 46.300156 0.990143 37,000 211 467 0
2018-05-18 15:36:10 GMT 46.312122 1.000099 37,000 211 467 0
2018-05-18 15:36:06 GMT 46.320694 1.007259 37,000 211 466 0
2018-05-18 15:36:01 GMT 46.327423 1.012886 37,000 211 466 0
2018-05-18 15:35:58 GMT 46.333023 1.017609 37,000 211 466 0
2018-05-18 15:35:55 GMT 46.340103 1.023537 37,000 211 466 0
2018-05-18 15:35:47 GMT 46.353924 1.035049 37,000 211 466 0
2018-05-18 15:35:44 GMT 46.360291 1.040352 37,000 211 466 0
2018-05-18 15:35:40 GMT 46.367752 1.046582 37,000 211 466 0
2018-05-18 15:35:37 GMT 46.373337 1.051323 37,000 211 466 0
2018-05-18 15:35:34 GMT 46.378922 1.055960 37,000 211 466 0
2018-05-18 15:35:31 GMT 46.384140 1.060315 37,000 211 466 0
2018-05-18 15:35:24 GMT 46.398708 1.072540 37,000 211 466 0
2018-05-18 15:35:20 GMT 46.404667 1.077484 37,000 211 466 0
2018-05-18 15:35:14 GMT 46.415840 1.086891 37,000 211 466 0
2018-05-18 15:35:10 GMT 46.423336 1.093071 37,000 211 466 0
2018-05-18 15:35:03 GMT 46.437881 1.105265 37,000 211 466 0
2018-05-18 15:35:00 GMT 46.442368 1.109016 37,000 211 466 0
2018-05-18 15:34:53 GMT 46.456512 1.120940 37,000 211 466 0
2018-05-18 15:34:49 GMT 46.461777 1.125295 37,000 211 466 0
2018-05-18 15:34:45 GMT 46.473331 1.135025 37,000 211 466 64
2018-05-18 15:34:42 GMT 46.477055 1.138115 37,000 211 466 64
2018-05-18 15:34:39 GMT 46.481525 1.141891 37,000 211 466 64
2018-05-18 15:34:31 GMT 46.497211 1.155075 37,000 211 466 0
2018-05-18 15:34:28 GMT 46.500938 1.158165 37,000 211 466 0
2018-05-18 15:34:22 GMT 46.512856 1.168190 37,000 211 466 0
2018-05-18 15:34:17 GMT 46.521095 1.175125 37,000 211 467 0
2018-05-18 15:34:11 GMT 46.532684 1.184849 37,000 211 467 0
2018-05-18 15:34:07 GMT 46.541298 1.192017 37,000 211 467 0
2018-05-18 15:34:02 GMT 46.551361 1.200524 37,000 211 467 0
2018-05-18 15:33:55 GMT 46.563690 1.210831 37,000 211 467 0
2018-05-18 15:33:51 GMT 46.571548 1.217473 37,000 211 467 64
2018-05-18 15:33:47 GMT 46.577888 1.222778 37,000 211 467 64
2018-05-18 15:33:44 GMT 46.584637 1.228409 37,000 211 467 0
2018-05-18 15:33:40 GMT 46.593624 1.235962 37,000 211 467 0
2018-05-18 15:33:35 GMT 46.601814 1.242897 37,000 211 468 0
2018-05-18 15:33:29 GMT 46.611191 1.250767 37,000 211 468 0
2018-05-18 15:33:26 GMT 46.616760 1.255463 37,000 211 468 0
2018-05-18 15:33:22 GMT 46.625744 1.263016 37,000 211 468 0
2018-05-18 15:33:19 GMT 46.631378 1.267715 37,000 211 468 0
2018-05-18 15:33:13 GMT 46.641479 1.276199 37,000 211 468 64
2018-05-18 15:33:08 GMT 46.651207 1.284439 37,000 211 468 0
2018-05-18 15:33:03 GMT 46.660538 1.292300 37,000 211 468 0
2018-05-18 15:32:58 GMT 46.669178 1.299545 37,000 211 468 0
2018-05-18 15:32:53 GMT 46.681141 1.309639 37,000 211 468 0
2018-05-18 15:32:47 GMT 46.690868 1.317810 37,000 211 468 0
2018-05-18 15:32:42 GMT 46.701004 1.326398 37,000 211 468 64
2018-05-18 15:32:36 GMT 46.711819 1.335594 37,000 211 468 0
2018-05-18 15:32:33 GMT 46.715973 1.339059 37,000 211 468 0
2018-05-18 15:32:30 GMT 46.721924 1.344150 37,000 211 468 0
2018-05-18 15:32:27 GMT 46.727188 1.348572 37,000 211 468 0
2018-05-18 15:32:22 GMT 46.736538 1.356537 37,000 211 469 0
2018-05-18 15:32:18 GMT 46.745132 1.363845 37,000 211 469 0
2018-05-18 15:32:15 GMT 46.749992 1.368004 37,000 211 469 0
2018-05-18 15:32:11 GMT 46.759720 1.376244 37,000 211 469 0
2018-05-18 15:32:07 GMT 46.765366 1.381062 37,000 211 469 0
2018-05-18 15:32:02 GMT 46.775848 1.390038 37,000 211 469 64
2018-05-18 15:31:59 GMT 46.780334 1.393857 37,000 211 469 0
2018-05-18 15:31:56 GMT 46.785931 1.398628 37,000 211 469 64
2018-05-18 15:31:52 GMT 46.794170 1.405701 37,000 211 469 64
2018-05-18 15:31:48 GMT 46.800522 1.411073 37,000 211 469 0
2018-05-18 15:31:45 GMT 46.806877 1.416550 37,000 211 469 0
2018-05-18 15:31:42 GMT 46.812836 1.421631 37,000 211 469 -64
2018-05-18 15:31:36 GMT 46.823730 1.430902 37,000 211 469 0
2018-05-18 15:31:33 GMT 46.829315 1.435707 37,000 211 469 0
2018-05-18 15:31:30 GMT 46.834167 1.439879 37,000 211 469 0
2018-05-18 15:31:27 GMT 46.841675 1.446310 37,000 211 469 0
2018-05-18 15:31:23 GMT 46.846893 1.450731 37,000 211 469 0
2018-05-18 15:31:20 GMT 46.853622 1.456492 37,000 211 469 0
2018-05-18 15:31:17 GMT 46.858109 1.460311 37,000 211 469 0
2018-05-18 15:31:14 GMT 46.863720 1.465164 37,000 211 469 0
2018-05-18 15:31:11 GMT 46.870468 1.470900 37,000 211 469 0
2018-05-18 15:31:08 GMT 46.877563 1.476974 37,000 211 469 0
2018-05-18 15:31:03 GMT 46.885410 1.483718 37,000 211 469 0
2018-05-18 15:31:00 GMT 46.891068 1.488510 37,000 211 469 0
2018-05-18 15:30:55 GMT 46.900040 1.496132 37,000 211 469 0
2018-05-18 15:30:52 GMT 46.905258 1.500664 37,000 208 470 0
2018-05-18 15:30:49 GMT 46.910522 1.505127 37,000 211 469 0
2018-05-18 15:30:45 GMT 46.919495 1.512817 37,000 211 469 0
2018-05-18 15:30:42 GMT 46.924713 1.517281 37,000 211 469 0
2018-05-18 15:30:39 GMT 46.929199 1.521126 37,000 211 469 0
2018-05-18 15:30:32 GMT 46.944534 1.534283 37,000 211 469 0
2018-05-18 15:30:29 GMT 46.948654 1.537811 37,000 211 469 0
2018-05-18 15:30:19 GMT 46.967716 1.554143 37,000 211 469 0
2018-05-18 15:30:13 GMT 46.978546 1.563492 37,000 211 469 0
2018-05-18 15:30:08 GMT 46.987919 1.571538 37,000 211 469 0
2018-05-18 15:30:00 GMT 47.005096 1.586327 37,000 211 469 0
2018-05-18 15:29:57 GMT 47.008076 1.588862 37,000 211 469 0
2018-05-18 15:29:53 GMT 47.017410 1.596931 37,000 211 469 0
2018-05-18 15:29:49 GMT 47.025253 1.603722 37,000 211 469 0
2018-05-18 15:29:46 GMT 47.029724 1.607596 37,000 211 469 0
2018-05-18 15:29:41 GMT 47.038708 1.615342 37,000 211 469 0
2018-05-18 15:29:36 GMT 47.047741 1.622948 37,000 209 469 0
2018-05-18 15:29:31 GMT 47.056911 1.630202 37,000 206 470 0
2018-05-18 15:29:27 GMT 47.066174 1.637033 37,000 206 470 0
2018-05-18 15:29:23 GMT 47.072067 1.641151 37,000 205 470 0
2018-05-18 15:29:20 GMT 47.079208 1.645821 37,000 203 470 0
2018-05-18 15:29:17 GMT 47.085617 1.649803 37,000 202 470 0
2018-05-18 15:29:14 GMT 47.090057 1.652456 37,000 202 470 0
2018-05-18 15:29:11 GMT 47.099785 1.657809 37,000 199 470 64
2018-05-18 15:29:07 GMT 47.105942 1.660927 37,000 199 470 64
2018-05-18 15:29:03 GMT 47.113358 1.664635 37,000 200 470 64
2018-05-18 15:29:00 GMT 47.119904 1.667999 37,000 200 470 0
2018-05-18 15:28:57 GMT 47.126087 1.671119 37,000 200 470 0
2018-05-18 15:28:53 GMT 47.134689 1.675484 37,000 200 470 0
2018-05-18 15:28:50 GMT 47.139214 1.677739 37,000 199 470 0
2018-05-18 15:28:47 GMT 47.147873 1.682144 37,000 199 470 0
2018-05-18 15:28:44 GMT 47.151947 1.684204 37,000 199 470 0
2018-05-18 15:28:41 GMT 47.158955 1.687739 37,000 199 470 0
2018-05-18 15:28:38 GMT 47.163887 1.690204 37,000 200 470 0
2018-05-18 15:28:34 GMT 47.172081 1.694359 37,000 200 470 0
2018-05-18 15:28:31 GMT 47.178692 1.697740 37,000 200 470 0
2018-05-18 15:28:28 GMT 47.185638 1.701302 37,000 200 470 64
2018-05-18 15:28:24 GMT 47.193878 1.705421 37,000 200 470 0
2018-05-18 15:28:21 GMT 47.200012 1.708585 37,000 200 471 0
2018-05-18 15:28:17 GMT 47.209488 1.713387 37,000 200 471 0
2018-05-18 15:28:14 GMT 47.213562 1.715515 37,000 200 471 0
2018-05-18 15:28:11 GMT 47.220543 1.719079 37,000 200 471 0
2018-05-18 15:28:08 GMT 47.225475 1.721614 37,000 200 471 0
2018-05-18 15:28:04 GMT 47.234116 1.726021 37,000 200 470 0
2018-05-18 15:28:01 GMT 47.241119 1.729572 37,000 200 470 0
2018-05-18 15:27:57 GMT 47.248077 1.733093 37,000 200 470 0
2018-05-18 15:27:53 GMT 47.259972 1.739150 37,000 200 470 0
2018-05-18 15:27:48 GMT 47.269455 1.744011 37,000 200 470 0
2018-05-18 15:27:44 GMT 47.276001 1.747307 37,000 200 470 0
2018-05-18 15:27:39 GMT 47.286713 1.752731 37,000 200 470 0
2018-05-18 15:27:35 GMT 47.294907 1.756920 37,000 200 470 0
2018-05-18 15:27:31 GMT 47.302708 1.760911 37,000 200 470 0
2018-05-18 15:27:27 GMT 47.310947 1.765066 37,000 200 470 0
2018-05-18 15:27:23 GMT 47.319138 1.769292 37,000 200 470 0
2018-05-18 15:27:18 GMT 47.329422 1.774498 37,000 200 470 0
2018-05-18 15:27:15 GMT 47.334736 1.777250 37,000 200 470 0
2018-05-18 15:27:12 GMT 47.340088 1.779922 37,000 200 470 0
2018-05-18 15:27:06 GMT 47.353634 1.786898 37,000 200 471 64
2018-05-18 15:27:01 GMT 47.364296 1.792321 37,000 200 470 0
2018-05-18 15:26:55 GMT 47.376633 1.798659 37,000 200 470 0
2018-05-18 15:26:51 GMT 47.384827 1.802814 37,000 200 470 0
2018-05-18 15:26:47 GMT 47.393856 1.807462 37,000 200 470 0
2018-05-18 15:26:42 GMT 47.404564 1.812885 37,000 200 470 0
2018-05-18 15:26:39 GMT 47.409073 1.815216 37,000 200 469 0
2018-05-18 15:26:33 GMT 47.424255 1.822956 37,000 200 469 0
2018-05-18 15:26:30 GMT 47.427933 1.824829 37,000 200 469 0
2018-05-18 15:26:27 GMT 47.433285 1.827604 37,000 200 469 0
2018-05-18 15:26:22 GMT 47.445576 1.833872 37,000 200 469 0
2018-05-18 15:26:19 GMT 47.450912 1.836571 37,000 200 469 0
2018-05-18 15:26:15 GMT 47.460381 1.841407 37,000 200 469 0
2018-05-18 15:26:08 GMT 47.475540 1.849205 37,000 200 469 0
2018-05-18 15:26:04 GMT 47.481262 1.852158 37,000 200 469 64
2018-05-18 15:25:59 GMT 47.490326 1.856758 37,000 200 469 64
2018-05-18 15:25:55 GMT 47.499344 1.861427 37,000 200 470 64
2018-05-18 15:25:49 GMT 47.512436 1.868156 37,000 200 469 0
2018-05-18 15:25:45 GMT 47.520245 1.872113 37,000 200 469 0
2018-05-18 15:25:40 GMT 47.528870 1.876534 37,000 200 470 0
2018-05-18 15:25:37 GMT 47.535416 1.879898 37,000 200 470 0
2018-05-18 15:25:33 GMT 47.543610 1.884155 37,000 200 470 0
2018-05-18 15:25:28 GMT 47.554276 1.889648 37,000 200 470 0
2018-05-18 15:25:25 GMT 47.560822 1.893013 37,000 200 470 0
2018-05-18 15:25:22 GMT 47.565765 1.895622 37,000 200 470 0
2018-05-18 15:25:18 GMT 47.574783 1.900223 37,000 200 470 0
2018-05-18 15:25:15 GMT 47.579681 1.902763 37,000 200 470 0
2018-05-18 15:25:08 GMT 47.596115 1.911278 37,000 200 470 0
2018-05-18 15:25:05 GMT 47.601433 1.914016 37,000 200 471 0
2018-05-18 15:24:58 GMT 47.616188 1.921621 37,000 200 470 0
2018-05-18 15:24:54 GMT 47.623592 1.925424 37,000 200 470 0
2018-05-18 15:24:51 GMT 47.630154 1.928805 37,000 200 470 0
2018-05-18 15:24:48 GMT 47.636261 1.932014 37,000 200 470 0
2018-05-18 15:24:45 GMT 47.644501 1.936203 37,000 200 470 0
2018-05-18 15:24:41 GMT 47.650223 1.939156 37,000 200 470 0
2018-05-18 15:24:37 GMT 47.659241 1.943825 37,000 200 470 0
2018-05-18 15:24:33 GMT 47.668655 1.948735 37,000 200 470 0
2018-05-18 15:24:27 GMT 47.680153 1.954651 37,000 200 470 0
2018-05-18 15:24:24 GMT 47.686295 1.957832 37,000 200 470 0
2018-05-18 15:24:20 GMT 47.694118 1.961834 37,000 200 470 0
2018-05-18 15:24:16 GMT 47.703148 1.966482 37,000 200 470 0
2018-05-18 15:24:11 GMT 47.712971 1.971553 37,000 200 470 0
2018-05-18 15:24:07 GMT 47.721588 1.976028 37,000 200 470 0
2018-05-18 15:24:04 GMT 47.727356 1.978981 37,000 200 470 0
2018-05-18 15:24:01 GMT 47.735550 1.983170 37,000 200 470 0
2018-05-18 15:23:58 GMT 47.739670 1.985298 37,000 200 470 0
2018-05-18 15:23:54 GMT 47.747864 1.989487 37,000 200 470 0
2018-05-18 15:23:50 GMT 47.755661 1.993526 37,000 200 470 0
2018-05-18 15:23:47 GMT 47.761433 1.996483 37,000 200 470 0
2018-05-18 15:23:42 GMT 47.771713 2.001778 37,000 200 470 0
2018-05-18 15:23:38 GMT 47.781963 2.007047 37,000 200 471 0
2018-05-18 15:23:34 GMT 47.787735 2.010005 37,000 200 471 0
2018-05-18 15:23:30 GMT 47.798393 2.015498 37,000 200 471 0
2018-05-18 15:23:27 GMT 47.804535 2.018738 37,000 200 471 0
2018-05-18 15:23:23 GMT 47.811523 2.022329 37,000 200 471 0
2018-05-18 15:23:19 GMT 47.819763 2.026555 37,000 200 471 0
2018-05-18 15:23:14 GMT 47.830421 2.032048 37,000 200 471 0
2018-05-18 15:23:11 GMT 47.836197 2.035006 37,000 200 471 0
2018-05-18 15:23:08 GMT 47.842346 2.038239 37,000 200 471 0
2018-05-18 15:23:04 GMT 47.850586 2.042496 37,000 200 470 0
2018-05-18 15:23:01 GMT 47.856308 2.045448 37,000 200 471 0
2018-05-18 15:22:56 GMT 47.866592 2.050711 37,000 200 471 0
2018-05-18 15:22:52 GMT 47.875214 2.055199 37,000 200 471 0
2018-05-18 15:22:49 GMT 47.880981 2.058151 37,000 200 471 0
2018-05-18 15:22:43 GMT 47.894165 2.064949 37,000 200 471 0
2018-05-18 15:22:39 GMT 47.901535 2.068726 37,000 200 471 0
2018-05-18 15:22:35 GMT 47.908951 2.072571 37,000 200 472 0
2018-05-18 15:22:32 GMT 47.917191 2.076828 37,000 200 472 0
2018-05-18 15:22:28 GMT 47.924179 2.080430 37,000 200 472 0
2018-05-18 15:22:22 GMT 47.936966 2.086990 37,000 200 472 0
2018-05-18 15:22:19 GMT 47.942734 2.089943 37,000 200 472 0
2018-05-18 15:22:15 GMT 47.952995 2.095290 37,000 200 471 0
2018-05-18 15:22:11 GMT 47.959167 2.098526 37,000 200 471 0
2018-05-18 15:22:08 GMT 47.964111 2.101067 37,000 200 471 0
2018-05-18 15:22:03 GMT 47.977669 2.108178 37,000 200 471 64
2018-05-18 15:22:00 GMT 47.981812 2.110291 37,000 200 471 0
2018-05-18 15:21:56 GMT 47.990841 2.115009 37,000 200 471 0
2018-05-18 15:21:51 GMT 48.001099 2.120361 37,000 200 471 0
2018-05-18 15:21:46 GMT 48.010578 2.125362 37,000 200 471 0
2018-05-18 15:21:43 GMT 48.018772 2.129657 37,000 200 471 0
2018-05-18 15:21:40 GMT 48.021652 2.131142 37,000 200 471 0
2018-05-18 15:21:33 GMT 48.038086 2.139862 37,000 200 471 0
2018-05-18 15:21:30 GMT 48.043030 2.142403 37,000 200 471 0
2018-05-18 15:21:24 GMT 48.056572 2.149588 37,000 200 471 64
2018-05-18 15:21:19 GMT 48.066833 2.155037 37,000 200 471 0
2018-05-18 15:21:13 GMT 48.078323 2.161079 37,000 200 471 0
2018-05-18 15:21:10 GMT 48.084915 2.164581 37,000 200 471 0
2018-05-18 15:21:07 GMT 48.089859 2.167191 37,000 200 471 0
2018-05-18 15:21:02 GMT 48.100525 2.172890 37,000 200 471 0
2018-05-18 15:20:59 GMT 48.107895 2.176804 37,000 200 471 0
2018-05-18 15:20:54 GMT 48.119789 2.183181 37,000 200 471 0
2018-05-18 15:20:49 GMT 48.127983 2.187547 37,000 200 471 0
2018-05-18 15:20:45 GMT 48.134949 2.191360 37,000 200 471 0
2018-05-18 15:20:41 GMT 48.143532 2.195998 37,000 201 471 0
2018-05-18 15:20:38 GMT 48.150887 2.200012 37,000 201 471 0
2018-05-18 15:20:35 GMT 48.156189 2.202965 37,000 201 471 0
2018-05-18 15:20:28 GMT 48.172161 2.211649 37,000 201 471 0
2018-05-18 15:20:25 GMT 48.177052 2.214323 37,000 201 471 0
2018-05-18 15:20:20 GMT 48.188503 2.220612 37,000 201 471 0
2018-05-18 15:20:17 GMT 48.194229 2.223792 37,000 201 471 0
2018-05-18 15:20:14 GMT 48.200745 2.227406 37,000 201 471 0
2018-05-18 15:20:11 GMT 48.208099 2.231526 35,000 206 470 0
2018-05-18 15:20:04 GMT 48.221134 2.238826 37,000 201 471 0
2018-05-18 15:20:00 GMT 48.228058 2.242690 37,000 201 471 0
2018-05-18 15:19:56 GMT 48.238220 2.248439 37,000 201 471 0
2018-05-18 15:19:53 GMT 48.242706 2.250930 37,000 201 471 0
2018-05-18 15:19:49 GMT 48.248833 2.254366 37,000 201 471 0
2018-05-18 15:19:45 GMT 48.260284 2.260654 37,000 200 471 0
2018-05-18 15:19:42 GMT 48.264771 2.263184 37,000 200 471 0
2018-05-18 15:19:39 GMT 48.270107 2.266075 37,000 200 471 0
2018-05-18 15:19:35 GMT 48.278732 2.270719 37,000 200 471 0
2018-05-18 15:19:32 GMT 48.284454 2.273747 37,000 199 471 0
2018-05-18 15:19:28 GMT 48.292694 2.278114 37,000 207 470 0
2018-05-18 15:19:24 GMT 48.303406 2.283536 37,000 199 471 0
2018-05-18 15:19:21 GMT 48.308395 2.286001 37,000 199 472 0
2018-05-18 15:19:18 GMT 48.314163 2.288818 37,000 198 471 64
2018-05-18 15:19:14 GMT 48.323738 2.293468 37,000 198 472 64
2018-05-18 15:19:11 GMT 48.330395 2.296649 37,000 198 472 64
2018-05-18 15:19:07 GMT 48.337006 2.299901 37,000 198 471 64
2018-05-18 15:19:04 GMT 48.343662 2.303081 37,000 199 472 0
2018-05-18 15:19:01 GMT 48.349045 2.305720 37,000 199 472 0
2018-05-18 15:18:57 GMT 48.358154 2.310228 37,000 200 472 0
2018-05-18 15:18:54 GMT 48.364330 2.313417 37,000 201 471 0
2018-05-18 15:18:51 GMT 48.372070 2.317834 37,000 207 470 0
2018-05-18 15:18:47 GMT 48.379692 2.322524 37,000 205 470 0
2018-05-18 15:18:42 GMT 48.386814 2.327367 37,000 206 469 0
2018-05-18 15:18:38 GMT 48.396961 2.334812 37,000 207 469 0
2018-05-18 15:18:35 GMT 48.401619 2.338281 37,000 207 469 0
2018-05-18 15:18:31 GMT 48.409790 2.344313 37,000 208 469 0
2018-05-18 15:18:28 GMT 48.414841 2.348111 37,000 207 469 0
2018-05-18 15:18:25 GMT 48.421032 2.352737 37,000 207 470 0
2018-05-18 15:18:21 GMT 48.427643 2.357694 37,000 207 469 0
2018-05-18 15:18:18 GMT 48.436535 2.364518 37,000 207 469 0
2018-05-18 15:18:15 GMT 48.442722 2.369216 37,000 207 469 0
2018-05-18 15:18:11 GMT 48.448517 2.373610 37,000 207 469 64
2018-05-18 15:18:08 GMT 48.454315 2.378034 37,000 207 469 0
2018-05-18 15:18:04 GMT 48.461655 2.383611 37,000 207 470 64
2018-05-18 15:17:59 GMT 48.470947 2.390724 37,000 207 470 0
2018-05-18 15:17:55 GMT 48.480240 2.397766 37,000 208 469 64
2018-05-18 15:17:52 GMT 48.484085 2.400724 37,000 208 469 0
2018-05-18 15:17:48 GMT 48.493378 2.407837 37,000 208 469 0
2018-05-18 15:17:45 GMT 48.497223 2.410795 37,000 208 469 0
2018-05-18 15:17:42 GMT 48.504959 2.416710 37,000 208 469 0
2018-05-18 15:17:39 GMT 48.509991 2.420606 37,000 208 469 0
2018-05-18 15:17:36 GMT 48.518097 2.426852 37,000 208 469 0
2018-05-18 15:17:32 GMT 48.525787 2.432767 37,000 208 469 0
2018-05-18 15:17:27 GMT 48.535458 2.440194 37,000 208 469 0
2018-05-18 15:17:24 GMT 48.538925 2.442838 37,000 208 469 0
2018-05-18 15:17:21 GMT 48.544720 2.447349 37,000 208 469 0
2018-05-18 15:17:18 GMT 48.551655 2.452625 37,000 208 469 0
2018-05-18 15:17:15 GMT 48.555130 2.455303 37,000 207 470 0
2018-05-18 15:17:12 GMT 48.561310 2.460092 37,000 207 470 0
2018-05-18 15:17:07 GMT 48.570976 2.467515 37,000 207 470 0
2018-05-18 15:17:04 GMT 48.577957 2.472863 37,000 207 470 0
2018-05-18 15:17:01 GMT 48.582962 2.476713 37,000 207 470 0
2018-05-18 15:16:55 GMT 48.596100 2.486784 37,000 207 470 0
2018-05-18 15:16:51 GMT 48.602676 2.491800 37,000 207 470 0
2018-05-18 15:16:48 GMT 48.608505 2.496221 37,000 207 470 0
2018-05-18 15:16:44 GMT 48.616642 2.502498 37,000 207 470 0
2018-05-18 15:16:41 GMT 48.622421 2.506925 37,000 207 470 0
2018-05-18 15:16:38 GMT 48.628235 2.511388 37,000 207 470 0
2018-05-18 15:16:33 GMT 48.636707 2.517893 37,000 208 470 0
2018-05-18 15:16:30 GMT 48.644073 2.523545 37,000 208 470 0
2018-05-18 15:16:27 GMT 48.648697 2.527137 37,000 208 470 0
2018-05-18 15:16:23 GMT 48.658356 2.534589 37,000 208 470 0
2018-05-18 15:16:20 GMT 48.663799 2.538781 37,000 208 470 0
2018-05-18 15:16:17 GMT 48.669991 2.543552 37,000 208 470 0
2018-05-18 15:16:13 GMT 48.677719 2.549551 37,000 208 470 0
2018-05-18 15:16:09 GMT 48.683910 2.554321 37,000 208 470 0
2018-05-18 15:16:06 GMT 48.689713 2.558758 37,000 208 470 0
2018-05-18 15:16:02 GMT 48.698624 2.565669 37,000 208 470 0
2018-05-18 15:15:59 GMT 48.703232 2.569211 37,000 208 470 0
2018-05-18 15:15:56 GMT 48.708298 2.573125 37,000 208 470 0
2018-05-18 15:15:51 GMT 48.720268 2.582365 37,000 208 470 0
2018-05-18 15:15:48 GMT 48.724133 2.585401 37,000 208 470 0
2018-05-18 15:15:45 GMT 48.730728 2.590449 37,000 208 470 0
2018-05-18 15:15:42 GMT 48.735352 2.594041 37,000 208 471 0
2018-05-18 15:15:39 GMT 48.741962 2.599134 37,000 208 471 0
2018-05-18 15:15:35 GMT 48.750435 2.605711 37,000 208 471 0
2018-05-18 15:15:32 GMT 48.755493 2.609675 37,000 208 471 0
2018-05-18 15:15:28 GMT 48.763611 2.615975 37,000 208 471 0
2018-05-18 15:15:23 GMT 48.773254 2.623479 37,000 208 470 0
2018-05-18 15:15:17 GMT 48.786793 2.634044 37,000 208 470 0
2018-05-18 15:15:14 GMT 48.791061 2.637353 37,000 208 470 0
2018-05-18 15:15:11 GMT 48.798019 2.642775 37,000 208 470 0
2018-05-18 15:15:07 GMT 48.804977 2.648198 37,000 208 470 0
2018-05-18 15:15:04 GMT 48.809647 2.651790 37,000 208 471 0
2018-05-18 15:15:01 GMT 48.815422 2.656306 37,000 208 471 64
2018-05-18 15:14:57 GMT 48.823563 2.662635 37,000 208 471 0
2018-05-18 15:14:54 GMT 48.828964 2.666861 37,000 208 471 0
2018-05-18 15:14:51 GMT 48.835922 2.672283 37,000 208 471 0
2018-05-18 15:14:46 GMT 48.846771 2.680805 37,000 208 471 0
2018-05-18 15:14:43 GMT 48.849884 2.683199 37,000 208 471 0
2018-05-18 15:14:40 GMT 48.857620 2.689256 37,000 208 471 0
2018-05-18 15:14:35 GMT 48.866489 2.696204 37,000 208 471 0
2018-05-18 15:14:32 GMT 48.871937 2.700468 37,000 208 471 0
2018-05-18 15:14:28 GMT 48.879662 2.706540 37,000 208 471 0
2018-05-18 15:14:23 GMT 48.888519 2.713553 37,000 208 471 0
2018-05-18 15:14:20 GMT 48.897400 2.720562 37,000 208 471 0
2018-05-18 15:14:15 GMT 48.903992 2.725736 37,000 208 471 64
2018-05-18 15:14:12 GMT 48.912064 2.732199 37,000 208 471 0
2018-05-18 15:14:09 GMT 48.915527 2.734962 37,000 208 471 64
2018-05-18 15:14:05 GMT 48.923264 2.741089 37,000 208 471 64
2018-05-18 15:14:02 GMT 48.929798 2.746293 37,000 208 471 0
2018-05-18 15:13:59 GMT 48.934456 2.749979 37,000 208 471 0
2018-05-18 15:13:55 GMT 48.943314 2.757075 37,000 208 471 0
2018-05-18 15:13:52 GMT 48.947937 2.760737 37,000 208 471 0
2018-05-18 15:13:49 GMT 48.956009 2.767181 37,000 208 471 0
2018-05-18 15:13:43 GMT 48.966808 2.775783 37,000 208 471 0
2018-05-18 15:13:40 GMT 48.971832 2.779752 37,000 208 471 0
2018-05-18 15:13:36 GMT 48.979523 2.785879 37,000 208 471 0
2018-05-18 15:13:32 GMT 48.988037 2.792570 37,000 208 471 0
2018-05-18 15:13:28 GMT 48.994995 2.798063 37,000 208 471 0
2018-05-18 15:13:24 GMT 49.002777 2.804119 37,000 208 471 0
2018-05-18 15:13:21 GMT 49.009357 2.809247 37,000 207 471 0
2018-05-18 15:13:18 GMT 49.014011 2.812789 37,000 207 471 0
2018-05-18 15:13:15 GMT 49.019459 2.816981 37,000 207 471 0
2018-05-18 15:13:12 GMT 49.027187 2.822980 37,000 207 471 0
2018-05-18 15:13:09 GMT 49.031097 2.825944 37,000 207 471 64
2018-05-18 15:13:06 GMT 49.036926 2.830388 37,000 207 471 64
2018-05-18 15:13:03 GMT 49.044708 2.836304 37,000 207 471 64
2018-05-18 15:13:00 GMT 49.048599 2.839262 37,000 207 470 64
2018-05-18 15:12:57 GMT 49.057205 2.845741 37,000 207 471 0
2018-05-18 15:12:54 GMT 49.061096 2.848699 37,000 207 471 0
2018-05-18 15:12:50 GMT 49.069271 2.854783 37,000 207 471 0
2018-05-18 15:12:47 GMT 49.076706 2.860389 37,000 207 470 0
2018-05-18 15:12:44 GMT 49.080597 2.863277 37,000 207 470 0
2018-05-18 15:12:41 GMT 49.086449 2.867648 37,000 206 470 0
2018-05-18 15:12:38 GMT 49.092316 2.872009 37,000 206 470 64
2018-05-18 15:12:35 GMT 49.098179 2.876322 37,000 208 469 0
2018-05-18 15:12:32 GMT 49.105591 2.881798 37,000 208 469 0
2018-05-18 15:12:29 GMT 49.109119 2.884417 37,000 207 470 0
2018-05-18 15:12:25 GMT 49.116894 2.890416 37,000 216 466 0
2018-05-18 15:12:22 GMT 49.122993 2.895403 37,000 211 468 64
2018-05-18 15:12:18 GMT 49.130173 2.901517 37,000 211 468 64
2018-05-18 15:12:15 GMT 49.137589 2.908278 37,000 212 468 0
2018-05-18 15:12:12 GMT 49.141613 2.912100 37,000 216 466 0
2018-05-18 15:12:09 GMT 49.148830 2.919328 37,000 216 466 0
2018-05-18 15:12:06 GMT 49.152740 2.923490 37,000 218 465 0
2018-05-18 15:12:02 GMT 49.159653 2.931307 37,000 219 465 0
2018-05-18 15:11:59 GMT 49.164749 2.937325 37,000 219 464 0
2018-05-18 15:11:56 GMT 49.170456 2.944195 37,000 219 464 0
2018-05-18 15:11:51 GMT 49.178513 2.953984 37,000 221 464 0
2018-05-18 15:11:47 GMT 49.183510 2.960165 37,000 220 464 0
2018-05-18 15:11:44 GMT 49.190121 2.968477 37,000 222 463 0
2018-05-18 15:11:40 GMT 49.196636 2.977006 37,000 222 463 0
2018-05-18 15:11:37 GMT 49.200806 2.982647 37,000 222 463 0
2018-05-18 15:11:33 GMT 49.207809 2.992155 37,000 222 463 0
2018-05-18 15:11:30 GMT 49.212605 2.998689 37,000 222 462 64
2018-05-18 15:11:26 GMT 49.218376 3.006495 37,000 222 463 64
2018-05-18 15:11:23 GMT 49.224754 3.015169 37,000 222 462 64
2018-05-18 15:11:20 GMT 49.227631 3.019057 37,000 222 462 64
2018-05-18 15:11:16 GMT 49.234039 3.027719 37,000 222 460 0
2018-05-18 15:11:13 GMT 49.240723 3.036780 37,000 222 462 64
2018-05-18 15:11:10 GMT 49.243935 3.041117 37,000 222 462 0
2018-05-18 15:11:06 GMT 49.252213 3.052439 37,000 222 462 0
2018-05-18 15:11:01 GMT 49.258301 3.060608 37,000 222 462 -64
2018-05-18 15:10:57 GMT 49.264709 3.069270 37,000 222 461 0
2018-05-18 15:10:52 GMT 49.272655 3.080075 37,000 222 461 0
2018-05-18 15:10:49 GMT 49.277481 3.086595 37,000 222 461 0
2018-05-18 15:10:46 GMT 49.282562 3.093496 37,000 222 461 0
2018-05-18 15:10:42 GMT 49.288971 3.102159 37,000 222 461 0
2018-05-18 15:10:37 GMT 49.297897 3.114201 37,000 222 461 64
2018-05-18 15:10:34 GMT 49.301743 3.119413 37,000 222 461 0
2018-05-18 15:10:31 GMT 49.305897 3.125032 37,000 222 461 64
2018-05-18 15:10:28 GMT 49.311016 3.131899 37,000 222 461 64
2018-05-18 15:10:25 GMT 49.315796 3.138428 37,000 222 461 64
2018-05-18 15:10:22 GMT 49.322159 3.147020 37,000 222 460 0
2018-05-18 15:10:16 GMT 49.330444 3.158217 37,000 222 461 0
2018-05-18 15:10:13 GMT 49.334930 3.164274 37,000 222 460 0
2018-05-18 15:10:10 GMT 49.339371 3.170330 37,000 222 460 0
2018-05-18 15:10:06 GMT 49.347702 3.181528 37,000 222 460 0
2018-05-18 15:10:02 GMT 49.351845 3.187119 37,000 222 459 0
2018-05-18 15:09:59 GMT 49.357224 3.194486 37,000 222 460 0
2018-05-18 15:09:53 GMT 49.368073 3.209135 37,000 222 460 0
2018-05-18 15:09:50 GMT 49.373795 3.216952 37,000 222 459 64
2018-05-18 15:09:45 GMT 49.381729 3.227740 37,000 222 459 64
2018-05-18 15:09:42 GMT 49.384289 3.231137 37,000 222 459 0
2018-05-18 15:09:39 GMT 49.389038 3.237657 37,000 222 459 0
2018-05-18 15:09:35 GMT 49.397652 3.249279 37,000 222 459 0
2018-05-18 15:09:32 GMT 49.402073 3.255350 37,000 222 459 0
2018-05-18 15:09:29 GMT 49.405285 3.259687 37,000 222 459 0
2018-05-18 15:09:23 GMT 49.414177 3.271757 37,000 222 459 0
2018-05-18 15:09:20 GMT 49.421158 3.281226 37,000 222 459 0
2018-05-18 15:09:16 GMT 49.424976 3.286430 37,000 222 459 0
2018-05-18 15:09:13 GMT 49.432297 3.296332 37,000 222 459 0
2018-05-18 15:09:08 GMT 49.438942 3.305400 37,000 222 459 0
2018-05-18 15:09:05 GMT 49.444668 3.313194 37,000 222 459 0
2018-05-18 15:09:02 GMT 49.450058 3.320545 37,000 222 459 64
2018-05-18 15:08:58 GMT 49.456421 3.329219 37,000 222 459 0
2018-05-18 15:08:55 GMT 49.459286 3.333089 37,000 222 460 0
2018-05-18 15:08:52 GMT 49.464020 3.339555 37,000 222 460 0
2018-05-18 15:08:49 GMT 49.468781 3.346079 37,000 222 460 0
2018-05-18 15:08:45 GMT 49.476700 3.356974 37,000 222 459 -64
2018-05-18 15:08:40 GMT 49.483959 3.366938 37,000 222 459 0
2018-05-18 15:08:36 GMT 49.489635 3.374807 37,000 222 459 0
2018-05-18 15:08:31 GMT 49.496292 3.383934 37,000 222 459 0
2018-05-18 15:08:28 GMT 49.501968 3.391812 37,000 222 459 0
2018-05-18 15:08:25 GMT 49.507050 3.398751 37,000 222 459 0
2018-05-18 15:08:21 GMT 49.513367 3.407496 37,000 222 459 0
2018-05-18 15:08:17 GMT 49.520596 3.417490 37,000 223 460 0
2018-05-18 15:08:14 GMT 49.523762 3.421870 37,000 223 460 0
2018-05-18 15:08:10 GMT 49.530697 3.431446 37,000 223 460 0
2018-05-18 15:08:07 GMT 49.536377 3.439315 37,000 223 460 0
2018-05-18 15:08:04 GMT 49.540192 3.444585 37,000 223 460 64
2018-05-18 15:07:59 GMT 49.548386 3.455868 37,000 223 460 64
2018-05-18 15:07:54 GMT 49.556259 3.466837 37,000 223 460 0
2018-05-18 15:07:50 GMT 49.561935 3.474715 37,000 223 460 0
2018-05-18 15:07:47 GMT 49.566681 3.481256 37,000 223 460 0
2018-05-18 15:07:44 GMT 49.571102 3.487417 37,000 223 460 0
2018-05-18 15:07:38 GMT 49.580200 3.500085 37,000 223 460 0
2018-05-18 15:07:35 GMT 49.585876 3.508036 37,000 223 460 0
2018-05-18 15:07:31 GMT 49.591866 3.516367 37,000 223 460 0
2018-05-18 15:07:26 GMT 49.600060 3.527725 37,000 223 460 0
2018-05-18 15:07:21 GMT 49.607346 3.537814 37,000 223 460 0
2018-05-18 15:07:15 GMT 49.618355 3.553186 37,000 223 460 0
2018-05-18 15:07:11 GMT 49.623734 3.560654 37,000 223 460 0
2018-05-18 15:07:07 GMT 49.629410 3.568533 37,000 223 460 0
2018-05-18 15:07:04 GMT 49.634789 3.576050 37,000 223 460 0
2018-05-18 15:07:01 GMT 49.639816 3.583028 37,000 223 460 0
2018-05-18 15:06:58 GMT 49.645493 3.590970 37,000 223 461 0
2018-05-18 15:06:53 GMT 49.651173 3.598913 37,000 223 463 0
2018-05-18 15:06:48 GMT 49.660309 3.611611 37,000 223 461 0
2018-05-18 15:06:45 GMT 49.666626 3.620429 37,000 223 463 0
2018-05-18 15:06:42 GMT 49.669144 3.623970 37,000 223 461 0
2018-05-18 15:06:39 GMT 49.672943 3.629247 37,000 223 463 0
2018-05-18 15:06:35 GMT 49.679260 3.638065 37,000 223 463 0
2018-05-18 15:06:32 GMT 49.685902 3.647387 37,000 223 461 0
2018-05-18 15:06:29 GMT 49.688736 3.651364 37,000 223 461 0
2018-05-18 15:06:26 GMT 49.695694 3.661049 37,000 223 462 0
2018-05-18 15:06:22 GMT 49.699821 3.666761 37,000 223 462 0
2018-05-18 15:06:19 GMT 49.705170 3.674276 37,000 223 462 0
2018-05-18 15:06:16 GMT 49.710892 3.682227 37,000 223 463 0
2018-05-18 15:06:11 GMT 49.717255 3.691045 37,000 223 463 0
2018-05-18 15:06:08 GMT 49.723236 3.699423 37,000 223 463 0
2018-05-18 15:06:05 GMT 49.729614 3.708257 37,000 223 469 64
2018-05-18 15:06:02 GMT 49.731522 3.710929 37,000 223 463 0
2018-05-18 15:05:59 GMT 49.737534 3.719306 37,000 223 467 64
2018-05-18 15:05:54 GMT 49.746746 3.732160 37,000 223 463 0
2018-05-18 15:05:51 GMT 49.749912 3.736614 37,000 223 463 0
2018-05-18 15:05:48 GMT 49.754654 3.743230 37,000 223 463 0
2018-05-18 15:05:45 GMT 49.758453 3.748579 37,000 223 463 0
2018-05-18 15:05:42 GMT 49.764175 3.756529 37,000 222 469 896
2018-05-18 15:05:37 GMT 49.770493 3.765419 37,000 223 464 64
2018-05-18 15:05:34 GMT 49.776855 3.774310 37,000 223 463 64
2018-05-18 15:05:30 GMT 49.783524 3.783677 37,000 223 464 64
2018-05-18 15:05:26 GMT 49.790504 3.793475 37,000 223 464 0
2018-05-18 15:05:23 GMT 49.794323 3.798820 37,000 223 465 0
2018-05-18 15:05:20 GMT 49.800049 3.806837 37,000 223 465 0
2018-05-18 15:05:17 GMT 49.804825 3.813485 37,000 223 465 0
2018-05-18 15:05:12 GMT 49.812424 3.824182 37,000 223 465 0
2018-05-18 15:05:07 GMT 49.820393 3.835342 37,000 223 465 0
2018-05-18 15:05:03 GMT 49.827072 3.844709 37,000 223 465 0
2018-05-18 15:05:00 GMT 49.832447 3.852341 37,000 223 465 0
2018-05-18 15:04:56 GMT 49.837875 3.859960 37,000 223 466 0
2018-05-18 15:04:52 GMT 49.843899 3.868449 37,000 223 467 0
2018-05-18 15:04:49 GMT 49.850601 3.877885 37,000 223 467 64
2018-05-18 15:04:46 GMT 49.853119 3.881499 37,000 223 467 0
2018-05-18 15:04:43 GMT 49.859169 3.890051 37,000 223 468 0
2018-05-18 15:04:40 GMT 49.861729 3.893688 37,000 223 468 0
2018-05-18 15:04:37 GMT 49.868454 3.903110 36,000 223 469 0
2018-05-18 15:04:34 GMT 49.872253 3.908531 37,000 223 468 0
2018-05-18 15:04:30 GMT 49.878349 3.917146 37,000 223 469 0
2018-05-18 15:04:27 GMT 49.884430 3.925733 37,000 222 471 1024
2018-05-18 15:04:24 GMT 49.889847 3.933402 37,000 223 469 0
2018-05-18 15:04:21 GMT 49.893356 3.938310 37,000 223 469 0
2018-05-18 15:04:18 GMT 49.899483 3.946913 37,000 223 469 0
2018-05-18 15:04:15 GMT 49.904251 3.953705 37,000 223 469 0
2018-05-18 15:04:11 GMT 49.908783 3.959993 37,000 223 469 64
2018-05-18 15:04:07 GMT 49.915192 3.969028 37,000 223 469 64
2018-05-18 15:04:04 GMT 49.920616 3.976754 37,000 222 469 896
2018-05-18 15:04:01 GMT 49.924480 3.982173 37,000 223 470 -128
2018-05-18 15:03:56 GMT 49.932163 3.993011 36,925 222 470 896
2018-05-18 15:03:53 GMT 49.936981 3.999819 37,000 223 469 384
2018-05-18 15:03:50 GMT 49.943104 4.008377 37,000 222 470 896
2018-05-18 15:03:45 GMT 49.950783 4.019215 36,900 223 470 896
2018-05-18 15:03:42 GMT 49.955612 4.025983 36,850 222 470 832
2018-05-18 15:03:39 GMT 49.959457 4.031332 36,700 222 471 1088
2018-05-18 15:03:36 GMT 49.966240 4.040816 36,800 222 470 896
2018-05-18 15:03:33 GMT 49.971085 4.047522 36,650 222 470 832
2018-05-18 15:03:30 GMT 49.974335 4.052004 36,650 222 470 832
2018-05-18 15:03:26 GMT 49.981430 4.061906 36,675 222 470 832
2018-05-18 15:03:23 GMT 49.986603 4.069061 36,625 222 469 960
2018-05-18 15:03:20 GMT 49.991180 4.075350 36,550 222 469 896
2018-05-18 15:03:17 GMT 49.995712 4.081565 36,475 222 471 1088
2018-05-18 15:03:13 GMT 50.003807 4.092778 36,475 222 469 896
2018-05-18 15:03:10 GMT 50.008369 4.099014 36,450 222 469 896
2018-05-18 15:03:07 GMT 50.012604 4.104767 36,075 222 471 1152
2018-05-18 15:03:04 GMT 50.016842 4.110520 36,150 222 469 1216
2018-05-18 15:03:01 GMT 50.021713 4.117271 36,175 222 470 1152
2018-05-18 15:02:58 GMT 50.028854 4.127029 36,175 222 471 1088
2018-05-18 15:02:54 GMT 50.033741 4.133754 36,175 222 470 1152
2018-05-18 15:02:51 GMT 50.038303 4.139990 35,975 222 471 1088
2018-05-18 15:02:47 GMT 50.045151 4.149363 35,900 222 471 1152
2018-05-18 15:02:44 GMT 50.049683 4.155651 35,900 222 471 1152
2018-05-18 15:02:40 GMT 50.056553 4.165006 35,875 222 471 1024
2018-05-18 15:02:36 GMT 50.063068 4.173914 35,800 222 470 1088
2018-05-18 15:02:30 GMT 50.074196 4.189057 35,725 222 471 1088
2018-05-18 15:02:27 GMT 50.079453 4.196183 35,575 222 471 1152
2018-05-18 15:02:23 GMT 50.085972 4.205166 35,500 222 471 1088
2018-05-18 15:02:20 GMT 50.088272 4.208270 35,400 222 471 1152
2018-05-18 15:02:17 GMT 50.093140 4.214964 35,425 222 471 1088
2018-05-18 15:02:14 GMT 50.099007 4.223055 35,250 222 471 1152
2018-05-18 15:02:11 GMT 50.103882 4.229809 35,350 222 471 1216
2018-05-18 15:02:08 GMT 50.108734 4.236566 35,275 222 471 1152
2018-05-18 15:02:05 GMT 50.116241 4.246866 35,150 222 471 1152
2018-05-18 15:02:00 GMT 50.121414 4.254094 35,100 222 471 1088
2018-05-18 15:01:56 GMT 50.127636 4.262621 34,900 222 471 1088
2018-05-18 15:01:53 GMT 50.132492 4.269417 36,000 222 471 1024
2018-05-18 15:01:49 GMT 50.138992 4.278380 34,825 222 471 1088
2018-05-18 15:01:46 GMT 50.145493 4.287415 34,800 222 471 1088
2018-05-18 15:01:42 GMT 50.150711 4.294642 34,750 222 470 1024
2018-05-18 15:01:39 GMT 50.155243 4.300931 36,125 222 469 1088
2018-05-18 15:01:34 GMT 50.162384 4.310833 34,625 222 469 1024
2018-05-18 15:01:31 GMT 50.168556 4.319334 34,575 222 470 1024
2018-05-18 15:01:27 GMT 50.174057 4.327023 34,600 222 470 1024
2018-05-18 15:01:24 GMT 50.179916 4.335118 34,525 222 470 1024
2018-05-18 15:01:21 GMT 50.184753 4.341827 34,275 222 467 1152
2018-05-18 15:01:17 GMT 50.190903 4.350369 34,275 222 469 1024
2018-05-18 15:01:13 GMT 50.197742 4.359791 34,325 222 466 1472
2018-05-18 15:01:09 GMT 50.205185 4.370101 34,225 222 468 1088
2018-05-18 15:01:06 GMT 50.209076 4.375522 33,950 222 467 1152
2018-05-18 15:01:02 GMT 50.215202 4.383990 34,075 222 467 1024
2018-05-18 15:00:57 GMT 50.225235 4.397856 33,950 222 467 1152
2018-05-18 15:00:52 GMT 50.232971 4.408553 33,975 222 467 1088
2018-05-18 15:00:49 GMT 50.238144 4.415709 33,775 222 466 1152
2018-05-18 15:00:46 GMT 50.242992 4.422442 33,850 222 466 1152
2018-05-18 15:00:43 GMT 50.246204 4.426896 33,825 222 466 1152
2018-05-18 15:00:40 GMT 50.250412 4.432694 33,725 222 466 1280
2018-05-18 15:00:37 GMT 50.256866 4.441585 33,700 222 466 1216
2018-05-18 15:00:32 GMT 50.263615 4.450948 33,475 222 466 1408
2018-05-18 15:00:28 GMT 50.270416 4.460305 33,375 222 466 1408
2018-05-18 15:00:24 GMT 50.278465 4.471510 33,275 222 466 1536
2018-05-18 15:00:21 GMT 50.281025 4.475073 33,275 222 466 1472
2018-05-18 15:00:18 GMT 50.286194 4.482199 33,275 222 466 1472
2018-05-18 15:00:15 GMT 50.290661 4.488509 33,025 222 468 1536
2018-05-18 15:00:11 GMT 50.297737 4.498382 32,925 222 467 1536
2018-05-18 15:00:07 GMT 50.303833 4.506852 32,850 222 467 1536
2018-05-18 15:00:04 GMT 50.309933 4.515455 32,925 222 467 1536
2018-05-18 15:00:00 GMT 50.314774 4.522175 32,525 222 470 1664
2018-05-18 14:59:56 GMT 50.320873 4.530747 32,550 222 468 1600
2018-05-18 14:59:53 GMT 50.326694 4.538838 32,275 222 468 1600
2018-05-18 14:59:49 GMT 50.334732 4.550075 32,525 222 468 1600
2018-05-18 14:59:46 GMT 50.339218 4.556435 32,200 222 468 1600
2018-05-18 14:59:42 GMT 50.345673 4.565398 32,350 222 468 1600
2018-05-18 14:59:38 GMT 50.350204 4.571758 32,075 222 469 1664
2018-05-18 14:59:34 GMT 50.356300 4.580334 31,875 222 470 1664
2018-05-18 14:59:29 GMT 50.366318 4.594381 31,975 222 470 1664
2018-05-18 14:59:26 GMT 50.370499 4.600302 31,900 223 473 1856
2018-05-18 14:59:23 GMT 50.377621 4.610249 31,750 222 470 1664
2018-05-18 14:59:19 GMT 50.382137 4.616633 31,750 222 470 1664
2018-05-18 14:59:16 GMT 50.387302 4.623908 31,625 222 470 1664
2018-05-18 14:59:13 GMT 50.392776 4.631677 31,525 222 470 1728
2018-05-18 14:59:08 GMT 50.399918 4.641651 31,350 223 471 1792
2018-05-18 14:59:05 GMT 50.404110 4.647588 31,325 222 472 1792
2018-05-18 14:59:02 GMT 50.408295 4.653505 31,225 222 472 1728
2018-05-18 14:58:58 GMT 50.417702 4.666814 31,050 223 473 1856
2018-05-18 14:58:55 GMT 50.419968 4.669985 30,525 223 475 1472
2018-05-18 14:58:52 GMT 50.424824 4.676835 30,900 223 473 1856
2018-05-18 14:58:49 GMT 50.430691 4.685075 30,850 223 473 1856
2018-05-18 14:58:46 GMT 50.436218 4.692897 30,675 223 473 1856
2018-05-18 14:58:43 GMT 50.440418 4.698808 30,500 223 475 1856
2018-05-18 14:58:40 GMT 50.446285 4.707122 30,450 223 475 1600
2018-05-18 14:58:36 GMT 50.451500 4.714471 30,375 223 475 1856
2018-05-18 14:58:32 GMT 50.457687 4.723181 30,250 223 475 1792
2018-05-18 14:58:29 GMT 50.464188 4.732361 30,225 223 475 1600
2018-05-18 14:58:25 GMT 50.469406 4.739733 30,025 223 475 1408
2018-05-18 14:58:21 GMT 50.474960 4.747578 30,025 223 472 1344
2018-05-18 14:58:18 GMT 50.480175 4.755002 29,900 223 474 1280
2018-05-18 14:58:14 GMT 50.486343 4.763730 29,775 223 473 1344
2018-05-18 14:58:11 GMT 50.491859 4.771555 29,775 223 472 1344
2018-05-18 14:58:07 GMT 50.499985 4.783028 29,675 223 471 1408
2018-05-18 14:58:04 GMT 50.503235 4.787654 29,575 223 472 1344
2018-05-18 14:58:01 GMT 50.508060 4.794493 29,475 223 471 1408
2018-05-18 14:57:58 GMT 50.512939 4.801387 29,550 223 472 1408
2018-05-18 14:57:55 GMT 50.516785 4.806880 29,450 223 471 1408
2018-05-18 14:57:52 GMT 50.523239 4.816059 29,400 223 470 1408
2018-05-18 14:57:49 GMT 50.526489 4.820613 29,300 223 470 1344
2018-05-18 14:57:45 GMT 50.534866 4.832539 29,225 223 469 1344
2018-05-18 14:57:42 GMT 50.539669 4.839403 29,125 223 468 1344
2018-05-18 14:57:39 GMT 50.543884 4.845332 28,575 223 466 1344
2018-05-18 14:57:36 GMT 50.548050 4.851206 28,925 223 467 1344
2018-05-18 14:57:33 GMT 50.552517 4.857590 28,950 223 466 1344
2018-05-18 14:57:30 GMT 50.559265 4.867160 28,850 223 466 1344
2018-05-18 14:57:27 GMT 50.561829 4.870774 28,850 223 466 1344
2018-05-18 14:57:24 GMT 50.567596 4.878942 28,775 223 465 1408
2018-05-18 14:57:21 GMT 50.573002 4.886615 28,650 223 465 1536
2018-05-18 14:57:17 GMT 50.580322 4.897011 28,575 223 465 1536
2018-05-18 14:57:13 GMT 50.586090 4.905179 28,475 223 463 1344
2018-05-18 14:57:10 GMT 50.589249 4.909732 28,350 223 463 1344
2018-05-18 14:57:07 GMT 50.593689 4.916020 28,375 223 463 1280
2018-05-18 14:57:04 GMT 50.598770 4.923248 28,300 223 462 1280
2018-05-18 14:57:01 GMT 50.605450 4.932713 28,150 223 461 1216
2018-05-18 14:56:57 GMT 50.612385 4.942586 28,150 223 460 1216
2018-05-18 14:56:54 GMT 50.615204 4.946594 28,000 223 458 1344
2018-05-18 14:56:49 GMT 50.623398 4.958231 27,975 223 447 1216
2018-05-18 14:56:46 GMT 50.629028 4.966326 27,875 223 455 960
2018-05-18 14:56:43 GMT 50.632141 4.970735 27,800 223 449 1088
2018-05-18 14:56:40 GMT 50.637478 4.978366 27,775 223 455 960
2018-05-18 14:56:37 GMT 50.641525 4.984107 27,675 223 452 1088
2018-05-18 14:56:33 GMT 50.647751 4.992997 27,675 223 453 1024
2018-05-18 14:56:30 GMT 50.653629 5.001452 27,625 223 451 1088
2018-05-18 14:56:27 GMT 50.658566 5.008504 27,575 223 450 1024
2018-05-18 14:56:24 GMT 50.662895 5.014665 27,525 223 450 1024
2018-05-18 14:56:21 GMT 50.666885 5.020391 27,400 223 439 1088
2018-05-18 14:56:18 GMT 50.671783 5.027433 27,400 223 447 1216
2018-05-18 14:56:15 GMT 50.676952 5.034866 27,175 223 445 1152
2018-05-18 14:56:12 GMT 50.680630 5.040131 27,325 223 445 1152
2018-05-18 14:56:09 GMT 50.686077 5.047913 27,250 223 442 1024
2018-05-18 14:56:06 GMT 50.690311 5.054016 27,100 223 441 1152
2018-05-18 14:56:03 GMT 50.695152 5.060959 27,125 223 441 1152
2018-05-18 14:56:00 GMT 50.698784 5.066147 27,100 223 441 1152
2018-05-18 14:55:57 GMT 50.704792 5.074768 26,950 223 438 960
2018-05-18 14:55:53 GMT 50.710796 5.083389 26,925 223 436 1024
2018-05-18 14:55:50 GMT 50.713776 5.087662 26,925 223 436 960
2018-05-18 14:55:47 GMT 50.717918 5.093689 26,850 223 434 1088
2018-05-18 14:55:44 GMT 50.722107 5.099640 26,700 223 430 1024
2018-05-18 14:55:41 GMT 50.728317 5.108568 26,750 223 431 1024
2018-05-18 14:55:38 GMT 50.731560 5.113297 26,725 223 430 1024
2018-05-18 14:55:35 GMT 50.737423 5.121689 26,675 223 430 1024
2018-05-18 14:55:32 GMT 50.740677 5.126384 26,600 223 428 960
2018-05-18 14:55:29 GMT 50.744751 5.132248 26,525 223 423 896
2018-05-18 14:55:26 GMT 50.749420 5.138929 26,525 223 424 896
2018-05-18 14:55:23 GMT 50.753494 5.144794 26,475 222 405 1408
2018-05-18 14:55:20 GMT 50.759262 5.153108 26,425 223 421 1024
2018-05-18 14:55:16 GMT 50.763584 5.159302 26,350 223 420 1024
2018-05-18 14:55:13 GMT 50.768463 5.166321 26,125 223 417 1024
2018-05-18 14:55:10 GMT 50.772152 5.171661 26,250 223 416 1088
2018-05-18 14:55:07 GMT 50.777023 5.178569 26,200 223 415 1152
2018-05-18 14:55:04 GMT 50.780716 5.183868 26,175 223 415 1216
2018-05-18 14:55:00 GMT 50.787231 5.193267 26,075 223 412 896
2018-05-18 14:54:57 GMT 50.790913 5.198517 26,025 223 411 768
2018-05-18 14:54:54 GMT 50.795986 5.205765 25,850 223 407 960
2018-05-18 14:54:50 GMT 50.800186 5.211751 25,950 223 407 1024
2018-05-18 14:54:47 GMT 50.806042 5.220184 25,850 222 404 1408
2018-05-18 14:54:43 GMT 50.809906 5.225677 25,750 222 403 1472
2018-05-18 14:54:40 GMT 50.815445 5.233612 25,725 222 403 1472
2018-05-18 14:54:37 GMT 50.818798 5.238342 25,625 225 400 1536
2018-05-18 14:54:34 GMT 50.823128 5.244751 25,600 228 399 1728
2018-05-18 14:54:30 GMT 50.827011 5.250945 25,275 228 397 1856
2018-05-18 14:54:27 GMT 50.832203 5.259933 25,350 232 396 2048
2018-05-18 14:54:24 GMT 50.834579 5.264359 24,975 235 395 1664
2018-05-18 14:54:21 GMT 50.837791 5.270691 25,025 236 394 1728
2018-05-18 14:54:18 GMT 50.841236 5.278168 25,125 236 394 1728
2018-05-18 14:54:15 GMT 50.845238 5.287781 24,775 253 394 1856
2018-05-18 14:54:12 GMT 50.847336 5.293183 24,825 241 392 2688
2018-05-18 14:54:09 GMT 50.850220 5.301126 24,625 244 392 2816
2018-05-18 14:54:06 GMT 50.853107 5.309753 24,625 245 393 2752
2018-05-18 14:54:03 GMT 50.854969 5.315933 24,450 249 394 2368
2018-05-18 14:54:00 GMT 50.857361 5.324954 24,200 251 394 2112
2018-05-18 14:53:57 GMT 50.859558 5.334753 24,225 253 395 1728
2018-05-18 14:53:54 GMT 50.860428 5.339133 24,025 254 395 0
2018-05-18 14:53:51 GMT 50.862183 5.348511 24,075 254 395 640
2018-05-18 14:53:48 GMT 50.863724 5.356874 24,050 254 395 0
2018-05-18 14:53:44 GMT 50.865860 5.368500 24,025 254 395 256
2018-05-18 14:53:41 GMT 50.867493 5.377350 24,000 254 395 64
2018-05-18 14:53:38 GMT 50.868702 5.384064 24,000 254 395 0
2018-05-18 14:53:35 GMT 50.870407 5.393471 24,000 254 395 0
2018-05-18 14:53:32 GMT 50.872055 5.402304 24,000 254 395 0
2018-05-18 14:53:29 GMT 50.873356 5.409546 24,000 254 395 0
2018-05-18 14:53:26 GMT 50.875076 5.418932 24,000 254 395 0
2018-05-18 14:53:23 GMT 50.876495 5.426726 24,000 254 395 0
2018-05-18 14:53:19 GMT 50.878555 5.437787 24,000 254 395 0
2018-05-18 14:53:16 GMT 50.880291 5.447235 24,000 254 395 0
2018-05-18 14:53:12 GMT 50.881924 5.456085 24,000 254 395 64
2018-05-18 14:53:09 GMT 50.883636 5.465550 24,000 254 395 0
2018-05-18 14:53:06 GMT 50.884762 5.471649 24,000 254 395 0
2018-05-18 14:53:03 GMT 50.886436 5.480499 24,000 253 400 0
2018-05-18 14:53:00 GMT 50.888168 5.489898 24,000 254 395 0
2018-05-18 14:52:57 GMT 50.889999 5.499919 24,000 254 395 0
2018-05-18 14:52:54 GMT 50.892349 5.512695 24,000 254 395 64
2018-05-18 14:52:51 GMT 50.892956 5.515976 24,000 254 395 64
2018-05-18 14:52:48 GMT 50.894630 5.524826 24,000 254 396 0
2018-05-18 14:52:45 GMT 50.895840 5.531540 24,000 254 395 64
2018-05-18 14:52:42 GMT 50.897369 5.539856 24,000 254 395 0
2018-05-18 14:52:39 GMT 50.898834 5.547650 24,000 254 395 0
2018-05-18 14:52:36 GMT 50.900894 5.558711 24,000 254 395 0
2018-05-18 14:52:33 GMT 50.901901 5.564278 24,000 254 395 0
2018-05-18 14:52:30 GMT 50.903778 5.574300 24,000 254 396 0
2018-05-18 14:52:27 GMT 50.905609 5.584321 24,000 254 396 0
2018-05-18 14:52:24 GMT 50.906845 5.591002 24,000 254 396 0
2018-05-18 14:52:21 GMT 50.907852 5.596569 24,000 254 396 0
2018-05-18 14:52:18 GMT 50.909500 5.605403 24,000 254 396 0
2018-05-18 14:52:15 GMT 50.911743 5.617725 24,000 254 396 0
2018-05-18 14:52:12 GMT 50.912796 5.623293 24,000 254 397 0
2018-05-18 14:52:09 GMT 50.914509 5.632706 24,000 254 397 0
2018-05-18 14:52:06 GMT 50.916046 5.641108 24,000 254 397 0
2018-05-18 14:52:03 GMT 50.917164 5.647278 24,000 254 397 0
2018-05-18 14:52:00 GMT 50.918793 5.656204 24,000 255 398 0
2018-05-18 14:51:57 GMT 50.920715 5.666793 24,000 255 397 0
2018-05-18 14:51:54 GMT 50.922188 5.675201 24,000 255 398 0
2018-05-18 14:51:51 GMT 50.924286 5.686984 24,000 255 398 0
2018-05-18 14:51:48 GMT 50.925476 5.693665 24,000 255 398 -64
2018-05-18 14:51:45 GMT 50.926147 5.697632 24,000 255 398 0
2018-05-18 14:51:42 GMT 50.928406 5.710515 24,000 255 398 -64
2018-05-18 14:51:38 GMT 50.930195 5.721207 24,000 253 399 0
2018-05-18 14:51:34 GMT 50.931244 5.727440 24,000 256 399 64
2018-05-18 14:51:31 GMT 50.933037 5.738144 24,000 256 399 64
2018-05-18 14:51:28 GMT 50.934402 5.746592 24,000 256 399 64
2018-05-18 14:51:25 GMT 50.935867 5.755648 24,000 256 399 64
2018-05-18 14:51:22 GMT 50.937225 5.764160 24,000 257 399 0
2018-05-18 14:51:19 GMT 50.938568 5.772647 24,000 257 399 0
2018-05-18 14:51:15 GMT 50.940392 5.784531 24,000 257 399 0
2018-05-18 14:51:12 GMT 50.941418 5.791397 24,000 258 399 0
2018-05-18 14:51:09 GMT 50.942642 5.799890 24,000 258 400 0
2018-05-18 14:51:06 GMT 50.944721 5.814133 24,000 258 400 0
2018-05-18 14:51:03 GMT 50.945297 5.818152 24,000 258 399 0
2018-05-18 14:51:00 GMT 50.946861 5.828934 24,000 258 399 0
2018-05-18 14:50:56 GMT 50.948090 5.837526 24,000 258 400 0
2018-05-18 14:50:53 GMT 50.950058 5.851185 24,000 257 399 64
2018-05-18 14:50:50 GMT 50.950447 5.854034 24,000 257 399 0
2018-05-18 14:50:47 GMT 50.952354 5.866547 24,000 257 400 64
2018-05-18 14:50:44 GMT 50.953239 5.872192 24,000 256 400 0
2018-05-18 14:50:41 GMT 50.954544 5.880127 24,000 253 399 0
2018-05-18 14:50:38 GMT 50.956055 5.888598 24,000 253 399 64
2018-05-18 14:50:35 GMT 50.957943 5.898056 24,000 252 399 256
2018-05-18 14:50:32 GMT 50.959854 5.907527 24,000 252 399 384
2018-05-18 14:50:29 GMT 50.961044 5.913020 23,975 252 399 768
2018-05-18 14:50:26 GMT 50.963249 5.923538 23,950 251 398 1088
2018-05-18 14:50:23 GMT 50.965073 5.931801 23,850 222 402 1920
2018-05-18 14:50:20 GMT 50.966354 5.937294 23,850 249 397 960
2018-05-18 14:50:17 GMT 50.968735 5.947018 23,775 247 397 960
2018-05-18 14:50:14 GMT 50.971394 5.957260 23,750 246 397 960
2018-05-18 14:50:11 GMT 50.973404 5.964092 23,700 241 397 960
2018-05-18 14:50:08 GMT 50.975212 5.969772 23,600 241 397 960
2018-05-18 14:50:05 GMT 50.977959 5.978012 23,600 241 397 960
2018-05-18 14:50:02 GMT 50.981689 5.988662 23,525 241 397 960
2018-05-18 14:49:59 GMT 50.984013 5.995255 23,450 241 397 1024
2018-05-18 14:49:55 GMT 50.987923 6.006546 23,400 242 400 1024
2018-05-18 14:49:52 GMT 50.988991 6.009598 23,400 242 401 896
2018-05-18 14:49:49 GMT 50.992950 6.020889 23,325 200 386 0
2018-05-18 14:49:44 GMT 50.997070 6.032682 23,150 239 402 832
2018-05-18 14:49:41 GMT 51.000458 6.041812 23,150 235 403 960
2018-05-18 14:49:38 GMT 51.003517 6.049194 23,175 235 403 960
2018-05-18 14:49:35 GMT 51.006123 6.054993 23,125 229 403 1600
2018-05-18 14:49:32 GMT 51.010071 6.062746 23,075 200 394 2048
2018-05-18 14:49:29 GMT 51.013851 6.069336 22,950 224 403 1920
2018-05-18 14:49:26 GMT 51.016457 6.073532 22,625 200 396 1984
2018-05-18 14:49:23 GMT 51.021652 6.081155 22,450 200 391 2048
2018-05-18 14:49:20 GMT 51.027164 6.088104 22,675 216 401 2240
2018-05-18 14:49:16 GMT 51.030796 6.092148 22,250 208 401 1792
2018-05-18 14:49:13 GMT 51.034882 6.096299 22,500 210 401 1856
2018-05-18 14:49:10 GMT 51.042023 6.102534 22,350 205 400 1728
2018-05-18 14:49:07 GMT 51.045364 6.104984 22,225 201 399 1984
2018-05-18 14:49:04 GMT 51.050488 6.108322 21,825 200 395 1984
2018-05-18 14:49:01 GMT 51.056396 6.111813 22,025 200 398 2048
2018-05-18 14:48:58 GMT 51.062263 6.115112 21,975 200 397 2048
2018-05-18 14:48:55 GMT 51.067806 6.118164 21,825 200 396 1984
2018-05-18 14:48:52 GMT 51.071297 6.120148 21,600 200 392 2048
2018-05-18 14:48:49 GMT 51.078884 6.124344 21,650 200 394 2048
2018-05-18 14:48:46 GMT 51.081299 6.125694 21,525 200 393 2048
2018-05-18 14:48:43 GMT 51.086792 6.128812 21,500 200 393 2048
2018-05-18 14:48:40 GMT 51.092926 6.132227 21,375 200 392 2048
2018-05-18 14:48:37 GMT 51.097366 6.134720 21,225 200 391 2048
2018-05-18 14:48:34 GMT 51.103512 6.138153 21,100 200 387 2176
2018-05-18 14:48:31 GMT 51.108955 6.141205 20,600 200 389 2048
2018-05-18 14:48:28 GMT 51.113007 6.143494 20,750 200 387 2176
2018-05-18 14:48:25 GMT 51.117756 6.146164 20,775 200 387 2176
2018-05-18 14:48:22 GMT 51.123505 6.149374 20,750 200 387 2176
2018-05-18 14:48:18 GMT 51.128906 6.152418 20,625 200 383 2048
2018-05-18 14:48:15 GMT 51.134949 6.155833 20,450 200 383 1984
2018-05-18 14:48:12 GMT 51.140614 6.159058 20,400 200 383 1984
2018-05-18 14:48:07 GMT 51.147968 6.163177 20,200 200 380 2368
2018-05-18 14:48:04 GMT 51.152939 6.165928 20,075 200 380 2432
2018-05-18 14:48:01 GMT 51.157230 6.168365 20,025 200 380 2432
2018-05-18 14:47:58 GMT 51.162231 6.171199 19,900 200 379 2368
2018-05-18 14:47:55 GMT 51.169464 6.175281 19,575 200 378 2240
2018-05-18 14:47:52 GMT 51.173107 6.177292 19,575 200 377 2304
2018-05-18 14:47:49 GMT 51.178711 6.180478 19,500 200 376 2304
2018-05-18 14:47:46 GMT 51.182323 6.182480 18,700 200 375 2368
2018-05-18 14:47:43 GMT 51.188507 6.186045 19,275 200 374 2496
2018-05-18 14:47:40 GMT 51.194412 6.189385 19,075 200 374 2560
2018-05-18 14:47:37 GMT 51.198944 6.191909 19,025 200 373 2496
2018-05-18 14:47:34 GMT 51.203831 6.194687 18,800 200 372 2560
2018-05-18 14:47:31 GMT 51.208393 6.197281 18,500 200 366 2880
2018-05-18 14:47:28 GMT 51.211304 6.198961 18,325 200 366 2944
2018-05-18 14:47:25 GMT 51.217758 6.202599 18,500 200 369 2880
2018-05-18 14:47:22 GMT 51.223289 6.205750 18,325 200 370 2688
2018-05-18 14:47:19 GMT 51.226501 6.207581 18,000 200 369 2880
2018-05-18 14:47:16 GMT 51.233578 6.211624 18,075 200 369 2880
2018-05-18 14:47:12 GMT 51.239044 6.214699 17,825 200 369 2880
2018-05-18 14:47:09 GMT 51.242607 6.216736 17,500 204 353 2880
2018-05-18 14:47:06 GMT 51.247421 6.219449 17,525 200 369 2880
2018-05-18 14:47:03 GMT 51.252247 6.222153 17,500 200 368 2816
2018-05-18 14:47:00 GMT 51.258018 6.225433 17,250 200 368 2816
2018-05-18 14:46:56 GMT 51.265366 6.229545 17,125 200 368 2880
2018-05-18 14:46:53 GMT 51.269852 6.232069 16,925 200 366 3008
2018-05-18 14:46:49 GMT 51.276592 6.235809 16,625 200 366 3136
2018-05-18 14:46:46 GMT 51.279758 6.237640 16,550 200 366 3200
2018-05-18 14:46:43 GMT 51.284225 6.240158 16,425 200 366 3136
2018-05-18 14:46:39 GMT 51.290314 6.243575 16,175 200 365 2944
2018-05-18 14:46:36 GMT 51.295773 6.246567 16,175 200 366 3008
2018-05-18 14:46:32 GMT 51.302151 6.250229 15,975 200 365 2880
2018-05-18 14:46:29 GMT 51.307526 6.253225 15,575 200 364 2816
2018-05-18 14:46:26 GMT 51.312298 6.255951 15,675 200 364 2816
2018-05-18 14:46:22 GMT 51.318329 6.259386 15,225 200 363 2752
2018-05-18 14:46:18 GMT 51.325565 6.263580 15,225 201 361 2752
2018-05-18 14:46:15 GMT 51.329681 6.265993 14,950 201 361 2752
2018-05-18 14:46:12 GMT 51.333107 6.268005 14,875 201 359 2688
2018-05-18 14:46:09 GMT 51.338085 6.270981 14,900 201 358 2688
2018-05-18 14:46:05 GMT 51.344929 6.275024 14,725 201 357 2688
2018-05-18 14:46:01 GMT 51.351074 6.278839 14,550 202 356 2880
2018-05-18 14:45:58 GMT 51.354752 6.281128 14,375 203 355 3072
2018-05-18 14:45:55 GMT 51.359985 6.284477 14,225 205 352 3008
2018-05-18 14:45:52 GMT 51.365135 6.287842 14,050 203 355 3072
2018-05-18 14:45:49 GMT 51.369690 6.290786 13,950 203 354 3072
2018-05-18 14:45:44 GMT 51.376328 6.295314 13,575 204 353 2880
2018-05-18 14:45:41 GMT 51.380821 6.298447 13,500 204 352 2816
2018-05-18 14:45:38 GMT 51.385014 6.301346 13,425 204 352 2944
2018-05-18 14:45:35 GMT 51.390366 6.305161 13,250 204 352 3200
2018-05-18 14:45:31 GMT 51.395416 6.308750 12,950 205 351 3264
2018-05-18 14:45:28 GMT 51.400421 6.312408 12,900 205 352 3136
2018-05-18 14:45:24 GMT 51.405487 6.316099 12,675 205 351 2368
2018-05-18 14:45:21 GMT 51.411079 6.320114 12,525 204 350 2176
2018-05-18 14:45:18 GMT 51.415558 6.323226 12,000 198 349 2944
2018-05-18 14:45:14 GMT 51.420319 6.326418 12,225 201 348 3200
2018-05-18 14:45:11 GMT 51.427280 6.330490 11,950 199 348 3136
2018-05-18 14:45:08 GMT 51.429703 6.331787 11,950 194 349 2432
2018-05-18 14:45:05 GMT 51.436249 6.334657 11,825 193 349 2432
2018-05-18 14:45:02 GMT 51.439407 6.335622 11,575 186 348 2560
2018-05-18 14:44:57 GMT 51.448090 6.336823 11,000 160 348 1280
2018-05-18 14:44:52 GMT 51.455818 6.335983 11,275 161 349 1408
2018-05-18 14:44:47 GMT 51.464012 6.333160 10,850 151 341 1088
2018-05-18 14:44:44 GMT 51.469757 6.329832 11,025 157 347 1088
2018-05-18 14:44:39 GMT 51.475525 6.325453 10,925 149 339 1216
2018-05-18 14:44:36 GMT 51.479416 6.322038 10,925 149 339 1216
2018-05-18 14:44:32 GMT 51.485054 6.316605 10,850 148 327 896
2018-05-18 14:44:29 GMT 51.489799 6.311951 10,775 148 326 1024
2018-05-18 14:44:25 GMT 51.495480 6.306381 10,725 148 326 1024
2018-05-18 14:44:22 GMT 51.498039 6.303864 10,700 148 321 1216
2018-05-18 14:44:18 GMT 51.504047 6.297836 10,600 148 316 1024
2018-05-18 14:44:15 GMT 51.506561 6.295395 10,525 148 311 704
2018-05-18 14:44:12 GMT 51.510517 6.291504 10,500 148 308 896
2018-05-18 14:44:09 GMT 51.514114 6.287966 10,325 148 300 2432
2018-05-18 14:44:06 GMT 51.517502 6.284625 10,400 148 302 1984
2018-05-18 14:44:03 GMT 51.520340 6.281804 10,150 148 300 2624
2018-05-18 14:44:00 GMT 51.524094 6.278093 9,900 146 236 3200
2018-05-18 14:43:56 GMT 51.529312 6.272971 9,900 148 297 2304
2018-05-18 14:43:53 GMT 51.533279 6.269073 9,800 148 297 2176
2018-05-18 14:43:49 GMT 51.538696 6.263840 9,700 148 295 2112
2018-05-18 14:43:45 GMT 51.542404 6.260277 9,500 148 292 2496
2018-05-18 14:43:42 GMT 51.546570 6.256268 9,425 148 290 2688
2018-05-18 14:43:39 GMT 51.549316 6.253596 9,325 149 289 3136
2018-05-18 14:43:35 GMT 51.553673 6.249390 8,725 149 289 3136
2018-05-18 14:43:32 GMT 51.558060 6.245208 8,800 149 289 3200
2018-05-18 14:43:29 GMT 51.560349 6.242981 8,625 149 289 3200
2018-05-18 14:43:25 GMT 51.565590 6.237946 8,500 149 289 2304
2018-05-18 14:43:22 GMT 51.568848 6.234818 8,400 149 287 2112
2018-05-18 14:43:19 GMT 51.571594 6.232224 8,325 149 284 2496
2018-05-18 14:43:16 GMT 51.576572 6.227493 8,225 149 283 2880
2018-05-18 14:43:13 GMT 51.578854 6.225433 7,975 149 282 3712
2018-05-18 14:43:09 GMT 51.583603 6.220934 7,700 149 285 3776
2018-05-18 14:43:06 GMT 51.587002 6.217804 7,500 149 285 3712
2018-05-18 14:43:03 GMT 51.590424 6.214624 7,400 149 285 3648
2018-05-18 14:43:00 GMT 51.593845 6.211395 7,250 149 287 2816
2018-05-18 14:42:57 GMT 51.597057 6.208420 7,050 149 288 2304
2018-05-18 14:42:54 GMT 51.600952 6.204752 6,800 149 274 1216
2018-05-18 14:42:51 GMT 51.604156 6.201782 6,800 149 262 768
2018-05-18 14:42:46 GMT 51.609558 6.196734 6,850 149 274 1216
2018-05-18 14:42:42 GMT 51.613953 6.192577 6,725 149 262 768
2018-05-18 14:42:39 GMT 51.617634 6.189194 6,700 149 266 832
2018-05-18 14:42:36 GMT 51.620983 6.185989 6,600 149 255 1088
2018-05-18 14:42:32 GMT 51.624115 6.183002 6,625 149 255 1088
2018-05-18 14:42:29 GMT 51.628712 6.178589 6,525 149 245 1728
2018-05-18 14:42:26 GMT 51.629925 6.177444 6,500 149 247 1600
2018-05-18 14:42:23 GMT 51.634415 6.173129 6,375 148 242 1856
2018-05-18 14:42:20 GMT 51.636116 6.171494 6,325 148 238 2304
2018-05-18 14:42:17 GMT 51.639313 6.168304 6,125 140 238 3776
2018-05-18 14:42:14 GMT 51.642609 6.164815 6,000 144 236 3648
2018-05-18 14:42:11 GMT 51.644588 6.162567 5,725 140 238 3776
2018-05-18 14:42:07 GMT 51.647938 6.158066 5,625 133 240 3520
2018-05-18 14:42:02 GMT 51.652081 6.150589 5,000 125 241 3136
2018-05-18 14:41:58 GMT 51.654785 6.144401 5,075 124 241 3136
2018-05-18 14:41:55 GMT 51.656021 6.141432 4,975 124 241 3392
2018-05-18 14:41:52 GMT 51.658768 6.134899 4,675 123 242 2944
2018-05-18 14:41:48 GMT 51.660370 6.130981 4,550 121 241 2240
2018-05-18 14:41:45 GMT 51.661835 6.126956 4,475 114 237 768
2018-05-18 14:41:41 GMT 51.664352 6.117974 4,400 107 231 896
2018-05-18 14:41:35 GMT 51.665543 6.109363 4,275 92 222 1280
2018-05-18 14:41:32 GMT 51.665726 6.105429 4,225 90 221 1280
2018-05-18 14:41:29 GMT 51.665630 6.099854 4,175 74 214 1600
2018-05-18 14:41:26 GMT 51.665176 6.095037 3,825 76 214 1088
2018-05-18 14:41:23 GMT 51.664417 6.090469 4,075 69 214 1984
2018-05-18 14:41:20 GMT 51.662842 6.084273 3,950 62 212 2048
2018-05-18 14:41:13 GMT 51.659531 6.076202 3,750 48 205 1920
2018-05-18 14:41:08 GMT 51.656479 6.071282 3,550 28 196 2304
2018-05-18 14:41:02 GMT 51.652222 6.066606 3,425 26 195 2432
2018-05-18 14:40:57 GMT 51.647278 6.063265 3,150 16 192 2496
2018-05-18 14:40:52 GMT 51.643330 6.061859 2,975 7 189 2432
2018-05-18 14:40:47 GMT 51.638580 6.061410 2,750 356 188 2304
2018-05-18 14:40:42 GMT 51.634827 6.062300 2,525 341 186 2048
2018-05-18 14:40:38 GMT 51.631367 6.064072 2,425 329 187 2944
2018-05-18 14:40:35 GMT 51.629654 6.065270 2,325 334 185 2880
2018-05-18 14:40:29 GMT 51.624847 6.069724 2,000 328 188 2432
2018-05-18 14:40:25 GMT 51.621597 6.072990 1,850 328 187 1536
2018-05-18 14:40:21 GMT 51.619263 6.075365 1,750 328 184 1344
2018-05-18 14:40:15 GMT 51.614319 6.080858 1,625 318 175 896
2018-05-18 14:40:11 GMT 51.612560 6.083527 1,575 313 171 960
2018-05-18 14:40:04 GMT 51.608742 6.091385 1,375 297 163 1920
2018-05-18 14:40:01 GMT 51.607910 6.093775 1,300 295 163 1856
2018-05-18 14:39:55 GMT 51.606216 6.100381 1,100 289 160 2560
2018-05-18 14:39:50 GMT 51.605206 6.105652 875 288 160 3072

Making use of Plane Finder data

You are free to use the raw flight data, aircraft information and images provided in this report for your own purposes provided the data is correctly attributed to Plane Finder. We ask that you please credit Plane Finder and link to planefinder.net in close proximity to the content.

Optionally one of the following logos (no smaller then 150x24px) can be used and must link to planefinder.net

Embedding the Plane Finder map

You are welcome to embed the Plane Finder playback map on your website to offer visitors a more interactive experience. We suggest using the following HTML code:

<iframe src="//planefinder.net/data/report/FR1816-EI-EKB-7700-squawk-2018-05-18/map" width="800" height="600" seamless="seamless"></iframe>

Where our data comes from

Plane Finder has a global network of data feeds and antenna radars that receive data broadcast directly from aircraft. The primary technologies used are ADS-B and MLAT. We also show feeds from the FAA and a FLARM glider feed.

Click here to find out more about the Plane Finder network.

How we collect our data